<?xml version="1.0" encoding="UTF-8" standalone="no" ?>
<gpx xmlns="http://www.topografix.com/GPX/1/1" xmlns:xsi="http://www.w3.org/2001/XMLSchema-instance" xsi:schemaLocation="http://www.topografix.com/GPX/1/1 http://www.topografix.com/GPX/1/1/gpx.xsd" version="1.1" creator="VisuGPX - https://www.visugpx.com">
  <metadata>
    <name>Source des Eaux Vives</name>
    <desc><![CDATA[Difficulté moyenne,
beau panorama sur les collines Est de Marseille.
 ]]></desc>
  </metadata>
  <trk>
    <name><![CDATA[Source des Eaux Vives_1]]></name>
    <trkseg>
      <trkpt lat="43.27899" lon="5.46521">
        <ele>233.1</ele>
        <time>2013-02-20T08:08:52Z</time>
      </trkpt>
      <trkpt lat="43.2789" lon="5.46546">
        <ele>202.1</ele>
        <time>2013-02-20T08:08:53Z</time>
      </trkpt>
      <trkpt lat="43.27883" lon="5.46552">
        <ele>187.1</ele>
        <time>2013-02-20T08:09:02Z</time>
      </trkpt>
      <trkpt lat="43.27876" lon="5.46556">
        <ele>180.3</ele>
        <time>2013-02-20T08:09:06Z</time>
      </trkpt>
      <trkpt lat="43.27874" lon="5.46557">
        <ele>178.6</ele>
        <time>2013-02-20T08:09:07Z</time>
      </trkpt>
      <trkpt lat="43.27861" lon="5.46565">
        <ele>172.6</ele>
        <time>2013-02-20T08:09:14Z</time>
      </trkpt>
      <trkpt lat="43.27854" lon="5.4657">
        <ele>169</ele>
        <time>2013-02-20T08:09:21Z</time>
      </trkpt>
      <trkpt lat="43.27851" lon="5.46581">
        <ele>137.5</ele>
        <time>2013-02-20T08:09:23Z</time>
      </trkpt>
      <trkpt lat="43.27844" lon="5.46587">
        <ele>132.6</ele>
        <time>2013-02-20T08:09:33Z</time>
      </trkpt>
      <trkpt lat="43.27839" lon="5.46597">
        <ele>136.6</ele>
        <time>2013-02-20T08:09:42Z</time>
      </trkpt>
      <trkpt lat="43.2783" lon="5.46601">
        <ele>146</ele>
        <time>2013-02-20T08:09:54Z</time>
      </trkpt>
      <trkpt lat="43.27823" lon="5.46605">
        <ele>133.8</ele>
        <time>2013-02-20T08:10:13Z</time>
      </trkpt>
      <trkpt lat="43.27821" lon="5.46606">
        <ele>133.6</ele>
        <time>2013-02-20T08:10:14Z</time>
      </trkpt>
      <trkpt lat="43.27807" lon="5.46598">
        <ele>130.3</ele>
        <time>2013-02-20T08:10:36Z</time>
      </trkpt>
      <trkpt lat="43.27799" lon="5.46599">
        <ele>138.3</ele>
        <time>2013-02-20T08:10:55Z</time>
      </trkpt>
      <trkpt lat="43.2779" lon="5.46596">
        <ele>153.8</ele>
        <time>2013-02-20T08:11:10Z</time>
      </trkpt>
      <trkpt lat="43.27784" lon="5.46597">
        <ele>176.1</ele>
        <time>2013-02-20T08:11:30Z</time>
      </trkpt>
      <trkpt lat="43.27781" lon="5.46597">
        <ele>180.6</ele>
        <time>2013-02-20T08:11:31Z</time>
      </trkpt>
      <trkpt lat="43.27768" lon="5.46599">
        <ele>175.6</ele>
        <time>2013-02-20T08:11:54Z</time>
      </trkpt>
      <trkpt lat="43.27759" lon="5.46597">
        <ele>155.1</ele>
        <time>2013-02-20T08:12:25Z</time>
      </trkpt>
      <trkpt lat="43.27752" lon="5.466">
        <ele>160</ele>
        <time>2013-02-20T08:12:33Z</time>
      </trkpt>
      <trkpt lat="43.27751" lon="5.46602">
        <ele>160.3</ele>
        <time>2013-02-20T08:12:34Z</time>
      </trkpt>
      <trkpt lat="43.27738" lon="5.4661">
        <ele>142.8</ele>
        <time>2013-02-20T08:13:09Z</time>
      </trkpt>
      <trkpt lat="43.2773" lon="5.46611">
        <ele>141.8</ele>
        <time>2013-02-20T08:13:17Z</time>
      </trkpt>
      <trkpt lat="43.27722" lon="5.46614">
        <ele>138</ele>
        <time>2013-02-20T08:13:30Z</time>
      </trkpt>
      <trkpt lat="43.27713" lon="5.46615">
        <ele>148.8</ele>
        <time>2013-02-20T08:13:40Z</time>
      </trkpt>
      <trkpt lat="43.27713" lon="5.46616">
        <ele>149.3</ele>
        <time>2013-02-20T08:13:41Z</time>
      </trkpt>
      <trkpt lat="43.27708" lon="5.46623">
        <ele>145.8</ele>
        <time>2013-02-20T08:15:00Z</time>
      </trkpt>
      <trkpt lat="43.27709" lon="5.46624">
        <ele>145.3</ele>
        <time>2013-02-20T08:15:01Z</time>
      </trkpt>
      <trkpt lat="43.27691" lon="5.46627">
        <ele>161.1</ele>
        <time>2013-02-20T08:16:00Z</time>
      </trkpt>
      <trkpt lat="43.27685" lon="5.46635">
        <ele>156.6</ele>
        <time>2013-02-20T08:16:52Z</time>
      </trkpt>
      <trkpt lat="43.27684" lon="5.46636">
        <ele>156.3</ele>
        <time>2013-02-20T08:16:53Z</time>
      </trkpt>
      <trkpt lat="43.27668" lon="5.46641">
        <ele>174.1</ele>
        <time>2013-02-20T08:17:14Z</time>
      </trkpt>
      <trkpt lat="43.27662" lon="5.46648">
        <ele>165.8</ele>
        <time>2013-02-20T08:17:57Z</time>
      </trkpt>
      <trkpt lat="43.27661" lon="5.46648">
        <ele>166.8</ele>
        <time>2013-02-20T08:17:58Z</time>
      </trkpt>
      <trkpt lat="43.27644" lon="5.46643">
        <ele>167.8</ele>
        <time>2013-02-20T08:19:26Z</time>
      </trkpt>
      <trkpt lat="43.27643" lon="5.46643">
        <ele>170.3</ele>
        <time>2013-02-20T08:19:27Z</time>
      </trkpt>
      <trkpt lat="43.27632" lon="5.46652">
        <ele>174.8</ele>
        <time>2013-02-20T08:20:30Z</time>
      </trkpt>
      <trkpt lat="43.27631" lon="5.46652">
        <ele>176.6</ele>
        <time>2013-02-20T08:20:31Z</time>
      </trkpt>
      <trkpt lat="43.27615" lon="5.46656">
        <ele>186.3</ele>
        <time>2013-02-20T08:21:03Z</time>
      </trkpt>
      <trkpt lat="43.27606" lon="5.46658">
        <ele>190.8</ele>
        <time>2013-02-20T08:21:18Z</time>
      </trkpt>
      <trkpt lat="43.27598" lon="5.46656">
        <ele>189.8</ele>
        <time>2013-02-20T08:21:35Z</time>
      </trkpt>
      <trkpt lat="43.27597" lon="5.46656">
        <ele>191.1</ele>
        <time>2013-02-20T08:21:36Z</time>
      </trkpt>
      <trkpt lat="43.27584" lon="5.46647">
        <ele>194.8</ele>
        <time>2013-02-20T08:21:57Z</time>
      </trkpt>
      <trkpt lat="43.27576" lon="5.46644">
        <ele>194.3</ele>
        <time>2013-02-20T08:22:04Z</time>
      </trkpt>
      <trkpt lat="43.27568" lon="5.46644">
        <ele>183.8</ele>
        <time>2013-02-20T08:22:37Z</time>
      </trkpt>
      <trkpt lat="43.27567" lon="5.46644">
        <ele>183.6</ele>
        <time>2013-02-20T08:22:38Z</time>
      </trkpt>
      <trkpt lat="43.27552" lon="5.46638">
        <ele>181.1</ele>
        <time>2013-02-20T08:23:20Z</time>
      </trkpt>
      <trkpt lat="43.27552" lon="5.4665">
        <ele>176.8</ele>
        <time>2013-02-20T08:23:51Z</time>
      </trkpt>
      <trkpt lat="43.27552" lon="5.46651">
        <ele>176.6</ele>
        <time>2013-02-20T08:23:52Z</time>
      </trkpt>
      <trkpt lat="43.27546" lon="5.46664">
        <ele>172.5</ele>
        <time>2013-02-20T08:24:15Z</time>
      </trkpt>
      <trkpt lat="43.27539" lon="5.4667">
        <ele>174.1</ele>
        <time>2013-02-20T08:24:28Z</time>
      </trkpt>
      <trkpt lat="43.27531" lon="5.46675">
        <ele>175.8</ele>
        <time>2013-02-20T08:24:47Z</time>
      </trkpt>
      <trkpt lat="43.27529" lon="5.46687">
        <ele>175.1</ele>
        <time>2013-02-20T08:25:04Z</time>
      </trkpt>
      <trkpt lat="43.27529" lon="5.46688">
        <ele>175.1</ele>
        <time>2013-02-20T08:25:05Z</time>
      </trkpt>
      <trkpt lat="43.27528" lon="5.4671">
        <ele>174.3</ele>
        <time>2013-02-20T08:25:39Z</time>
      </trkpt>
      <trkpt lat="43.27519" lon="5.46708">
        <ele>172.3</ele>
        <time>2013-02-20T08:26:06Z</time>
      </trkpt>
      <trkpt lat="43.27519" lon="5.46708">
        <ele>172.5</ele>
        <time>2013-02-20T08:26:07Z</time>
      </trkpt>
      <trkpt lat="43.27516" lon="5.46686">
        <ele>173.8</ele>
        <time>2013-02-20T08:26:27Z</time>
      </trkpt>
      <trkpt lat="43.27518" lon="5.46676">
        <ele>174.3</ele>
        <time>2013-02-20T08:26:34Z</time>
      </trkpt>
      <trkpt lat="43.27521" lon="5.46666">
        <ele>174.3</ele>
        <time>2013-02-20T08:26:40Z</time>
      </trkpt>
      <trkpt lat="43.27524" lon="5.46655">
        <ele>174.6</ele>
        <time>2013-02-20T08:26:47Z</time>
      </trkpt>
      <trkpt lat="43.27525" lon="5.46644">
        <ele>190.1</ele>
        <time>2013-02-20T08:26:57Z</time>
      </trkpt>
      <trkpt lat="43.27526" lon="5.46632">
        <ele>191.1</ele>
        <time>2013-02-20T08:27:07Z</time>
      </trkpt>
      <trkpt lat="43.27526" lon="5.46631">
        <ele>191.3</ele>
        <time>2013-02-20T08:27:08Z</time>
      </trkpt>
      <trkpt lat="43.27515" lon="5.46614">
        <ele>201.1</ele>
        <time>2013-02-20T08:28:09Z</time>
      </trkpt>
      <trkpt lat="43.27514" lon="5.46614">
        <ele>201.3</ele>
        <time>2013-02-20T08:28:10Z</time>
      </trkpt>
      <trkpt lat="43.275" lon="5.46623">
        <ele>195.3</ele>
        <time>2013-02-20T08:28:31Z</time>
      </trkpt>
      <trkpt lat="43.27496" lon="5.46633">
        <ele>198.3</ele>
        <time>2013-02-20T08:28:42Z</time>
      </trkpt>
      <trkpt lat="43.27492" lon="5.46644">
        <ele>201.1</ele>
        <time>2013-02-20T08:28:58Z</time>
      </trkpt>
      <trkpt lat="43.27488" lon="5.46655">
        <ele>201.6</ele>
        <time>2013-02-20T08:29:10Z</time>
      </trkpt>
      <trkpt lat="43.27484" lon="5.46666">
        <ele>203.1</ele>
        <time>2013-02-20T08:29:22Z</time>
      </trkpt>
      <trkpt lat="43.27484" lon="5.46667">
        <ele>203.3</ele>
        <time>2013-02-20T08:29:23Z</time>
      </trkpt>
      <trkpt lat="43.27479" lon="5.46688">
        <ele>208.8</ele>
        <time>2013-02-20T08:29:58Z</time>
      </trkpt>
      <trkpt lat="43.27475" lon="5.46699">
        <ele>211.1</ele>
        <time>2013-02-20T08:30:14Z</time>
      </trkpt>
      <trkpt lat="43.2747" lon="5.46709">
        <ele>213</ele>
        <time>2013-02-20T08:30:30Z</time>
      </trkpt>
      <trkpt lat="43.2747" lon="5.4671">
        <ele>213.1</ele>
        <time>2013-02-20T08:30:31Z</time>
      </trkpt>
      <trkpt lat="43.27462" lon="5.46729">
        <ele>217.5</ele>
        <time>2013-02-20T08:30:57Z</time>
      </trkpt>
      <trkpt lat="43.27459" lon="5.46741">
        <ele>220.6</ele>
        <time>2013-02-20T08:31:14Z</time>
      </trkpt>
      <trkpt lat="43.27456" lon="5.46752">
        <ele>219.8</ele>
        <time>2013-02-20T08:31:25Z</time>
      </trkpt>
      <trkpt lat="43.27454" lon="5.46763">
        <ele>219.3</ele>
        <time>2013-02-20T08:31:37Z</time>
      </trkpt>
      <trkpt lat="43.27454" lon="5.46764">
        <ele>218.6</ele>
        <time>2013-02-20T08:31:38Z</time>
      </trkpt>
      <trkpt lat="43.27451" lon="5.46786">
        <ele>225.1</ele>
        <time>2013-02-20T08:32:00Z</time>
      </trkpt>
      <trkpt lat="43.27447" lon="5.46797">
        <ele>226.1</ele>
        <time>2013-02-20T08:32:13Z</time>
      </trkpt>
      <trkpt lat="43.27445" lon="5.46808">
        <ele>226.8</ele>
        <time>2013-02-20T08:32:27Z</time>
      </trkpt>
      <trkpt lat="43.27444" lon="5.4682">
        <ele>230</ele>
        <time>2013-02-20T08:32:38Z</time>
      </trkpt>
      <trkpt lat="43.27444" lon="5.46821">
        <ele>229</ele>
        <time>2013-02-20T08:32:39Z</time>
      </trkpt>
      <trkpt lat="43.27438" lon="5.46842">
        <ele>235.1</ele>
        <time>2013-02-20T08:33:11Z</time>
      </trkpt>
      <trkpt lat="43.27431" lon="5.4685">
        <ele>235.8</ele>
        <time>2013-02-20T08:33:25Z</time>
      </trkpt>
      <trkpt lat="43.27431" lon="5.46863">
        <ele>234.6</ele>
        <time>2013-02-20T08:33:38Z</time>
      </trkpt>
      <trkpt lat="43.2743" lon="5.46861">
        <ele>234.6</ele>
        <time>2013-02-20T08:33:39Z</time>
      </trkpt>
      <trkpt lat="43.27417" lon="5.46878">
        <ele>235.6</ele>
        <time>2013-02-20T08:34:12Z</time>
      </trkpt>
      <trkpt lat="43.2741" lon="5.46885">
        <ele>242.8</ele>
        <time>2013-02-20T08:34:29Z</time>
      </trkpt>
      <trkpt lat="43.27405" lon="5.46894">
        <ele>247.6</ele>
        <time>2013-02-20T08:34:46Z</time>
      </trkpt>
      <trkpt lat="43.27404" lon="5.46894">
        <ele>247.8</ele>
        <time>2013-02-20T08:34:47Z</time>
      </trkpt>
      <trkpt lat="43.27394" lon="5.46909">
        <ele>251.1</ele>
        <time>2013-02-20T08:35:21Z</time>
      </trkpt>
      <trkpt lat="43.27386" lon="5.46912">
        <ele>256.5</ele>
        <time>2013-02-20T08:35:39Z</time>
      </trkpt>
      <trkpt lat="43.27378" lon="5.46915">
        <ele>256.7</ele>
        <time>2013-02-20T08:35:52Z</time>
      </trkpt>
      <trkpt lat="43.27377" lon="5.46915">
        <ele>256.7</ele>
        <time>2013-02-20T08:35:53Z</time>
      </trkpt>
      <trkpt lat="43.27362" lon="5.46922">
        <ele>259.7</ele>
        <time>2013-02-20T08:36:13Z</time>
      </trkpt>
      <trkpt lat="43.27353" lon="5.46922">
        <ele>260.6</ele>
        <time>2013-02-20T08:36:30Z</time>
      </trkpt>
      <trkpt lat="43.27345" lon="5.46917">
        <ele>262.7</ele>
        <time>2013-02-20T08:36:46Z</time>
      </trkpt>
      <trkpt lat="43.27337" lon="5.46913">
        <ele>265.2</ele>
        <time>2013-02-20T08:37:07Z</time>
      </trkpt>
      <trkpt lat="43.27337" lon="5.46913">
        <ele>265.2</ele>
        <time>2013-02-20T08:37:08Z</time>
      </trkpt>
      <trkpt lat="43.2732" lon="5.46906">
        <ele>270.5</ele>
        <time>2013-02-20T08:37:44Z</time>
      </trkpt>
      <trkpt lat="43.27312" lon="5.46905">
        <ele>272.7</ele>
        <time>2013-02-20T08:38:03Z</time>
      </trkpt>
      <trkpt lat="43.27304" lon="5.469">
        <ele>275.3</ele>
        <time>2013-02-20T08:38:23Z</time>
      </trkpt>
      <trkpt lat="43.27303" lon="5.46899">
        <ele>275.6</ele>
        <time>2013-02-20T08:38:24Z</time>
      </trkpt>
      <trkpt lat="43.27309" lon="5.46922">
        <ele>275.2</ele>
        <time>2013-02-20T08:38:48Z</time>
      </trkpt>
      <trkpt lat="43.27313" lon="5.4693">
        <ele>276.2</ele>
        <time>2013-02-20T08:38:58Z</time>
      </trkpt>
      <trkpt lat="43.27317" lon="5.46939">
        <ele>271.2</ele>
        <time>2013-02-20T08:39:02Z</time>
      </trkpt>
      <trkpt lat="43.27322" lon="5.46948">
        <ele>270</ele>
        <time>2013-02-20T08:39:09Z</time>
      </trkpt>
      <trkpt lat="43.27328" lon="5.46957">
        <ele>271.1</ele>
        <time>2013-02-20T08:39:18Z</time>
      </trkpt>
      <trkpt lat="43.27334" lon="5.46964">
        <ele>272.8</ele>
        <time>2013-02-20T08:39:27Z</time>
      </trkpt>
      <trkpt lat="43.27335" lon="5.46966">
        <ele>272.5</ele>
        <time>2013-02-20T08:39:28Z</time>
      </trkpt>
      <trkpt lat="43.27345" lon="5.46979">
        <ele>271.6</ele>
        <time>2013-02-20T08:39:43Z</time>
      </trkpt>
      <trkpt lat="43.27337" lon="5.46976">
        <ele>284.8</ele>
        <time>2013-02-20T08:40:49Z</time>
      </trkpt>
      <trkpt lat="43.27336" lon="5.46975">
        <ele>285.1</ele>
        <time>2013-02-20T08:40:50Z</time>
      </trkpt>
      <trkpt lat="43.27327" lon="5.46976">
        <ele>284.7</ele>
        <time>2013-02-20T08:41:56Z</time>
      </trkpt>
      <trkpt lat="43.27313" lon="5.46965">
        <ele>288.7</ele>
        <time>2013-02-20T08:42:16Z</time>
      </trkpt>
      <trkpt lat="43.27306" lon="5.46959">
        <ele>290</ele>
        <time>2013-02-20T08:42:27Z</time>
      </trkpt>
      <trkpt lat="43.27299" lon="5.46952">
        <ele>294.3</ele>
        <time>2013-02-20T08:42:39Z</time>
      </trkpt>
      <trkpt lat="43.27292" lon="5.46945">
        <ele>294.7</ele>
        <time>2013-02-20T08:42:51Z</time>
      </trkpt>
      <trkpt lat="43.27287" lon="5.46937">
        <ele>294.7</ele>
        <time>2013-02-20T08:43:00Z</time>
      </trkpt>
      <trkpt lat="43.27286" lon="5.46935">
        <ele>294.7</ele>
        <time>2013-02-20T08:43:01Z</time>
      </trkpt>
      <trkpt lat="43.27272" lon="5.46923">
        <ele>295.7</ele>
        <time>2013-02-20T08:43:20Z</time>
      </trkpt>
      <trkpt lat="43.27267" lon="5.46914">
        <ele>296.3</ele>
        <time>2013-02-20T08:43:32Z</time>
      </trkpt>
      <trkpt lat="43.27262" lon="5.46904">
        <ele>296.7</ele>
        <time>2013-02-20T08:43:43Z</time>
      </trkpt>
      <trkpt lat="43.27254" lon="5.46898">
        <ele>298</ele>
        <time>2013-02-20T08:43:58Z</time>
      </trkpt>
      <trkpt lat="43.27251" lon="5.46909">
        <ele>301.2</ele>
        <time>2013-02-20T08:44:23Z</time>
      </trkpt>
      <trkpt lat="43.27251" lon="5.4691">
        <ele>301.3</ele>
        <time>2013-02-20T08:44:24Z</time>
      </trkpt>
      <trkpt lat="43.27251" lon="5.46933">
        <ele>307.1</ele>
        <time>2013-02-20T08:44:58Z</time>
      </trkpt>
      <trkpt lat="43.27255" lon="5.46942">
        <ele>307.5</ele>
        <time>2013-02-20T08:45:07Z</time>
      </trkpt>
      <trkpt lat="43.27258" lon="5.46953">
        <ele>308.7</ele>
        <time>2013-02-20T08:45:18Z</time>
      </trkpt>
      <trkpt lat="43.27262" lon="5.46963">
        <ele>310</ele>
        <time>2013-02-20T08:45:32Z</time>
      </trkpt>
      <trkpt lat="43.27263" lon="5.46964">
        <ele>310</ele>
        <time>2013-02-20T08:45:33Z</time>
      </trkpt>
      <trkpt lat="43.27271" lon="5.46983">
        <ele>312.1</ele>
        <time>2013-02-20T08:45:56Z</time>
      </trkpt>
      <trkpt lat="43.27274" lon="5.46995">
        <ele>315</ele>
        <time>2013-02-20T08:46:13Z</time>
      </trkpt>
      <trkpt lat="43.27279" lon="5.47004">
        <ele>316.3</ele>
        <time>2013-02-20T08:46:27Z</time>
      </trkpt>
      <trkpt lat="43.27282" lon="5.47015">
        <ele>318.3</ele>
        <time>2013-02-20T08:46:38Z</time>
      </trkpt>
      <trkpt lat="43.27282" lon="5.47016">
        <ele>318.7</ele>
        <time>2013-02-20T08:46:39Z</time>
      </trkpt>
      <trkpt lat="43.27287" lon="5.47038">
        <ele>322.5</ele>
        <time>2013-02-20T08:47:03Z</time>
      </trkpt>
      <trkpt lat="43.27292" lon="5.47047">
        <ele>323.5</ele>
        <time>2013-02-20T08:47:15Z</time>
      </trkpt>
      <trkpt lat="43.27293" lon="5.47059">
        <ele>325.8</ele>
        <time>2013-02-20T08:47:32Z</time>
      </trkpt>
      <trkpt lat="43.27294" lon="5.47071">
        <ele>327.3</ele>
        <time>2013-02-20T08:47:45Z</time>
      </trkpt>
      <trkpt lat="43.27295" lon="5.47072">
        <ele>327.6</ele>
        <time>2013-02-20T08:47:46Z</time>
      </trkpt>
      <trkpt lat="43.27294" lon="5.47095">
        <ele>330.7</ele>
        <time>2013-02-20T08:48:15Z</time>
      </trkpt>
      <trkpt lat="43.27293" lon="5.47107">
        <ele>333.3</ele>
        <time>2013-02-20T08:48:35Z</time>
      </trkpt>
      <trkpt lat="43.27293" lon="5.47119">
        <ele>333.8</ele>
        <time>2013-02-20T08:48:45Z</time>
      </trkpt>
      <trkpt lat="43.27294" lon="5.47131">
        <ele>334.1</ele>
        <time>2013-02-20T08:48:59Z</time>
      </trkpt>
      <trkpt lat="43.27295" lon="5.47132">
        <ele>333</ele>
        <time>2013-02-20T08:49:00Z</time>
      </trkpt>
      <trkpt lat="43.27292" lon="5.47155">
        <ele>345.6</ele>
        <time>2013-02-20T08:49:46Z</time>
      </trkpt>
      <trkpt lat="43.27294" lon="5.47166">
        <ele>347.6</ele>
        <time>2013-02-20T08:50:00Z</time>
      </trkpt>
      <trkpt lat="43.27294" lon="5.47167">
        <ele>346.3</ele>
        <time>2013-02-20T08:50:01Z</time>
      </trkpt>
      <trkpt lat="43.27305" lon="5.47185">
        <ele>347.2</ele>
        <time>2013-02-20T08:50:26Z</time>
      </trkpt>
      <trkpt lat="43.27312" lon="5.47192">
        <ele>348.7</ele>
        <time>2013-02-20T08:50:54Z</time>
      </trkpt>
      <trkpt lat="43.27314" lon="5.47204">
        <ele>353.6</ele>
        <time>2013-02-20T08:51:23Z</time>
      </trkpt>
      <trkpt lat="43.27314" lon="5.47204">
        <ele>353.3</ele>
        <time>2013-02-20T08:51:24Z</time>
      </trkpt>
      <trkpt lat="43.273" lon="5.47215">
        <ele>359.8</ele>
        <time>2013-02-20T08:52:08Z</time>
      </trkpt>
      <trkpt lat="43.27291" lon="5.47217">
        <ele>359.5</ele>
        <time>2013-02-20T08:52:17Z</time>
      </trkpt>
      <trkpt lat="43.27283" lon="5.47219">
        <ele>354.7</ele>
        <time>2013-02-20T08:59:21Z</time>
      </trkpt>
      <trkpt lat="43.27282" lon="5.47219">
        <ele>355</ele>
        <time>2013-02-20T08:59:22Z</time>
      </trkpt>
      <trkpt lat="43.27266" lon="5.47229">
        <ele>358.1</ele>
        <time>2013-02-20T08:59:57Z</time>
      </trkpt>
      <trkpt lat="43.2726" lon="5.47238">
        <ele>358.2</ele>
        <time>2013-02-20T09:00:08Z</time>
      </trkpt>
      <trkpt lat="43.27254" lon="5.47246">
        <ele>358.5</ele>
        <time>2013-02-20T09:00:17Z</time>
      </trkpt>
      <trkpt lat="43.27248" lon="5.47256">
        <ele>359.2</ele>
        <time>2013-02-20T09:00:25Z</time>
      </trkpt>
      <trkpt lat="43.27248" lon="5.47256">
        <ele>359.2</ele>
        <time>2013-02-20T09:00:26Z</time>
      </trkpt>
      <trkpt lat="43.27231" lon="5.47259">
        <ele>362.2</ele>
        <time>2013-02-20T09:01:02Z</time>
      </trkpt>
      <trkpt lat="43.27223" lon="5.47256">
        <ele>363.7</ele>
        <time>2013-02-20T09:01:13Z</time>
      </trkpt>
      <trkpt lat="43.27215" lon="5.47257">
        <ele>365.1</ele>
        <time>2013-02-20T09:01:23Z</time>
      </trkpt>
      <trkpt lat="43.27206" lon="5.47256">
        <ele>366.8</ele>
        <time>2013-02-20T09:01:35Z</time>
      </trkpt>
      <trkpt lat="43.27206" lon="5.47255">
        <ele>366.7</ele>
        <time>2013-02-20T09:01:36Z</time>
      </trkpt>
      <trkpt lat="43.27189" lon="5.47251">
        <ele>369.3</ele>
        <time>2013-02-20T09:02:00Z</time>
      </trkpt>
      <trkpt lat="43.27181" lon="5.47247">
        <ele>370</ele>
        <time>2013-02-20T09:02:12Z</time>
      </trkpt>
      <trkpt lat="43.27172" lon="5.47245">
        <ele>372.3</ele>
        <time>2013-02-20T09:02:26Z</time>
      </trkpt>
      <trkpt lat="43.27164" lon="5.47244">
        <ele>375.7</ele>
        <time>2013-02-20T09:02:39Z</time>
      </trkpt>
      <trkpt lat="43.27163" lon="5.47244">
        <ele>376.1</ele>
        <time>2013-02-20T09:02:40Z</time>
      </trkpt>
      <trkpt lat="43.27147" lon="5.4725">
        <ele>380.7</ele>
        <time>2013-02-20T09:03:02Z</time>
      </trkpt>
      <trkpt lat="43.27138" lon="5.47252">
        <ele>382.7</ele>
        <time>2013-02-20T09:03:14Z</time>
      </trkpt>
      <trkpt lat="43.2713" lon="5.47248">
        <ele>381.5</ele>
        <time>2013-02-20T09:03:26Z</time>
      </trkpt>
      <trkpt lat="43.27121" lon="5.47248">
        <ele>384.6</ele>
        <time>2013-02-20T09:03:55Z</time>
      </trkpt>
      <trkpt lat="43.27121" lon="5.47247">
        <ele>384.5</ele>
        <time>2013-02-20T09:03:56Z</time>
      </trkpt>
      <trkpt lat="43.27103" lon="5.47243">
        <ele>386.2</ele>
        <time>2013-02-20T09:04:15Z</time>
      </trkpt>
      <trkpt lat="43.27095" lon="5.47241">
        <ele>386.2</ele>
        <time>2013-02-20T09:04:25Z</time>
      </trkpt>
      <trkpt lat="43.27086" lon="5.47241">
        <ele>387.2</ele>
        <time>2013-02-20T09:04:34Z</time>
      </trkpt>
      <trkpt lat="43.27078" lon="5.47243">
        <ele>389.3</ele>
        <time>2013-02-20T09:04:43Z</time>
      </trkpt>
      <trkpt lat="43.2707" lon="5.47245">
        <ele>387.7</ele>
        <time>2013-02-20T09:04:59Z</time>
      </trkpt>
      <trkpt lat="43.27069" lon="5.47245">
        <ele>387.7</ele>
        <time>2013-02-20T09:05:00Z</time>
      </trkpt>
      <trkpt lat="43.27053" lon="5.47245">
        <ele>389.2</ele>
        <time>2013-02-20T09:05:17Z</time>
      </trkpt>
      <trkpt lat="43.27045" lon="5.4724">
        <ele>388.8</ele>
        <time>2013-02-20T09:05:27Z</time>
      </trkpt>
      <trkpt lat="43.27036" lon="5.47239">
        <ele>390.2</ele>
        <time>2013-02-20T09:05:37Z</time>
      </trkpt>
      <trkpt lat="43.27029" lon="5.47246">
        <ele>391.2</ele>
        <time>2013-02-20T09:05:48Z</time>
      </trkpt>
      <trkpt lat="43.27023" lon="5.47254">
        <ele>391.1</ele>
        <time>2013-02-20T09:05:57Z</time>
      </trkpt>
      <trkpt lat="43.27019" lon="5.47264">
        <ele>391.7</ele>
        <time>2013-02-20T09:06:06Z</time>
      </trkpt>
      <trkpt lat="43.27018" lon="5.47265">
        <ele>391.7</ele>
        <time>2013-02-20T09:06:07Z</time>
      </trkpt>
      <trkpt lat="43.27008" lon="5.47281">
        <ele>393.8</ele>
        <time>2013-02-20T09:06:23Z</time>
      </trkpt>
      <trkpt lat="43.27001" lon="5.47286">
        <ele>396.2</ele>
        <time>2013-02-20T09:06:31Z</time>
      </trkpt>
      <trkpt lat="43.26993" lon="5.47291">
        <ele>397.7</ele>
        <time>2013-02-20T09:06:39Z</time>
      </trkpt>
      <trkpt lat="43.26985" lon="5.4729">
        <ele>398.6</ele>
        <time>2013-02-20T09:06:48Z</time>
      </trkpt>
      <trkpt lat="43.26977" lon="5.47287">
        <ele>399.1</ele>
        <time>2013-02-20T09:06:57Z</time>
      </trkpt>
      <trkpt lat="43.26969" lon="5.47283">
        <ele>400.5</ele>
        <time>2013-02-20T09:07:06Z</time>
      </trkpt>
      <trkpt lat="43.26962" lon="5.47275">
        <ele>400.5</ele>
        <time>2013-02-20T09:07:16Z</time>
      </trkpt>
      <trkpt lat="43.26962" lon="5.47275">
        <ele>400.7</ele>
        <time>2013-02-20T09:07:17Z</time>
      </trkpt>
      <trkpt lat="43.26949" lon="5.47261">
        <ele>400</ele>
        <time>2013-02-20T09:07:36Z</time>
      </trkpt>
      <trkpt lat="43.26943" lon="5.47253">
        <ele>398.8</ele>
        <time>2013-02-20T09:07:45Z</time>
      </trkpt>
      <trkpt lat="43.26938" lon="5.47243">
        <ele>398</ele>
        <time>2013-02-20T09:07:55Z</time>
      </trkpt>
      <trkpt lat="43.26934" lon="5.47232">
        <ele>395.2</ele>
        <time>2013-02-20T09:08:11Z</time>
      </trkpt>
      <trkpt lat="43.26929" lon="5.47222">
        <ele>394.2</ele>
        <time>2013-02-20T09:08:20Z</time>
      </trkpt>
      <trkpt lat="43.26929" lon="5.47221">
        <ele>393.8</ele>
        <time>2013-02-20T09:08:21Z</time>
      </trkpt>
      <trkpt lat="43.26918" lon="5.47206">
        <ele>392.8</ele>
        <time>2013-02-20T09:08:37Z</time>
      </trkpt>
      <trkpt lat="43.26912" lon="5.47197">
        <ele>392.7</ele>
        <time>2013-02-20T09:08:45Z</time>
      </trkpt>
      <trkpt lat="43.26906" lon="5.4719">
        <ele>392.3</ele>
        <time>2013-02-20T09:08:53Z</time>
      </trkpt>
      <trkpt lat="43.269" lon="5.47182">
        <ele>391.8</ele>
        <time>2013-02-20T09:09:01Z</time>
      </trkpt>
      <trkpt lat="43.26896" lon="5.47171">
        <ele>391.8</ele>
        <time>2013-02-20T09:09:11Z</time>
      </trkpt>
      <trkpt lat="43.2689" lon="5.47164">
        <ele>392.7</ele>
        <time>2013-02-20T09:09:19Z</time>
      </trkpt>
      <trkpt lat="43.26882" lon="5.47158">
        <ele>392.7</ele>
        <time>2013-02-20T09:09:27Z</time>
      </trkpt>
      <trkpt lat="43.26881" lon="5.47157">
        <ele>393</ele>
        <time>2013-02-20T09:09:28Z</time>
      </trkpt>
      <trkpt lat="43.26866" lon="5.47154">
        <ele>395.5</ele>
        <time>2013-02-20T09:09:47Z</time>
      </trkpt>
      <trkpt lat="43.26858" lon="5.47159">
        <ele>395.7</ele>
        <time>2013-02-20T09:09:55Z</time>
      </trkpt>
      <trkpt lat="43.2685" lon="5.47164">
        <ele>396.1</ele>
        <time>2013-02-20T09:10:03Z</time>
      </trkpt>
      <trkpt lat="43.26842" lon="5.47168">
        <ele>396.2</ele>
        <time>2013-02-20T09:10:11Z</time>
      </trkpt>
      <trkpt lat="43.26834" lon="5.47172">
        <ele>396.1</ele>
        <time>2013-02-20T09:10:20Z</time>
      </trkpt>
      <trkpt lat="43.26828" lon="5.47179">
        <ele>394.8</ele>
        <time>2013-02-20T09:10:30Z</time>
      </trkpt>
      <trkpt lat="43.26827" lon="5.47179">
        <ele>394.7</ele>
        <time>2013-02-20T09:10:31Z</time>
      </trkpt>
      <trkpt lat="43.26813" lon="5.47188">
        <ele>394.7</ele>
        <time>2013-02-20T09:10:45Z</time>
      </trkpt>
      <trkpt lat="43.26804" lon="5.4719">
        <ele>395.7</ele>
        <time>2013-02-20T09:10:54Z</time>
      </trkpt>
      <trkpt lat="43.26795" lon="5.47191">
        <ele>396.2</ele>
        <time>2013-02-20T09:11:04Z</time>
      </trkpt>
      <trkpt lat="43.26788" lon="5.47185">
        <ele>394.8</ele>
        <time>2013-02-20T09:11:15Z</time>
      </trkpt>
      <trkpt lat="43.26781" lon="5.47179">
        <ele>393.1</ele>
        <time>2013-02-20T09:11:26Z</time>
      </trkpt>
      <trkpt lat="43.26774" lon="5.47173">
        <ele>391.3</ele>
        <time>2013-02-20T09:11:37Z</time>
      </trkpt>
      <trkpt lat="43.26773" lon="5.47172">
        <ele>391.2</ele>
        <time>2013-02-20T09:11:38Z</time>
      </trkpt>
      <trkpt lat="43.26761" lon="5.47157">
        <ele>388.1</ele>
        <time>2013-02-20T09:12:17Z</time>
      </trkpt>
      <trkpt lat="43.26755" lon="5.47149">
        <ele>383.8</ele>
        <time>2013-02-20T09:12:34Z</time>
      </trkpt>
      <trkpt lat="43.26752" lon="5.47137">
        <ele>380.2</ele>
        <time>2013-02-20T09:12:46Z</time>
      </trkpt>
      <trkpt lat="43.26752" lon="5.47137">
        <ele>380</ele>
        <time>2013-02-20T09:12:47Z</time>
      </trkpt>
      <trkpt lat="43.26748" lon="5.47114">
        <ele>371.2</ele>
        <time>2013-02-20T09:13:12Z</time>
      </trkpt>
      <trkpt lat="43.26743" lon="5.47104">
        <ele>370.7</ele>
        <time>2013-02-20T09:13:20Z</time>
      </trkpt>
      <trkpt lat="43.26737" lon="5.47095">
        <ele>370.8</ele>
        <time>2013-02-20T09:13:30Z</time>
      </trkpt>
      <trkpt lat="43.26735" lon="5.47084">
        <ele>371.6</ele>
        <time>2013-02-20T09:13:40Z</time>
      </trkpt>
      <trkpt lat="43.26733" lon="5.47073">
        <ele>369.5</ele>
        <time>2013-02-20T09:13:52Z</time>
      </trkpt>
      <trkpt lat="43.26732" lon="5.47072">
        <ele>369.5</ele>
        <time>2013-02-20T09:13:53Z</time>
      </trkpt>
      <trkpt lat="43.26726" lon="5.47051">
        <ele>368.3</ele>
        <time>2013-02-20T09:14:13Z</time>
      </trkpt>
      <trkpt lat="43.26721" lon="5.47042">
        <ele>370.7</ele>
        <time>2013-02-20T09:14:22Z</time>
      </trkpt>
      <trkpt lat="43.26713" lon="5.47035">
        <ele>370.3</ele>
        <time>2013-02-20T09:14:31Z</time>
      </trkpt>
      <trkpt lat="43.26707" lon="5.47029">
        <ele>373.2</ele>
        <time>2013-02-20T09:14:38Z</time>
      </trkpt>
      <trkpt lat="43.26704" lon="5.47017">
        <ele>373.7</ele>
        <time>2013-02-20T09:14:47Z</time>
      </trkpt>
      <trkpt lat="43.267" lon="5.47007">
        <ele>373.3</ele>
        <time>2013-02-20T09:14:57Z</time>
      </trkpt>
      <trkpt lat="43.267" lon="5.47006">
        <ele>373.2</ele>
        <time>2013-02-20T09:14:58Z</time>
      </trkpt>
      <trkpt lat="43.26691" lon="5.46988">
        <ele>372.6</ele>
        <time>2013-02-20T09:15:15Z</time>
      </trkpt>
      <trkpt lat="43.26682" lon="5.46985">
        <ele>373</ele>
        <time>2013-02-20T09:15:23Z</time>
      </trkpt>
      <trkpt lat="43.26674" lon="5.46988">
        <ele>375.8</ele>
        <time>2013-02-20T09:15:31Z</time>
      </trkpt>
      <trkpt lat="43.26666" lon="5.46991">
        <ele>376.1</ele>
        <time>2013-02-20T09:15:40Z</time>
      </trkpt>
      <trkpt lat="43.26658" lon="5.46997">
        <ele>374.2</ele>
        <time>2013-02-20T09:15:49Z</time>
      </trkpt>
      <trkpt lat="43.2665" lon="5.47">
        <ele>374.3</ele>
        <time>2013-02-20T09:15:58Z</time>
      </trkpt>
      <trkpt lat="43.26649" lon="5.47">
        <ele>374.6</ele>
        <time>2013-02-20T09:15:59Z</time>
      </trkpt>
      <trkpt lat="43.26634" lon="5.46992">
        <ele>374.2</ele>
        <time>2013-02-20T09:16:28Z</time>
      </trkpt>
      <trkpt lat="43.26626" lon="5.46993">
        <ele>374.5</ele>
        <time>2013-02-20T09:16:40Z</time>
      </trkpt>
      <trkpt lat="43.26619" lon="5.46986">
        <ele>372.7</ele>
        <time>2013-02-20T09:16:48Z</time>
      </trkpt>
      <trkpt lat="43.26611" lon="5.46982">
        <ele>371.5</ele>
        <time>2013-02-20T09:16:58Z</time>
      </trkpt>
      <trkpt lat="43.26604" lon="5.46975">
        <ele>370.1</ele>
        <time>2013-02-20T09:17:09Z</time>
      </trkpt>
      <trkpt lat="43.26603" lon="5.46974">
        <ele>370.2</ele>
        <time>2013-02-20T09:17:10Z</time>
      </trkpt>
      <trkpt lat="43.26588" lon="5.46964">
        <ele>371.3</ele>
        <time>2013-02-20T09:17:31Z</time>
      </trkpt>
      <trkpt lat="43.2658" lon="5.46958">
        <ele>371.1</ele>
        <time>2013-02-20T09:17:52Z</time>
      </trkpt>
      <trkpt lat="43.26572" lon="5.46961">
        <ele>369</ele>
        <time>2013-02-20T09:18:12Z</time>
      </trkpt>
      <trkpt lat="43.26572" lon="5.46961">
        <ele>369</ele>
        <time>2013-02-20T09:18:13Z</time>
      </trkpt>
      <trkpt lat="43.26561" lon="5.46977">
        <ele>363.2</ele>
        <time>2013-02-20T09:18:53Z</time>
      </trkpt>
      <trkpt lat="43.26553" lon="5.46978">
        <ele>362.2</ele>
        <time>2013-02-20T09:22:54Z</time>
      </trkpt>
      <trkpt lat="43.26552" lon="5.46978">
        <ele>362.2</ele>
        <time>2013-02-20T09:22:55Z</time>
      </trkpt>
      <trkpt lat="43.26553" lon="5.46991">
        <ele>363</ele>
        <time>2013-02-20T09:24:04Z</time>
      </trkpt>
      <trkpt lat="43.26558" lon="5.47011">
        <ele>366</ele>
        <time>2013-02-20T09:24:29Z</time>
      </trkpt>
      <trkpt lat="43.26564" lon="5.4702">
        <ele>366.5</ele>
        <time>2013-02-20T09:24:38Z</time>
      </trkpt>
      <trkpt lat="43.2657" lon="5.47028">
        <ele>367</ele>
        <time>2013-02-20T09:24:47Z</time>
      </trkpt>
      <trkpt lat="43.26575" lon="5.47038">
        <ele>367.2</ele>
        <time>2013-02-20T09:24:55Z</time>
      </trkpt>
      <trkpt lat="43.26578" lon="5.47049">
        <ele>367.7</ele>
        <time>2013-02-20T09:25:04Z</time>
      </trkpt>
      <trkpt lat="43.26579" lon="5.4705">
        <ele>367.7</ele>
        <time>2013-02-20T09:25:05Z</time>
      </trkpt>
      <trkpt lat="43.26585" lon="5.47071">
        <ele>370.7</ele>
        <time>2013-02-20T09:25:25Z</time>
      </trkpt>
      <trkpt lat="43.26588" lon="5.47083">
        <ele>373.6</ele>
        <time>2013-02-20T09:25:41Z</time>
      </trkpt>
      <trkpt lat="43.26593" lon="5.47093">
        <ele>375.7</ele>
        <time>2013-02-20T09:25:57Z</time>
      </trkpt>
      <trkpt lat="43.26597" lon="5.47103">
        <ele>377.2</ele>
        <time>2013-02-20T09:26:10Z</time>
      </trkpt>
      <trkpt lat="43.26598" lon="5.47104">
        <ele>377.3</ele>
        <time>2013-02-20T09:26:11Z</time>
      </trkpt>
      <trkpt lat="43.26605" lon="5.47123">
        <ele>379.5</ele>
        <time>2013-02-20T09:26:30Z</time>
      </trkpt>
      <trkpt lat="43.26609" lon="5.47134">
        <ele>379.6</ele>
        <time>2013-02-20T09:26:38Z</time>
      </trkpt>
      <trkpt lat="43.26612" lon="5.47144">
        <ele>379.7</ele>
        <time>2013-02-20T09:26:45Z</time>
      </trkpt>
      <trkpt lat="43.26614" lon="5.47156">
        <ele>380.6</ele>
        <time>2013-02-20T09:26:53Z</time>
      </trkpt>
      <trkpt lat="43.26613" lon="5.47167">
        <ele>381.5</ele>
        <time>2013-02-20T09:27:01Z</time>
      </trkpt>
      <trkpt lat="43.26612" lon="5.47179">
        <ele>382.3</ele>
        <time>2013-02-20T09:27:09Z</time>
      </trkpt>
      <trkpt lat="43.2661" lon="5.47189">
        <ele>382.7</ele>
        <time>2013-02-20T09:27:16Z</time>
      </trkpt>
      <trkpt lat="43.2661" lon="5.47191">
        <ele>382.8</ele>
        <time>2013-02-20T09:27:17Z</time>
      </trkpt>
      <trkpt lat="43.26609" lon="5.47212">
        <ele>382.7</ele>
        <time>2013-02-20T09:27:32Z</time>
      </trkpt>
      <trkpt lat="43.26607" lon="5.47223">
        <ele>382.5</ele>
        <time>2013-02-20T09:27:40Z</time>
      </trkpt>
      <trkpt lat="43.26605" lon="5.47234">
        <ele>382.6</ele>
        <time>2013-02-20T09:27:48Z</time>
      </trkpt>
      <trkpt lat="43.26602" lon="5.47246">
        <ele>382.8</ele>
        <time>2013-02-20T09:27:57Z</time>
      </trkpt>
      <trkpt lat="43.26598" lon="5.47257">
        <ele>383</ele>
        <time>2013-02-20T09:28:05Z</time>
      </trkpt>
      <trkpt lat="43.26593" lon="5.47267">
        <ele>383.2</ele>
        <time>2013-02-20T09:28:13Z</time>
      </trkpt>
      <trkpt lat="43.26589" lon="5.47278">
        <ele>383.3</ele>
        <time>2013-02-20T09:28:21Z</time>
      </trkpt>
      <trkpt lat="43.26589" lon="5.47279">
        <ele>383.3</ele>
        <time>2013-02-20T09:28:22Z</time>
      </trkpt>
      <trkpt lat="43.2658" lon="5.47298">
        <ele>382.2</ele>
        <time>2013-02-20T09:28:37Z</time>
      </trkpt>
      <trkpt lat="43.26575" lon="5.47308">
        <ele>382</ele>
        <time>2013-02-20T09:28:45Z</time>
      </trkpt>
      <trkpt lat="43.26572" lon="5.47318">
        <ele>381.8</ele>
        <time>2013-02-20T09:28:53Z</time>
      </trkpt>
      <trkpt lat="43.2657" lon="5.4733">
        <ele>382</ele>
        <time>2013-02-20T09:29:00Z</time>
      </trkpt>
      <trkpt lat="43.2657" lon="5.47341">
        <ele>381.7</ele>
        <time>2013-02-20T09:29:07Z</time>
      </trkpt>
      <trkpt lat="43.2657" lon="5.47353">
        <ele>381.7</ele>
        <time>2013-02-20T09:29:15Z</time>
      </trkpt>
      <trkpt lat="43.2657" lon="5.47364">
        <ele>381.2</ele>
        <time>2013-02-20T09:29:23Z</time>
      </trkpt>
      <trkpt lat="43.2657" lon="5.47366">
        <ele>381.2</ele>
        <time>2013-02-20T09:29:24Z</time>
      </trkpt>
      <trkpt lat="43.26569" lon="5.47387">
        <ele>381.2</ele>
        <time>2013-02-20T09:29:37Z</time>
      </trkpt>
      <trkpt lat="43.26568" lon="5.47399">
        <ele>381.8</ele>
        <time>2013-02-20T09:29:45Z</time>
      </trkpt>
      <trkpt lat="43.26567" lon="5.4741">
        <ele>382.2</ele>
        <time>2013-02-20T09:29:52Z</time>
      </trkpt>
      <trkpt lat="43.26567" lon="5.47421">
        <ele>382.3</ele>
        <time>2013-02-20T09:29:59Z</time>
      </trkpt>
      <trkpt lat="43.26567" lon="5.47433">
        <ele>383</ele>
        <time>2013-02-20T09:30:07Z</time>
      </trkpt>
      <trkpt lat="43.26566" lon="5.47445">
        <ele>384.2</ele>
        <time>2013-02-20T09:30:15Z</time>
      </trkpt>
      <trkpt lat="43.26564" lon="5.47457">
        <ele>385.2</ele>
        <time>2013-02-20T09:30:23Z</time>
      </trkpt>
      <trkpt lat="43.26562" lon="5.47467">
        <ele>385.7</ele>
        <time>2013-02-20T09:30:31Z</time>
      </trkpt>
      <trkpt lat="43.26561" lon="5.47469">
        <ele>385.7</ele>
        <time>2013-02-20T09:30:32Z</time>
      </trkpt>
      <trkpt lat="43.26557" lon="5.4749">
        <ele>386.2</ele>
        <time>2013-02-20T09:30:46Z</time>
      </trkpt>
      <trkpt lat="43.26556" lon="5.47502">
        <ele>386.2</ele>
        <time>2013-02-20T09:30:54Z</time>
      </trkpt>
      <trkpt lat="43.26554" lon="5.47513">
        <ele>386.1</ele>
        <time>2013-02-20T09:31:02Z</time>
      </trkpt>
      <trkpt lat="43.26553" lon="5.47524">
        <ele>385.2</ele>
        <time>2013-02-20T09:31:10Z</time>
      </trkpt>
      <trkpt lat="43.26552" lon="5.47535">
        <ele>383.8</ele>
        <time>2013-02-20T09:31:19Z</time>
      </trkpt>
      <trkpt lat="43.26552" lon="5.47547">
        <ele>382.2</ele>
        <time>2013-02-20T09:31:31Z</time>
      </trkpt>
      <trkpt lat="43.26554" lon="5.47559">
        <ele>379.7</ele>
        <time>2013-02-20T09:31:44Z</time>
      </trkpt>
      <trkpt lat="43.26554" lon="5.4756">
        <ele>379.6</ele>
        <time>2013-02-20T09:31:45Z</time>
      </trkpt>
      <trkpt lat="43.26557" lon="5.47581">
        <ele>375.3</ele>
        <time>2013-02-20T09:32:07Z</time>
      </trkpt>
      <trkpt lat="43.26549" lon="5.47584">
        <ele>372.6</ele>
        <time>2013-02-20T09:32:25Z</time>
      </trkpt>
      <trkpt lat="43.26542" lon="5.47576">
        <ele>373.1</ele>
        <time>2013-02-20T09:32:35Z</time>
      </trkpt>
      <trkpt lat="43.26535" lon="5.47569">
        <ele>374.2</ele>
        <time>2013-02-20T09:32:44Z</time>
      </trkpt>
      <trkpt lat="43.26527" lon="5.47566">
        <ele>376.2</ele>
        <time>2013-02-20T09:33:37Z</time>
      </trkpt>
      <trkpt lat="43.26526" lon="5.47566">
        <ele>376.6</ele>
        <time>2013-02-20T09:33:38Z</time>
      </trkpt>
      <trkpt lat="43.26512" lon="5.47555">
        <ele>378.2</ele>
        <time>2013-02-20T09:33:52Z</time>
      </trkpt>
      <trkpt lat="43.26504" lon="5.47552">
        <ele>378.1</ele>
        <time>2013-02-20T09:34:00Z</time>
      </trkpt>
      <trkpt lat="43.26495" lon="5.47549">
        <ele>378.1</ele>
        <time>2013-02-20T09:34:07Z</time>
      </trkpt>
      <trkpt lat="43.26487" lon="5.47546">
        <ele>378.7</ele>
        <time>2013-02-20T09:34:15Z</time>
      </trkpt>
      <trkpt lat="43.26479" lon="5.47543">
        <ele>379.1</ele>
        <time>2013-02-20T09:34:22Z</time>
      </trkpt>
      <trkpt lat="43.2647" lon="5.47542">
        <ele>378.8</ele>
        <time>2013-02-20T09:34:30Z</time>
      </trkpt>
      <trkpt lat="43.26461" lon="5.47541">
        <ele>377.2</ele>
        <time>2013-02-20T09:34:37Z</time>
      </trkpt>
      <trkpt lat="43.26454" lon="5.4754">
        <ele>375.2</ele>
        <time>2013-02-20T09:34:43Z</time>
      </trkpt>
      <trkpt lat="43.26452" lon="5.4754">
        <ele>375</ele>
        <time>2013-02-20T09:34:44Z</time>
      </trkpt>
      <trkpt lat="43.26438" lon="5.47536">
        <ele>372.2</ele>
        <time>2013-02-20T09:34:55Z</time>
      </trkpt>
      <trkpt lat="43.2643" lon="5.47532">
        <ele>371.2</ele>
        <time>2013-02-20T09:35:01Z</time>
      </trkpt>
      <trkpt lat="43.26422" lon="5.47531">
        <ele>369.8</ele>
        <time>2013-02-20T09:35:07Z</time>
      </trkpt>
      <trkpt lat="43.26415" lon="5.47527">
        <ele>369.7</ele>
        <time>2013-02-20T09:35:13Z</time>
      </trkpt>
      <trkpt lat="43.26407" lon="5.47526">
        <ele>370.8</ele>
        <time>2013-02-20T09:35:19Z</time>
      </trkpt>
      <trkpt lat="43.26399" lon="5.47531">
        <ele>372.5</ele>
        <time>2013-02-20T09:35:26Z</time>
      </trkpt>
      <trkpt lat="43.26392" lon="5.47534">
        <ele>373.5</ele>
        <time>2013-02-20T09:35:33Z</time>
      </trkpt>
      <trkpt lat="43.26383" lon="5.47535">
        <ele>373.2</ele>
        <time>2013-02-20T09:35:40Z</time>
      </trkpt>
      <trkpt lat="43.26375" lon="5.47536">
        <ele>371.8</ele>
        <time>2013-02-20T09:35:47Z</time>
      </trkpt>
      <trkpt lat="43.26374" lon="5.47537">
        <ele>371.7</ele>
        <time>2013-02-20T09:35:48Z</time>
      </trkpt>
      <trkpt lat="43.26359" lon="5.47537">
        <ele>373.3</ele>
        <time>2013-02-20T09:36:00Z</time>
      </trkpt>
      <trkpt lat="43.26351" lon="5.47539">
        <ele>373.7</ele>
        <time>2013-02-20T09:36:06Z</time>
      </trkpt>
      <trkpt lat="43.26343" lon="5.47542">
        <ele>374.8</ele>
        <time>2013-02-20T09:36:13Z</time>
      </trkpt>
      <trkpt lat="43.26336" lon="5.47549">
        <ele>375.3</ele>
        <time>2013-02-20T09:36:20Z</time>
      </trkpt>
      <trkpt lat="43.26328" lon="5.47553">
        <ele>376.6</ele>
        <time>2013-02-20T09:36:29Z</time>
      </trkpt>
      <trkpt lat="43.26327" lon="5.47564">
        <ele>375.2</ele>
        <time>2013-02-20T09:36:38Z</time>
      </trkpt>
      <trkpt lat="43.2632" lon="5.47571">
        <ele>374.3</ele>
        <time>2013-02-20T09:36:49Z</time>
      </trkpt>
      <trkpt lat="43.26319" lon="5.47571">
        <ele>374.2</ele>
        <time>2013-02-20T09:36:50Z</time>
      </trkpt>
      <trkpt lat="43.26306" lon="5.47582">
        <ele>370</ele>
        <time>2013-02-20T09:37:23Z</time>
      </trkpt>
      <trkpt lat="43.26298" lon="5.47588">
        <ele>370.6</ele>
        <time>2013-02-20T09:37:40Z</time>
      </trkpt>
      <trkpt lat="43.26297" lon="5.476">
        <ele>369.1</ele>
        <time>2013-02-20T09:37:55Z</time>
      </trkpt>
      <trkpt lat="43.26296" lon="5.47601">
        <ele>368.8</ele>
        <time>2013-02-20T09:37:56Z</time>
      </trkpt>
      <trkpt lat="43.26283" lon="5.47615">
        <ele>367.3</ele>
        <time>2013-02-20T09:38:13Z</time>
      </trkpt>
      <trkpt lat="43.26276" lon="5.47609">
        <ele>365.3</ele>
        <time>2013-02-20T09:38:26Z</time>
      </trkpt>
      <trkpt lat="43.26267" lon="5.47608">
        <ele>363</ele>
        <time>2013-02-20T09:38:46Z</time>
      </trkpt>
      <trkpt lat="43.26259" lon="5.4761">
        <ele>360.8</ele>
        <time>2013-02-20T09:38:56Z</time>
      </trkpt>
      <trkpt lat="43.26258" lon="5.4761">
        <ele>360.6</ele>
        <time>2013-02-20T09:38:57Z</time>
      </trkpt>
      <trkpt lat="43.26241" lon="5.47604">
        <ele>359.1</ele>
        <time>2013-02-20T09:39:19Z</time>
      </trkpt>
      <trkpt lat="43.26234" lon="5.47599">
        <ele>357.2</ele>
        <time>2013-02-20T09:39:33Z</time>
      </trkpt>
      <trkpt lat="43.26227" lon="5.47594">
        <ele>356</ele>
        <time>2013-02-20T09:39:43Z</time>
      </trkpt>
      <trkpt lat="43.26218" lon="5.47592">
        <ele>355.3</ele>
        <time>2013-02-20T09:39:55Z</time>
      </trkpt>
      <trkpt lat="43.2621" lon="5.47587">
        <ele>354.1</ele>
        <time>2013-02-20T09:40:07Z</time>
      </trkpt>
      <trkpt lat="43.2621" lon="5.47587">
        <ele>354.1</ele>
        <time>2013-02-20T09:40:08Z</time>
      </trkpt>
      <trkpt lat="43.26193" lon="5.47583">
        <ele>350.7</ele>
        <time>2013-02-20T09:40:35Z</time>
      </trkpt>
      <trkpt lat="43.26198" lon="5.47593">
        <ele>347.6</ele>
        <time>2013-02-20T09:43:19Z</time>
      </trkpt>
      <trkpt lat="43.26198" lon="5.47593">
        <ele>347.2</ele>
        <time>2013-02-20T09:43:20Z</time>
      </trkpt>
      <trkpt lat="43.26209" lon="5.47611">
        <ele>344.8</ele>
        <time>2013-02-20T09:43:42Z</time>
      </trkpt>
      <trkpt lat="43.26214" lon="5.4762">
        <ele>344.8</ele>
        <time>2013-02-20T09:43:52Z</time>
      </trkpt>
      <trkpt lat="43.2622" lon="5.47629">
        <ele>344.8</ele>
        <time>2013-02-20T09:44:09Z</time>
      </trkpt>
      <trkpt lat="43.26226" lon="5.47638">
        <ele>343.2</ele>
        <time>2013-02-20T09:44:37Z</time>
      </trkpt>
      <trkpt lat="43.26226" lon="5.47638">
        <ele>343</ele>
        <time>2013-02-20T09:44:38Z</time>
      </trkpt>
      <trkpt lat="43.26238" lon="5.47655">
        <ele>341.6</ele>
        <time>2013-02-20T09:44:56Z</time>
      </trkpt>
      <trkpt lat="43.26246" lon="5.47661">
        <ele>340.8</ele>
        <time>2013-02-20T09:45:07Z</time>
      </trkpt>
      <trkpt lat="43.26254" lon="5.47665">
        <ele>339.7</ele>
        <time>2013-02-20T09:45:17Z</time>
      </trkpt>
      <trkpt lat="43.26258" lon="5.47674">
        <ele>339.1</ele>
        <time>2013-02-20T09:45:27Z</time>
      </trkpt>
      <trkpt lat="43.26264" lon="5.47683">
        <ele>338</ele>
        <time>2013-02-20T09:45:37Z</time>
      </trkpt>
      <trkpt lat="43.26272" lon="5.47687">
        <ele>337</ele>
        <time>2013-02-20T09:45:59Z</time>
      </trkpt>
      <trkpt lat="43.26272" lon="5.47688">
        <ele>336.8</ele>
        <time>2013-02-20T09:46:00Z</time>
      </trkpt>
      <trkpt lat="43.26286" lon="5.47701">
        <ele>334.7</ele>
        <time>2013-02-20T09:46:18Z</time>
      </trkpt>
      <trkpt lat="43.26294" lon="5.477">
        <ele>335.7</ele>
        <time>2013-02-20T09:46:27Z</time>
      </trkpt>
      <trkpt lat="43.26303" lon="5.47697">
        <ele>334.1</ele>
        <time>2013-02-20T09:46:35Z</time>
      </trkpt>
      <trkpt lat="43.26311" lon="5.47695">
        <ele>334.1</ele>
        <time>2013-02-20T09:46:43Z</time>
      </trkpt>
      <trkpt lat="43.2632" lon="5.47696">
        <ele>334.2</ele>
        <time>2013-02-20T09:46:52Z</time>
      </trkpt>
      <trkpt lat="43.26328" lon="5.47693">
        <ele>332.6</ele>
        <time>2013-02-20T09:47:01Z</time>
      </trkpt>
      <trkpt lat="43.26329" lon="5.47693">
        <ele>332.3</ele>
        <time>2013-02-20T09:47:02Z</time>
      </trkpt>
      <trkpt lat="43.26342" lon="5.47681">
        <ele>330.2</ele>
        <time>2013-02-20T09:47:18Z</time>
      </trkpt>
      <trkpt lat="43.26349" lon="5.47675">
        <ele>327.2</ele>
        <time>2013-02-20T09:47:24Z</time>
      </trkpt>
      <trkpt lat="43.26357" lon="5.47671">
        <ele>325.6</ele>
        <time>2013-02-20T09:47:31Z</time>
      </trkpt>
      <trkpt lat="43.26365" lon="5.47665">
        <ele>325.7</ele>
        <time>2013-02-20T09:47:38Z</time>
      </trkpt>
      <trkpt lat="43.26373" lon="5.47661">
        <ele>324.6</ele>
        <time>2013-02-20T09:47:46Z</time>
      </trkpt>
      <trkpt lat="43.26382" lon="5.47661">
        <ele>323.3</ele>
        <time>2013-02-20T09:47:53Z</time>
      </trkpt>
      <trkpt lat="43.2639" lon="5.47666">
        <ele>322.3</ele>
        <time>2013-02-20T09:48:01Z</time>
      </trkpt>
      <trkpt lat="43.26398" lon="5.47669">
        <ele>321.1</ele>
        <time>2013-02-20T09:48:08Z</time>
      </trkpt>
      <trkpt lat="43.26399" lon="5.47669">
        <ele>320.8</ele>
        <time>2013-02-20T09:48:09Z</time>
      </trkpt>
      <trkpt lat="43.26414" lon="5.47672">
        <ele>316.3</ele>
        <time>2013-02-20T09:48:23Z</time>
      </trkpt>
      <trkpt lat="43.26423" lon="5.47673">
        <ele>315.2</ele>
        <time>2013-02-20T09:48:30Z</time>
      </trkpt>
      <trkpt lat="43.26431" lon="5.47676">
        <ele>316</ele>
        <time>2013-02-20T09:48:37Z</time>
      </trkpt>
      <trkpt lat="43.26439" lon="5.4768">
        <ele>316.1</ele>
        <time>2013-02-20T09:48:44Z</time>
      </trkpt>
      <trkpt lat="43.26447" lon="5.47683">
        <ele>315.1</ele>
        <time>2013-02-20T09:48:51Z</time>
      </trkpt>
      <trkpt lat="43.26455" lon="5.47686">
        <ele>314.6</ele>
        <time>2013-02-20T09:48:58Z</time>
      </trkpt>
      <trkpt lat="43.26463" lon="5.47691">
        <ele>313.7</ele>
        <time>2013-02-20T09:49:05Z</time>
      </trkpt>
      <trkpt lat="43.2647" lon="5.47699">
        <ele>312.5</ele>
        <time>2013-02-20T09:49:13Z</time>
      </trkpt>
      <trkpt lat="43.26471" lon="5.477">
        <ele>312.2</ele>
        <time>2013-02-20T09:49:14Z</time>
      </trkpt>
      <trkpt lat="43.26484" lon="5.47712">
        <ele>310.2</ele>
        <time>2013-02-20T09:49:29Z</time>
      </trkpt>
      <trkpt lat="43.2649" lon="5.4772">
        <ele>310</ele>
        <time>2013-02-20T09:49:38Z</time>
      </trkpt>
      <trkpt lat="43.26492" lon="5.47732">
        <ele>310.6</ele>
        <time>2013-02-20T09:49:48Z</time>
      </trkpt>
      <trkpt lat="43.26492" lon="5.47744">
        <ele>310.2</ele>
        <time>2013-02-20T09:49:55Z</time>
      </trkpt>
      <trkpt lat="43.26491" lon="5.47755">
        <ele>309.8</ele>
        <time>2013-02-20T09:50:02Z</time>
      </trkpt>
      <trkpt lat="43.26492" lon="5.47767">
        <ele>309.6</ele>
        <time>2013-02-20T09:50:09Z</time>
      </trkpt>
      <trkpt lat="43.26493" lon="5.47779">
        <ele>309.1</ele>
        <time>2013-02-20T09:50:16Z</time>
      </trkpt>
      <trkpt lat="43.26493" lon="5.4778">
        <ele>309.1</ele>
        <time>2013-02-20T09:50:17Z</time>
      </trkpt>
      <trkpt lat="43.26494" lon="5.47801">
        <ele>308.6</ele>
        <time>2013-02-20T09:50:30Z</time>
      </trkpt>
      <trkpt lat="43.26494" lon="5.47813">
        <ele>308.2</ele>
        <time>2013-02-20T09:50:37Z</time>
      </trkpt>
      <trkpt lat="43.26495" lon="5.47825">
        <ele>308</ele>
        <time>2013-02-20T09:50:44Z</time>
      </trkpt>
      <trkpt lat="43.26495" lon="5.47836">
        <ele>307.2</ele>
        <time>2013-02-20T09:50:51Z</time>
      </trkpt>
      <trkpt lat="43.2649" lon="5.47845">
        <ele>304.1</ele>
        <time>2013-02-20T09:50:59Z</time>
      </trkpt>
      <trkpt lat="43.26484" lon="5.47854">
        <ele>301.5</ele>
        <time>2013-02-20T09:51:07Z</time>
      </trkpt>
      <trkpt lat="43.26478" lon="5.47861">
        <ele>300.7</ele>
        <time>2013-02-20T09:51:13Z</time>
      </trkpt>
      <trkpt lat="43.26473" lon="5.47869">
        <ele>301.2</ele>
        <time>2013-02-20T09:51:19Z</time>
      </trkpt>
      <trkpt lat="43.26472" lon="5.4787">
        <ele>301</ele>
        <time>2013-02-20T09:51:20Z</time>
      </trkpt>
      <trkpt lat="43.26463" lon="5.47885">
        <ele>302.5</ele>
        <time>2013-02-20T09:51:31Z</time>
      </trkpt>
      <trkpt lat="43.26458" lon="5.47894">
        <ele>302</ele>
        <time>2013-02-20T09:51:37Z</time>
      </trkpt>
      <trkpt lat="43.26454" lon="5.47905">
        <ele>301.5</ele>
        <time>2013-02-20T09:51:44Z</time>
      </trkpt>
      <trkpt lat="43.26451" lon="5.47917">
        <ele>300.7</ele>
        <time>2013-02-20T09:51:51Z</time>
      </trkpt>
      <trkpt lat="43.2645" lon="5.47927">
        <ele>300.2</ele>
        <time>2013-02-20T09:51:57Z</time>
      </trkpt>
      <trkpt lat="43.26449" lon="5.47938">
        <ele>299.7</ele>
        <time>2013-02-20T09:52:03Z</time>
      </trkpt>
      <trkpt lat="43.26447" lon="5.47949">
        <ele>298.8</ele>
        <time>2013-02-20T09:52:10Z</time>
      </trkpt>
      <trkpt lat="43.26444" lon="5.47959">
        <ele>297.7</ele>
        <time>2013-02-20T09:52:17Z</time>
      </trkpt>
      <trkpt lat="43.26439" lon="5.47968">
        <ele>296.1</ele>
        <time>2013-02-20T09:52:24Z</time>
      </trkpt>
      <trkpt lat="43.26438" lon="5.4797">
        <ele>296.2</ele>
        <time>2013-02-20T09:52:25Z</time>
      </trkpt>
      <trkpt lat="43.26433" lon="5.47989">
        <ele>296.8</ele>
        <time>2013-02-20T09:52:37Z</time>
      </trkpt>
      <trkpt lat="43.2643" lon="5.47999">
        <ele>295.8</ele>
        <time>2013-02-20T09:52:44Z</time>
      </trkpt>
      <trkpt lat="43.26425" lon="5.48008">
        <ele>294.7</ele>
        <time>2013-02-20T09:52:51Z</time>
      </trkpt>
      <trkpt lat="43.26422" lon="5.48019">
        <ele>293.7</ele>
        <time>2013-02-20T09:52:58Z</time>
      </trkpt>
      <trkpt lat="43.26421" lon="5.4803">
        <ele>293.2</ele>
        <time>2013-02-20T09:53:05Z</time>
      </trkpt>
      <trkpt lat="43.2642" lon="5.48042">
        <ele>292.3</ele>
        <time>2013-02-20T09:53:12Z</time>
      </trkpt>
      <trkpt lat="43.26419" lon="5.48054">
        <ele>291.7</ele>
        <time>2013-02-20T09:53:19Z</time>
      </trkpt>
      <trkpt lat="43.26418" lon="5.48065">
        <ele>291</ele>
        <time>2013-02-20T09:53:26Z</time>
      </trkpt>
      <trkpt lat="43.26418" lon="5.48067">
        <ele>290.8</ele>
        <time>2013-02-20T09:53:27Z</time>
      </trkpt>
      <trkpt lat="43.2642" lon="5.48088">
        <ele>289.6</ele>
        <time>2013-02-20T09:53:40Z</time>
      </trkpt>
      <trkpt lat="43.26422" lon="5.481">
        <ele>288.7</ele>
        <time>2013-02-20T09:53:47Z</time>
      </trkpt>
      <trkpt lat="43.26422" lon="5.48111">
        <ele>287.3</ele>
        <time>2013-02-20T09:53:54Z</time>
      </trkpt>
      <trkpt lat="43.26421" lon="5.48123">
        <ele>286</ele>
        <time>2013-02-20T09:54:02Z</time>
      </trkpt>
      <trkpt lat="43.26417" lon="5.48133">
        <ele>285.1</ele>
        <time>2013-02-20T09:54:09Z</time>
      </trkpt>
      <trkpt lat="43.26413" lon="5.48143">
        <ele>285.1</ele>
        <time>2013-02-20T09:54:16Z</time>
      </trkpt>
      <trkpt lat="43.26409" lon="5.48155">
        <ele>284.6</ele>
        <time>2013-02-20T09:54:23Z</time>
      </trkpt>
      <trkpt lat="43.26405" lon="5.48165">
        <ele>284</ele>
        <time>2013-02-20T09:54:30Z</time>
      </trkpt>
      <trkpt lat="43.26404" lon="5.48167">
        <ele>283.8</ele>
        <time>2013-02-20T09:54:31Z</time>
      </trkpt>
      <trkpt lat="43.26415" lon="5.48182">
        <ele>280.1</ele>
        <time>2013-02-20T09:54:46Z</time>
      </trkpt>
      <trkpt lat="43.26419" lon="5.48191">
        <ele>280</ele>
        <time>2013-02-20T09:54:53Z</time>
      </trkpt>
      <trkpt lat="43.26424" lon="5.48201">
        <ele>278.7</ele>
        <time>2013-02-20T09:55:00Z</time>
      </trkpt>
      <trkpt lat="43.2643" lon="5.48209">
        <ele>278.2</ele>
        <time>2013-02-20T09:55:07Z</time>
      </trkpt>
      <trkpt lat="43.26435" lon="5.48218">
        <ele>276.8</ele>
        <time>2013-02-20T09:55:14Z</time>
      </trkpt>
      <trkpt lat="43.26441" lon="5.48226">
        <ele>275.1</ele>
        <time>2013-02-20T09:55:21Z</time>
      </trkpt>
      <trkpt lat="43.26448" lon="5.48235">
        <ele>273.7</ele>
        <time>2013-02-20T09:55:28Z</time>
      </trkpt>
      <trkpt lat="43.26454" lon="5.48243">
        <ele>272.7</ele>
        <time>2013-02-20T09:55:35Z</time>
      </trkpt>
      <trkpt lat="43.26455" lon="5.48244">
        <ele>272.3</ele>
        <time>2013-02-20T09:55:36Z</time>
      </trkpt>
      <trkpt lat="43.26465" lon="5.48258">
        <ele>271.8</ele>
        <time>2013-02-20T09:55:47Z</time>
      </trkpt>
      <trkpt lat="43.26471" lon="5.48268">
        <ele>270.8</ele>
        <time>2013-02-20T09:55:54Z</time>
      </trkpt>
      <trkpt lat="43.26474" lon="5.48279">
        <ele>269.7</ele>
        <time>2013-02-20T09:56:02Z</time>
      </trkpt>
      <trkpt lat="43.26472" lon="5.48291">
        <ele>269.6</ele>
        <time>2013-02-20T09:56:09Z</time>
      </trkpt>
      <trkpt lat="43.26471" lon="5.48302">
        <ele>270.2</ele>
        <time>2013-02-20T09:56:16Z</time>
      </trkpt>
      <trkpt lat="43.26475" lon="5.48313">
        <ele>270.1</ele>
        <time>2013-02-20T09:56:23Z</time>
      </trkpt>
      <trkpt lat="43.2648" lon="5.48323">
        <ele>269.7</ele>
        <time>2013-02-20T09:56:30Z</time>
      </trkpt>
      <trkpt lat="43.26484" lon="5.48333">
        <ele>270.3</ele>
        <time>2013-02-20T09:56:37Z</time>
      </trkpt>
      <trkpt lat="43.26485" lon="5.48334">
        <ele>270.5</ele>
        <time>2013-02-20T09:56:38Z</time>
      </trkpt>
      <trkpt lat="43.26497" lon="5.48345">
        <ele>271.7</ele>
        <time>2013-02-20T09:56:53Z</time>
      </trkpt>
      <trkpt lat="43.26505" lon="5.48341">
        <ele>271.2</ele>
        <time>2013-02-20T09:57:04Z</time>
      </trkpt>
      <trkpt lat="43.26512" lon="5.48335">
        <ele>268.3</ele>
        <time>2013-02-20T09:57:10Z</time>
      </trkpt>
      <trkpt lat="43.26518" lon="5.48328">
        <ele>267</ele>
        <time>2013-02-20T09:57:17Z</time>
      </trkpt>
      <trkpt lat="43.26525" lon="5.48321">
        <ele>265</ele>
        <time>2013-02-20T09:57:24Z</time>
      </trkpt>
      <trkpt lat="43.26532" lon="5.48315">
        <ele>262.3</ele>
        <time>2013-02-20T09:57:31Z</time>
      </trkpt>
      <trkpt lat="43.2654" lon="5.4831">
        <ele>261.7</ele>
        <time>2013-02-20T09:57:38Z</time>
      </trkpt>
      <trkpt lat="43.26541" lon="5.48309">
        <ele>261.8</ele>
        <time>2013-02-20T09:57:39Z</time>
      </trkpt>
      <trkpt lat="43.26555" lon="5.48303">
        <ele>263.2</ele>
        <time>2013-02-20T09:57:53Z</time>
      </trkpt>
      <trkpt lat="43.26563" lon="5.48299">
        <ele>263</ele>
        <time>2013-02-20T09:58:01Z</time>
      </trkpt>
      <trkpt lat="43.26571" lon="5.48301">
        <ele>262.7</ele>
        <time>2013-02-20T09:58:08Z</time>
      </trkpt>
      <trkpt lat="43.26578" lon="5.48308">
        <ele>262</ele>
        <time>2013-02-20T09:58:15Z</time>
      </trkpt>
      <trkpt lat="43.26583" lon="5.48318">
        <ele>261.2</ele>
        <time>2013-02-20T09:58:22Z</time>
      </trkpt>
      <trkpt lat="43.26587" lon="5.48328">
        <ele>260.8</ele>
        <time>2013-02-20T09:58:29Z</time>
      </trkpt>
      <trkpt lat="43.26591" lon="5.48338">
        <ele>260.1</ele>
        <time>2013-02-20T09:58:36Z</time>
      </trkpt>
      <trkpt lat="43.26595" lon="5.48349">
        <ele>258.5</ele>
        <time>2013-02-20T09:58:44Z</time>
      </trkpt>
      <trkpt lat="43.26596" lon="5.4835">
        <ele>258.2</ele>
        <time>2013-02-20T09:58:45Z</time>
      </trkpt>
      <trkpt lat="43.26604" lon="5.4837">
        <ele>255.1</ele>
        <time>2013-02-20T09:59:00Z</time>
      </trkpt>
      <trkpt lat="43.26608" lon="5.4838">
        <ele>253.6</ele>
        <time>2013-02-20T09:59:08Z</time>
      </trkpt>
      <trkpt lat="43.2661" lon="5.48391">
        <ele>253</ele>
        <time>2013-02-20T09:59:15Z</time>
      </trkpt>
      <trkpt lat="43.26613" lon="5.48401">
        <ele>251.6</ele>
        <time>2013-02-20T09:59:22Z</time>
      </trkpt>
      <trkpt lat="43.26616" lon="5.48412">
        <ele>249.8</ele>
        <time>2013-02-20T09:59:30Z</time>
      </trkpt>
      <trkpt lat="43.26621" lon="5.48422">
        <ele>248.5</ele>
        <time>2013-02-20T09:59:38Z</time>
      </trkpt>
      <trkpt lat="43.26625" lon="5.48432">
        <ele>247</ele>
        <time>2013-02-20T09:59:46Z</time>
      </trkpt>
      <trkpt lat="43.26625" lon="5.48433">
        <ele>246.8</ele>
        <time>2013-02-20T09:59:47Z</time>
      </trkpt>
      <trkpt lat="43.26639" lon="5.48442">
        <ele>248.1</ele>
        <time>2013-02-20T10:00:24Z</time>
      </trkpt>
      <trkpt lat="43.26648" lon="5.48445">
        <ele>247.6</ele>
        <time>2013-02-20T10:01:44Z</time>
      </trkpt>
      <trkpt lat="43.26648" lon="5.48445">
        <ele>247.3</ele>
        <time>2013-02-20T10:01:45Z</time>
      </trkpt>
      <trkpt lat="43.26657" lon="5.48464">
        <ele>243.6</ele>
        <time>2013-02-20T10:02:03Z</time>
      </trkpt>
      <trkpt lat="43.26661" lon="5.48474">
        <ele>242.8</ele>
        <time>2013-02-20T10:02:11Z</time>
      </trkpt>
      <trkpt lat="43.26668" lon="5.48482">
        <ele>243</ele>
        <time>2013-02-20T10:02:19Z</time>
      </trkpt>
      <trkpt lat="43.26674" lon="5.4849">
        <ele>242.5</ele>
        <time>2013-02-20T10:02:27Z</time>
      </trkpt>
      <trkpt lat="43.26681" lon="5.48498">
        <ele>242.8</ele>
        <time>2013-02-20T10:02:35Z</time>
      </trkpt>
      <trkpt lat="43.26687" lon="5.48506">
        <ele>243</ele>
        <time>2013-02-20T10:02:43Z</time>
      </trkpt>
      <trkpt lat="43.26694" lon="5.48512">
        <ele>243</ele>
        <time>2013-02-20T10:02:50Z</time>
      </trkpt>
      <trkpt lat="43.26695" lon="5.48513">
        <ele>242.8</ele>
        <time>2013-02-20T10:02:51Z</time>
      </trkpt>
      <trkpt lat="43.26707" lon="5.48526">
        <ele>242.5</ele>
        <time>2013-02-20T10:03:05Z</time>
      </trkpt>
      <trkpt lat="43.26712" lon="5.48536">
        <ele>241.1</ele>
        <time>2013-02-20T10:03:13Z</time>
      </trkpt>
      <trkpt lat="43.26716" lon="5.48547">
        <ele>239.6</ele>
        <time>2013-02-20T10:03:21Z</time>
      </trkpt>
      <trkpt lat="43.26719" lon="5.48557">
        <ele>237.8</ele>
        <time>2013-02-20T10:03:29Z</time>
      </trkpt>
      <trkpt lat="43.26724" lon="5.48567">
        <ele>235.3</ele>
        <time>2013-02-20T10:03:37Z</time>
      </trkpt>
      <trkpt lat="43.26727" lon="5.48578">
        <ele>233.5</ele>
        <time>2013-02-20T10:03:45Z</time>
      </trkpt>
      <trkpt lat="43.2673" lon="5.48587">
        <ele>232.5</ele>
        <time>2013-02-20T10:03:52Z</time>
      </trkpt>
      <trkpt lat="43.26731" lon="5.48588">
        <ele>232.3</ele>
        <time>2013-02-20T10:03:53Z</time>
      </trkpt>
      <trkpt lat="43.26741" lon="5.48606">
        <ele>233.5</ele>
        <time>2013-02-20T10:04:09Z</time>
      </trkpt>
      <trkpt lat="43.26745" lon="5.48615">
        <ele>232.6</ele>
        <time>2013-02-20T10:04:17Z</time>
      </trkpt>
      <trkpt lat="43.2675" lon="5.48625">
        <ele>230.8</ele>
        <time>2013-02-20T10:04:25Z</time>
      </trkpt>
      <trkpt lat="43.26754" lon="5.48635">
        <ele>228.5</ele>
        <time>2013-02-20T10:04:33Z</time>
      </trkpt>
      <trkpt lat="43.26759" lon="5.48644">
        <ele>228.8</ele>
        <time>2013-02-20T10:04:40Z</time>
      </trkpt>
      <trkpt lat="43.26765" lon="5.48652">
        <ele>229.6</ele>
        <time>2013-02-20T10:04:47Z</time>
      </trkpt>
      <trkpt lat="43.26771" lon="5.4866">
        <ele>230</ele>
        <time>2013-02-20T10:04:54Z</time>
      </trkpt>
      <trkpt lat="43.26772" lon="5.48661">
        <ele>229.8</ele>
        <time>2013-02-20T10:04:55Z</time>
      </trkpt>
      <trkpt lat="43.26782" lon="5.48677">
        <ele>227.1</ele>
        <time>2013-02-20T10:05:08Z</time>
      </trkpt>
      <trkpt lat="43.26787" lon="5.48687">
        <ele>227.1</ele>
        <time>2013-02-20T10:05:15Z</time>
      </trkpt>
      <trkpt lat="43.26793" lon="5.48694">
        <ele>226</ele>
        <time>2013-02-20T10:05:22Z</time>
      </trkpt>
      <trkpt lat="43.26799" lon="5.48703">
        <ele>225.6</ele>
        <time>2013-02-20T10:05:30Z</time>
      </trkpt>
      <trkpt lat="43.26804" lon="5.48713">
        <ele>224.6</ele>
        <time>2013-02-20T10:05:37Z</time>
      </trkpt>
      <trkpt lat="43.26809" lon="5.48722">
        <ele>224.5</ele>
        <time>2013-02-20T10:05:44Z</time>
      </trkpt>
      <trkpt lat="43.26815" lon="5.4873">
        <ele>223.6</ele>
        <time>2013-02-20T10:05:51Z</time>
      </trkpt>
      <trkpt lat="43.26822" lon="5.48738">
        <ele>222.6</ele>
        <time>2013-02-20T10:05:58Z</time>
      </trkpt>
      <trkpt lat="43.26822" lon="5.48739">
        <ele>222.3</ele>
        <time>2013-02-20T10:05:59Z</time>
      </trkpt>
      <trkpt lat="43.26832" lon="5.48756">
        <ele>220.8</ele>
        <time>2013-02-20T10:06:12Z</time>
      </trkpt>
      <trkpt lat="43.26837" lon="5.48766">
        <ele>220.5</ele>
        <time>2013-02-20T10:06:19Z</time>
      </trkpt>
      <trkpt lat="43.26841" lon="5.48777">
        <ele>219.8</ele>
        <time>2013-02-20T10:06:26Z</time>
      </trkpt>
      <trkpt lat="43.2684" lon="5.48788">
        <ele>219.5</ele>
        <time>2013-02-20T10:06:33Z</time>
      </trkpt>
      <trkpt lat="43.26835" lon="5.48798">
        <ele>219.1</ele>
        <time>2013-02-20T10:06:40Z</time>
      </trkpt>
      <trkpt lat="43.26832" lon="5.48807">
        <ele>218.6</ele>
        <time>2013-02-20T10:06:46Z</time>
      </trkpt>
      <trkpt lat="43.2683" lon="5.48818">
        <ele>219.3</ele>
        <time>2013-02-20T10:06:52Z</time>
      </trkpt>
      <trkpt lat="43.26832" lon="5.4883">
        <ele>220.3</ele>
        <time>2013-02-20T10:06:59Z</time>
      </trkpt>
      <trkpt lat="43.26832" lon="5.48831">
        <ele>220.3</ele>
        <time>2013-02-20T10:07:00Z</time>
      </trkpt>
      <trkpt lat="43.26835" lon="5.48853">
        <ele>223.8</ele>
        <time>2013-02-20T10:07:13Z</time>
      </trkpt>
      <trkpt lat="43.26841" lon="5.4886">
        <ele>225.1</ele>
        <time>2013-02-20T10:07:20Z</time>
      </trkpt>
      <trkpt lat="43.26849" lon="5.48864">
        <ele>222.1</ele>
        <time>2013-02-20T10:07:27Z</time>
      </trkpt>
      <trkpt lat="43.26856" lon="5.4887">
        <ele>221.1</ele>
        <time>2013-02-20T10:07:34Z</time>
      </trkpt>
      <trkpt lat="43.26863" lon="5.48877">
        <ele>222</ele>
        <time>2013-02-20T10:07:41Z</time>
      </trkpt>
      <trkpt lat="43.26868" lon="5.48886">
        <ele>223.6</ele>
        <time>2013-02-20T10:07:48Z</time>
      </trkpt>
      <trkpt lat="43.26872" lon="5.48895">
        <ele>224.1</ele>
        <time>2013-02-20T10:07:54Z</time>
      </trkpt>
      <trkpt lat="43.26875" lon="5.48905">
        <ele>228.6</ele>
        <time>2013-02-20T10:07:59Z</time>
      </trkpt>
      <trkpt lat="43.26881" lon="5.48913">
        <ele>228.6</ele>
        <time>2013-02-20T10:08:06Z</time>
      </trkpt>
      <trkpt lat="43.26882" lon="5.48914">
        <ele>228.8</ele>
        <time>2013-02-20T10:08:07Z</time>
      </trkpt>
      <trkpt lat="43.26896" lon="5.48924">
        <ele>228.3</ele>
        <time>2013-02-20T10:08:21Z</time>
      </trkpt>
      <trkpt lat="43.26904" lon="5.48918">
        <ele>220</ele>
        <time>2013-02-20T10:08:33Z</time>
      </trkpt>
      <trkpt lat="43.26913" lon="5.48915">
        <ele>225.6</ele>
        <time>2013-02-20T10:10:14Z</time>
      </trkpt>
      <trkpt lat="43.26913" lon="5.48912">
        <ele>229.8</ele>
        <time>2013-02-20T10:10:15Z</time>
      </trkpt>
      <trkpt lat="43.2691" lon="5.48902">
        <ele>245.5</ele>
        <time>2013-02-20T10:12:41Z</time>
      </trkpt>
      <trkpt lat="43.2691" lon="5.48916">
        <ele>222.3</ele>
        <time>2013-02-20T10:14:06Z</time>
      </trkpt>
      <trkpt lat="43.26905" lon="5.48912">
        <ele>223.3</ele>
        <time>2013-02-20T10:14:41Z</time>
      </trkpt>
      <trkpt lat="43.26897" lon="5.48908">
        <ele>221.3</ele>
        <time>2013-02-20T10:14:50Z</time>
      </trkpt>
      <trkpt lat="43.26888" lon="5.4891">
        <ele>224.8</ele>
        <time>2013-02-20T10:15:10Z</time>
      </trkpt>
      <trkpt lat="43.26888" lon="5.48911">
        <ele>226.1</ele>
        <time>2013-02-20T10:15:11Z</time>
      </trkpt>
      <trkpt lat="43.26903" lon="5.48921">
        <ele>228.3</ele>
        <time>2013-02-20T10:15:58Z</time>
      </trkpt>
      <trkpt lat="43.26912" lon="5.48923">
        <ele>235.1</ele>
        <time>2013-02-20T10:16:15Z</time>
      </trkpt>
      <trkpt lat="43.26912" lon="5.48923">
        <ele>235</ele>
        <time>2013-02-20T10:16:16Z</time>
      </trkpt>
      <trkpt lat="43.26929" lon="5.48929">
        <ele>240.1</ele>
        <time>2013-02-20T10:16:54Z</time>
      </trkpt>
      <trkpt lat="43.26936" lon="5.48935">
        <ele>234.6</ele>
        <time>2013-02-20T10:17:07Z</time>
      </trkpt>
      <trkpt lat="43.26942" lon="5.48943">
        <ele>227.6</ele>
        <time>2013-02-20T10:17:18Z</time>
      </trkpt>
      <trkpt lat="43.26943" lon="5.48944">
        <ele>228</ele>
        <time>2013-02-20T10:17:19Z</time>
      </trkpt>
      <trkpt lat="43.2695" lon="5.48964">
        <ele>227.5</ele>
        <time>2013-02-20T10:17:42Z</time>
      </trkpt>
      <trkpt lat="43.26954" lon="5.48974">
        <ele>228.3</ele>
        <time>2013-02-20T10:17:52Z</time>
      </trkpt>
      <trkpt lat="43.26962" lon="5.48978">
        <ele>228.3</ele>
        <time>2013-02-20T10:18:01Z</time>
      </trkpt>
      <trkpt lat="43.26968" lon="5.48971">
        <ele>227.8</ele>
        <time>2013-02-20T10:18:09Z</time>
      </trkpt>
      <trkpt lat="43.26976" lon="5.48966">
        <ele>228</ele>
        <time>2013-02-20T10:18:17Z</time>
      </trkpt>
      <trkpt lat="43.26984" lon="5.48963">
        <ele>229.1</ele>
        <time>2013-02-20T10:18:28Z</time>
      </trkpt>
      <trkpt lat="43.26985" lon="5.48963">
        <ele>229.3</ele>
        <time>2013-02-20T10:18:29Z</time>
      </trkpt>
      <trkpt lat="43.27" lon="5.48954">
        <ele>232.1</ele>
        <time>2013-02-20T10:18:45Z</time>
      </trkpt>
      <trkpt lat="43.27006" lon="5.48947">
        <ele>234.8</ele>
        <time>2013-02-20T10:18:51Z</time>
      </trkpt>
      <trkpt lat="43.27011" lon="5.48939">
        <ele>235.8</ele>
        <time>2013-02-20T10:18:58Z</time>
      </trkpt>
      <trkpt lat="43.27018" lon="5.48933">
        <ele>236.6</ele>
        <time>2013-02-20T10:19:07Z</time>
      </trkpt>
      <trkpt lat="43.27026" lon="5.48929">
        <ele>238</ele>
        <time>2013-02-20T10:19:15Z</time>
      </trkpt>
      <trkpt lat="43.27026" lon="5.48941">
        <ele>240.6</ele>
        <time>2013-02-20T10:19:41Z</time>
      </trkpt>
      <trkpt lat="43.27026" lon="5.48941">
        <ele>240.8</ele>
        <time>2013-02-20T10:19:42Z</time>
      </trkpt>
      <trkpt lat="43.27016" lon="5.4896">
        <ele>247</ele>
        <time>2013-02-20T10:20:03Z</time>
      </trkpt>
      <trkpt lat="43.27015" lon="5.48971">
        <ele>248.6</ele>
        <time>2013-02-20T10:20:20Z</time>
      </trkpt>
      <trkpt lat="43.27014" lon="5.48983">
        <ele>251</ele>
        <time>2013-02-20T10:20:33Z</time>
      </trkpt>
      <trkpt lat="43.27013" lon="5.48995">
        <ele>247.6</ele>
        <time>2013-02-20T10:20:59Z</time>
      </trkpt>
      <trkpt lat="43.27013" lon="5.48996">
        <ele>247.8</ele>
        <time>2013-02-20T10:21:00Z</time>
      </trkpt>
      <trkpt lat="43.27004" lon="5.49014">
        <ele>254</ele>
        <time>2013-02-20T10:21:47Z</time>
      </trkpt>
      <trkpt lat="43.26997" lon="5.49022">
        <ele>253.3</ele>
        <time>2013-02-20T10:22:06Z</time>
      </trkpt>
      <trkpt lat="43.26996" lon="5.49022">
        <ele>253.3</ele>
        <time>2013-02-20T10:22:07Z</time>
      </trkpt>
      <trkpt lat="43.26984" lon="5.49036">
        <ele>256.8</ele>
        <time>2013-02-20T10:22:31Z</time>
      </trkpt>
      <trkpt lat="43.26976" lon="5.49038">
        <ele>259.7</ele>
        <time>2013-02-20T10:22:39Z</time>
      </trkpt>
      <trkpt lat="43.26967" lon="5.49038">
        <ele>260.8</ele>
        <time>2013-02-20T10:22:48Z</time>
      </trkpt>
      <trkpt lat="43.26959" lon="5.49038">
        <ele>261.6</ele>
        <time>2013-02-20T10:23:00Z</time>
      </trkpt>
      <trkpt lat="43.26951" lon="5.49035">
        <ele>261.8</ele>
        <time>2013-02-20T10:23:11Z</time>
      </trkpt>
      <trkpt lat="43.2695" lon="5.49034">
        <ele>261.8</ele>
        <time>2013-02-20T10:23:12Z</time>
      </trkpt>
      <trkpt lat="43.26935" lon="5.49025">
        <ele>266.7</ele>
        <time>2013-02-20T10:23:39Z</time>
      </trkpt>
      <trkpt lat="43.26928" lon="5.49017">
        <ele>268</ele>
        <time>2013-02-20T10:23:53Z</time>
      </trkpt>
      <trkpt lat="43.26921" lon="5.4901">
        <ele>270.7</ele>
        <time>2013-02-20T10:24:12Z</time>
      </trkpt>
      <trkpt lat="43.26921" lon="5.49009">
        <ele>270.7</ele>
        <time>2013-02-20T10:24:13Z</time>
      </trkpt>
      <trkpt lat="43.26904" lon="5.49007">
        <ele>278.6</ele>
        <time>2013-02-20T10:25:17Z</time>
      </trkpt>
      <trkpt lat="43.26904" lon="5.49006">
        <ele>279</ele>
        <time>2013-02-20T10:25:18Z</time>
      </trkpt>
      <trkpt lat="43.26889" lon="5.48997">
        <ele>283.7</ele>
        <time>2013-02-20T10:26:00Z</time>
      </trkpt>
      <trkpt lat="43.26881" lon="5.48993">
        <ele>288.1</ele>
        <time>2013-02-20T10:26:19Z</time>
      </trkpt>
      <trkpt lat="43.2688" lon="5.48994">
        <ele>288.1</ele>
        <time>2013-02-20T10:26:20Z</time>
      </trkpt>
      <trkpt lat="43.26864" lon="5.48991">
        <ele>295.7</ele>
        <time>2013-02-20T10:26:59Z</time>
      </trkpt>
      <trkpt lat="43.26856" lon="5.48986">
        <ele>301</ele>
        <time>2013-02-20T10:27:23Z</time>
      </trkpt>
      <trkpt lat="43.26856" lon="5.48986">
        <ele>301.2</ele>
        <time>2013-02-20T10:27:24Z</time>
      </trkpt>
      <trkpt lat="43.26842" lon="5.49001">
        <ele>304</ele>
        <time>2013-02-20T10:27:59Z</time>
      </trkpt>
      <trkpt lat="43.26835" lon="5.49008">
        <ele>305.8</ele>
        <time>2013-02-20T10:28:17Z</time>
      </trkpt>
      <trkpt lat="43.26829" lon="5.49017">
        <ele>307.6</ele>
        <time>2013-02-20T10:28:46Z</time>
      </trkpt>
      <trkpt lat="43.26829" lon="5.49017">
        <ele>307.6</ele>
        <time>2013-02-20T10:28:47Z</time>
      </trkpt>
      <trkpt lat="43.26819" lon="5.49033">
        <ele>308.2</ele>
        <time>2013-02-20T10:29:29Z</time>
      </trkpt>
      <trkpt lat="43.26815" lon="5.49044">
        <ele>310.1</ele>
        <time>2013-02-20T10:33:05Z</time>
      </trkpt>
      <trkpt lat="43.26815" lon="5.49045">
        <ele>310.6</ele>
        <time>2013-02-20T10:33:06Z</time>
      </trkpt>
      <trkpt lat="43.26813" lon="5.49068">
        <ele>313.3</ele>
        <time>2013-02-20T10:33:42Z</time>
      </trkpt>
      <trkpt lat="43.26814" lon="5.49079">
        <ele>315.5</ele>
        <time>2013-02-20T10:33:55Z</time>
      </trkpt>
      <trkpt lat="43.26813" lon="5.49091">
        <ele>318.7</ele>
        <time>2013-02-20T10:34:07Z</time>
      </trkpt>
      <trkpt lat="43.26813" lon="5.49092">
        <ele>318.7</ele>
        <time>2013-02-20T10:34:08Z</time>
      </trkpt>
      <trkpt lat="43.26814" lon="5.49115">
        <ele>327.3</ele>
        <time>2013-02-20T10:35:10Z</time>
      </trkpt>
      <trkpt lat="43.26814" lon="5.49116">
        <ele>327.3</ele>
        <time>2013-02-20T10:35:11Z</time>
      </trkpt>
      <trkpt lat="43.26802" lon="5.49133">
        <ele>332.5</ele>
        <time>2013-02-20T10:36:05Z</time>
      </trkpt>
      <trkpt lat="43.26795" lon="5.49139">
        <ele>336.7</ele>
        <time>2013-02-20T10:36:29Z</time>
      </trkpt>
      <trkpt lat="43.26794" lon="5.49139">
        <ele>336.7</ele>
        <time>2013-02-20T10:36:30Z</time>
      </trkpt>
      <trkpt lat="43.26796" lon="5.49156">
        <ele>339.2</ele>
        <time>2013-02-20T10:37:47Z</time>
      </trkpt>
      <trkpt lat="43.26796" lon="5.49157">
        <ele>339.2</ele>
        <time>2013-02-20T10:37:48Z</time>
      </trkpt>
      <trkpt lat="43.26812" lon="5.49167">
        <ele>341.2</ele>
        <time>2013-02-20T10:38:40Z</time>
      </trkpt>
      <trkpt lat="43.26821" lon="5.49167">
        <ele>345.8</ele>
        <time>2013-02-20T10:39:13Z</time>
      </trkpt>
      <trkpt lat="43.26821" lon="5.49167">
        <ele>346</ele>
        <time>2013-02-20T10:39:14Z</time>
      </trkpt>
      <trkpt lat="43.26837" lon="5.49173">
        <ele>350.5</ele>
        <time>2013-02-20T10:40:05Z</time>
      </trkpt>
      <trkpt lat="43.26845" lon="5.49177">
        <ele>352</ele>
        <time>2013-02-20T10:40:23Z</time>
      </trkpt>
      <trkpt lat="43.26845" lon="5.49177">
        <ele>352.1</ele>
        <time>2013-02-20T10:40:24Z</time>
      </trkpt>
      <trkpt lat="43.26859" lon="5.49189">
        <ele>357.3</ele>
        <time>2013-02-20T10:41:07Z</time>
      </trkpt>
      <trkpt lat="43.26868" lon="5.49192">
        <ele>359.2</ele>
        <time>2013-02-20T10:41:25Z</time>
      </trkpt>
      <trkpt lat="43.26869" lon="5.49192">
        <ele>359.3</ele>
        <time>2013-02-20T10:41:26Z</time>
      </trkpt>
      <trkpt lat="43.26884" lon="5.49204">
        <ele>364.2</ele>
        <time>2013-02-20T10:41:58Z</time>
      </trkpt>
      <trkpt lat="43.26892" lon="5.49207">
        <ele>365.7</ele>
        <time>2013-02-20T10:42:16Z</time>
      </trkpt>
      <trkpt lat="43.26899" lon="5.49212">
        <ele>366.7</ele>
        <time>2013-02-20T10:42:29Z</time>
      </trkpt>
      <trkpt lat="43.269" lon="5.49213">
        <ele>366.8</ele>
        <time>2013-02-20T10:42:30Z</time>
      </trkpt>
      <trkpt lat="43.26915" lon="5.4922">
        <ele>369.1</ele>
        <time>2013-02-20T10:42:55Z</time>
      </trkpt>
      <trkpt lat="43.26923" lon="5.49224">
        <ele>371.2</ele>
        <time>2013-02-20T10:43:18Z</time>
      </trkpt>
      <trkpt lat="43.26932" lon="5.49223">
        <ele>373.7</ele>
        <time>2013-02-20T10:43:42Z</time>
      </trkpt>
      <trkpt lat="43.26932" lon="5.49223">
        <ele>373.7</ele>
        <time>2013-02-20T10:43:43Z</time>
      </trkpt>
      <trkpt lat="43.26948" lon="5.49232">
        <ele>378.2</ele>
        <time>2013-02-20T10:44:26Z</time>
      </trkpt>
      <trkpt lat="43.26956" lon="5.49239">
        <ele>381.3</ele>
        <time>2013-02-20T10:44:46Z</time>
      </trkpt>
      <trkpt lat="43.26956" lon="5.49239">
        <ele>381.5</ele>
        <time>2013-02-20T10:44:47Z</time>
      </trkpt>
      <trkpt lat="43.26972" lon="5.49246">
        <ele>386.2</ele>
        <time>2013-02-20T10:45:32Z</time>
      </trkpt>
      <trkpt lat="43.26979" lon="5.49252">
        <ele>389.5</ele>
        <time>2013-02-20T10:45:55Z</time>
      </trkpt>
      <trkpt lat="43.2698" lon="5.49252">
        <ele>389.6</ele>
        <time>2013-02-20T10:45:56Z</time>
      </trkpt>
      <trkpt lat="43.26995" lon="5.49262">
        <ele>396.1</ele>
        <time>2013-02-20T10:46:49Z</time>
      </trkpt>
      <trkpt lat="43.27003" lon="5.49268">
        <ele>398.5</ele>
        <time>2013-02-20T10:47:09Z</time>
      </trkpt>
      <trkpt lat="43.27003" lon="5.49268">
        <ele>398.6</ele>
        <time>2013-02-20T10:47:10Z</time>
      </trkpt>
      <trkpt lat="43.27016" lon="5.49283">
        <ele>401.7</ele>
        <time>2013-02-20T10:47:40Z</time>
      </trkpt>
      <trkpt lat="43.27024" lon="5.49288">
        <ele>403.6</ele>
        <time>2013-02-20T10:47:54Z</time>
      </trkpt>
      <trkpt lat="43.27032" lon="5.49291">
        <ele>405.7</ele>
        <time>2013-02-20T10:48:12Z</time>
      </trkpt>
      <trkpt lat="43.27033" lon="5.49291">
        <ele>405.7</ele>
        <time>2013-02-20T10:48:13Z</time>
      </trkpt>
      <trkpt lat="43.27047" lon="5.49302">
        <ele>409.2</ele>
        <time>2013-02-20T10:48:46Z</time>
      </trkpt>
      <trkpt lat="43.27056" lon="5.49299">
        <ele>412.2</ele>
        <time>2013-02-20T10:49:10Z</time>
      </trkpt>
      <trkpt lat="43.27064" lon="5.49301">
        <ele>415.1</ele>
        <time>2013-02-20T10:49:31Z</time>
      </trkpt>
      <trkpt lat="43.27065" lon="5.49301">
        <ele>415.2</ele>
        <time>2013-02-20T10:49:32Z</time>
      </trkpt>
      <trkpt lat="43.27081" lon="5.4931">
        <ele>420.3</ele>
        <time>2013-02-20T10:50:05Z</time>
      </trkpt>
      <trkpt lat="43.27087" lon="5.49319">
        <ele>422</ele>
        <time>2013-02-20T10:50:22Z</time>
      </trkpt>
      <trkpt lat="43.27094" lon="5.49326">
        <ele>424.3</ele>
        <time>2013-02-20T10:50:45Z</time>
      </trkpt>
      <trkpt lat="43.27094" lon="5.49327">
        <ele>424.5</ele>
        <time>2013-02-20T10:50:46Z</time>
      </trkpt>
      <trkpt lat="43.2711" lon="5.49327">
        <ele>428.5</ele>
        <time>2013-02-20T10:51:30Z</time>
      </trkpt>
      <trkpt lat="43.27117" lon="5.4932">
        <ele>431.7</ele>
        <time>2013-02-20T10:51:49Z</time>
      </trkpt>
      <trkpt lat="43.27118" lon="5.4932">
        <ele>431.8</ele>
        <time>2013-02-20T10:51:50Z</time>
      </trkpt>
      <trkpt lat="43.27121" lon="5.49327">
        <ele>431.5</ele>
        <time>2013-02-20T10:55:50Z</time>
      </trkpt>
      <trkpt lat="43.27121" lon="5.49327">
        <ele>431.6</ele>
        <time>2013-02-20T10:55:51Z</time>
      </trkpt>
      <trkpt lat="43.27113" lon="5.49344">
        <ele>428.1</ele>
        <time>2013-02-20T10:57:06Z</time>
      </trkpt>
      <trkpt lat="43.27112" lon="5.49344">
        <ele>428.1</ele>
        <time>2013-02-20T10:57:07Z</time>
      </trkpt>
      <trkpt lat="43.27098" lon="5.49333">
        <ele>426.6</ele>
        <time>2013-02-20T10:58:26Z</time>
      </trkpt>
      <trkpt lat="43.27098" lon="5.49332">
        <ele>426.6</ele>
        <time>2013-02-20T10:58:27Z</time>
      </trkpt>
      <trkpt lat="43.271" lon="5.4933">
        <ele>428.1</ele>
        <time>2013-02-20T12:12:14Z</time>
      </trkpt>
      <trkpt lat="43.271" lon="5.49331">
        <ele>428.2</ele>
        <time>2013-02-20T12:12:15Z</time>
      </trkpt>
      <trkpt lat="43.27107" lon="5.49338">
        <ele>431.8</ele>
        <time>2013-02-20T12:14:51Z</time>
      </trkpt>
      <trkpt lat="43.27116" lon="5.49357">
        <ele>429.1</ele>
        <time>2013-02-20T12:15:32Z</time>
      </trkpt>
      <trkpt lat="43.27117" lon="5.49369">
        <ele>427.5</ele>
        <time>2013-02-20T12:15:53Z</time>
      </trkpt>
      <trkpt lat="43.27117" lon="5.4937">
        <ele>427.5</ele>
        <time>2013-02-20T12:15:54Z</time>
      </trkpt>
      <trkpt lat="43.2713" lon="5.49384">
        <ele>423.8</ele>
        <time>2013-02-20T12:16:26Z</time>
      </trkpt>
      <trkpt lat="43.27137" lon="5.49392">
        <ele>420.2</ele>
        <time>2013-02-20T12:16:42Z</time>
      </trkpt>
      <trkpt lat="43.27134" lon="5.49402">
        <ele>418.6</ele>
        <time>2013-02-20T12:16:52Z</time>
      </trkpt>
      <trkpt lat="43.27127" lon="5.4941">
        <ele>416.8</ele>
        <time>2013-02-20T12:17:04Z</time>
      </trkpt>
      <trkpt lat="43.27127" lon="5.4941">
        <ele>416.7</ele>
        <time>2013-02-20T12:17:05Z</time>
      </trkpt>
      <trkpt lat="43.27127" lon="5.49433">
        <ele>410.2</ele>
        <time>2013-02-20T12:17:39Z</time>
      </trkpt>
      <trkpt lat="43.27131" lon="5.49443">
        <ele>408.7</ele>
        <time>2013-02-20T12:17:54Z</time>
      </trkpt>
      <trkpt lat="43.27138" lon="5.4945">
        <ele>405.8</ele>
        <time>2013-02-20T12:18:08Z</time>
      </trkpt>
      <trkpt lat="43.27139" lon="5.49451">
        <ele>405.6</ele>
        <time>2013-02-20T12:18:09Z</time>
      </trkpt>
      <trkpt lat="43.27143" lon="5.49473">
        <ele>396.7</ele>
        <time>2013-02-20T12:18:52Z</time>
      </trkpt>
      <trkpt lat="43.27149" lon="5.49482">
        <ele>393.6</ele>
        <time>2013-02-20T12:19:11Z</time>
      </trkpt>
      <trkpt lat="43.2715" lon="5.49483">
        <ele>393.3</ele>
        <time>2013-02-20T12:19:12Z</time>
      </trkpt>
      <trkpt lat="43.27142" lon="5.49503">
        <ele>389.1</ele>
        <time>2013-02-20T12:19:41Z</time>
      </trkpt>
      <trkpt lat="43.27137" lon="5.49513">
        <ele>385.7</ele>
        <time>2013-02-20T12:19:54Z</time>
      </trkpt>
      <trkpt lat="43.27134" lon="5.49523">
        <ele>382.7</ele>
        <time>2013-02-20T12:20:06Z</time>
      </trkpt>
      <trkpt lat="43.27128" lon="5.49532">
        <ele>379.7</ele>
        <time>2013-02-20T12:20:18Z</time>
      </trkpt>
      <trkpt lat="43.27127" lon="5.49533">
        <ele>379.5</ele>
        <time>2013-02-20T12:20:19Z</time>
      </trkpt>
      <trkpt lat="43.27121" lon="5.49554">
        <ele>372.8</ele>
        <time>2013-02-20T12:20:51Z</time>
      </trkpt>
      <trkpt lat="43.27122" lon="5.49566">
        <ele>370.2</ele>
        <time>2013-02-20T12:21:06Z</time>
      </trkpt>
      <trkpt lat="43.27118" lon="5.49577">
        <ele>367.2</ele>
        <time>2013-02-20T12:21:20Z</time>
      </trkpt>
      <trkpt lat="43.27118" lon="5.49578">
        <ele>367</ele>
        <time>2013-02-20T12:21:21Z</time>
      </trkpt>
      <trkpt lat="43.27112" lon="5.49599">
        <ele>358.5</ele>
        <time>2013-02-20T12:21:56Z</time>
      </trkpt>
      <trkpt lat="43.27112" lon="5.49611">
        <ele>356.7</ele>
        <time>2013-02-20T12:22:16Z</time>
      </trkpt>
      <trkpt lat="43.27111" lon="5.49623">
        <ele>351.7</ele>
        <time>2013-02-20T12:22:32Z</time>
      </trkpt>
      <trkpt lat="43.27111" lon="5.49625">
        <ele>351.7</ele>
        <time>2013-02-20T12:22:33Z</time>
      </trkpt>
      <trkpt lat="43.27106" lon="5.49644">
        <ele>347.5</ele>
        <time>2013-02-20T12:22:55Z</time>
      </trkpt>
      <trkpt lat="43.27099" lon="5.49653">
        <ele>346</ele>
        <time>2013-02-20T12:23:07Z</time>
      </trkpt>
      <trkpt lat="43.27096" lon="5.49664">
        <ele>344</ele>
        <time>2013-02-20T12:23:20Z</time>
      </trkpt>
      <trkpt lat="43.27094" lon="5.49676">
        <ele>341.8</ele>
        <time>2013-02-20T12:23:40Z</time>
      </trkpt>
      <trkpt lat="43.27095" lon="5.49677">
        <ele>341.7</ele>
        <time>2013-02-20T12:23:41Z</time>
      </trkpt>
      <trkpt lat="43.27092" lon="5.497">
        <ele>338</ele>
        <time>2013-02-20T12:24:19Z</time>
      </trkpt>
      <trkpt lat="43.27091" lon="5.49712">
        <ele>335.1</ele>
        <time>2013-02-20T12:24:36Z</time>
      </trkpt>
      <trkpt lat="43.27092" lon="5.49724">
        <ele>333.3</ele>
        <time>2013-02-20T12:24:56Z</time>
      </trkpt>
      <trkpt lat="43.27091" lon="5.49725">
        <ele>334</ele>
        <time>2013-02-20T12:24:57Z</time>
      </trkpt>
      <trkpt lat="43.27094" lon="5.49747">
        <ele>327.7</ele>
        <time>2013-02-20T12:25:24Z</time>
      </trkpt>
      <trkpt lat="43.27093" lon="5.49759">
        <ele>326.1</ele>
        <time>2013-02-20T12:25:34Z</time>
      </trkpt>
      <trkpt lat="43.27094" lon="5.4977">
        <ele>324</ele>
        <time>2013-02-20T12:25:43Z</time>
      </trkpt>
      <trkpt lat="43.27094" lon="5.49782">
        <ele>323</ele>
        <time>2013-02-20T12:25:57Z</time>
      </trkpt>
      <trkpt lat="43.27094" lon="5.49783">
        <ele>322.7</ele>
        <time>2013-02-20T12:25:58Z</time>
      </trkpt>
      <trkpt lat="43.27091" lon="5.49803">
        <ele>321.5</ele>
        <time>2013-02-20T12:26:21Z</time>
      </trkpt>
      <trkpt lat="43.27093" lon="5.49814">
        <ele>318.7</ele>
        <time>2013-02-20T12:26:34Z</time>
      </trkpt>
      <trkpt lat="43.27089" lon="5.49825">
        <ele>317.3</ele>
        <time>2013-02-20T12:26:45Z</time>
      </trkpt>
      <trkpt lat="43.27085" lon="5.49835">
        <ele>316.5</ele>
        <time>2013-02-20T12:26:56Z</time>
      </trkpt>
      <trkpt lat="43.27081" lon="5.49846">
        <ele>315.3</ele>
        <time>2013-02-20T12:27:07Z</time>
      </trkpt>
      <trkpt lat="43.27081" lon="5.49847">
        <ele>315.1</ele>
        <time>2013-02-20T12:27:08Z</time>
      </trkpt>
      <trkpt lat="43.27076" lon="5.49867">
        <ele>314.3</ele>
        <time>2013-02-20T12:27:48Z</time>
      </trkpt>
      <trkpt lat="43.27074" lon="5.49878">
        <ele>312.2</ele>
        <time>2013-02-20T12:27:59Z</time>
      </trkpt>
      <trkpt lat="43.27075" lon="5.49891">
        <ele>311.3</ele>
        <time>2013-02-20T12:28:07Z</time>
      </trkpt>
      <trkpt lat="43.27077" lon="5.49902">
        <ele>309</ele>
        <time>2013-02-20T12:28:17Z</time>
      </trkpt>
      <trkpt lat="43.27077" lon="5.49904">
        <ele>308.8</ele>
        <time>2013-02-20T12:28:18Z</time>
      </trkpt>
      <trkpt lat="43.27073" lon="5.49923">
        <ele>307.7</ele>
        <time>2013-02-20T12:28:32Z</time>
      </trkpt>
      <trkpt lat="43.27068" lon="5.49933">
        <ele>307.2</ele>
        <time>2013-02-20T12:28:40Z</time>
      </trkpt>
      <trkpt lat="43.27066" lon="5.49944">
        <ele>307.5</ele>
        <time>2013-02-20T12:28:48Z</time>
      </trkpt>
      <trkpt lat="43.27065" lon="5.49956">
        <ele>305.2</ele>
        <time>2013-02-20T12:28:57Z</time>
      </trkpt>
      <trkpt lat="43.27063" lon="5.49967">
        <ele>302.7</ele>
        <time>2013-02-20T12:29:07Z</time>
      </trkpt>
      <trkpt lat="43.27063" lon="5.49979">
        <ele>300.8</ele>
        <time>2013-02-20T12:29:18Z</time>
      </trkpt>
      <trkpt lat="43.27063" lon="5.4998">
        <ele>300.7</ele>
        <time>2013-02-20T12:29:19Z</time>
      </trkpt>
      <trkpt lat="43.27059" lon="5.50002">
        <ele>297</ele>
        <time>2013-02-20T12:29:38Z</time>
      </trkpt>
      <trkpt lat="43.27058" lon="5.50013">
        <ele>295.2</ele>
        <time>2013-02-20T12:29:53Z</time>
      </trkpt>
      <trkpt lat="43.27059" lon="5.50025">
        <ele>293.5</ele>
        <time>2013-02-20T12:30:02Z</time>
      </trkpt>
      <trkpt lat="43.27059" lon="5.50037">
        <ele>292.7</ele>
        <time>2013-02-20T12:30:11Z</time>
      </trkpt>
      <trkpt lat="43.27056" lon="5.50048">
        <ele>290.7</ele>
        <time>2013-02-20T12:30:23Z</time>
      </trkpt>
      <trkpt lat="43.27056" lon="5.50049">
        <ele>290.6</ele>
        <time>2013-02-20T12:30:24Z</time>
      </trkpt>
      <trkpt lat="43.27053" lon="5.50072">
        <ele>288.3</ele>
        <time>2013-02-20T12:30:50Z</time>
      </trkpt>
      <trkpt lat="43.27054" lon="5.50084">
        <ele>286.7</ele>
        <time>2013-02-20T12:31:02Z</time>
      </trkpt>
      <trkpt lat="43.27052" lon="5.50095">
        <ele>284.7</ele>
        <time>2013-02-20T12:31:12Z</time>
      </trkpt>
      <trkpt lat="43.27051" lon="5.50107">
        <ele>283.7</ele>
        <time>2013-02-20T12:31:20Z</time>
      </trkpt>
      <trkpt lat="43.27051" lon="5.50119">
        <ele>283.3</ele>
        <time>2013-02-20T12:31:29Z</time>
      </trkpt>
      <trkpt lat="43.27052" lon="5.5012">
        <ele>283.5</ele>
        <time>2013-02-20T12:31:30Z</time>
      </trkpt>
      <trkpt lat="43.2705" lon="5.50142">
        <ele>284.2</ele>
        <time>2013-02-20T12:31:45Z</time>
      </trkpt>
      <trkpt lat="43.27048" lon="5.50153">
        <ele>284.5</ele>
        <time>2013-02-20T12:31:52Z</time>
      </trkpt>
      <trkpt lat="43.2705" lon="5.50164">
        <ele>284.3</ele>
        <time>2013-02-20T12:32:00Z</time>
      </trkpt>
      <trkpt lat="43.27051" lon="5.50176">
        <ele>285.2</ele>
        <time>2013-02-20T12:32:10Z</time>
      </trkpt>
      <trkpt lat="43.2705" lon="5.50188">
        <ele>285.7</ele>
        <time>2013-02-20T12:32:20Z</time>
      </trkpt>
      <trkpt lat="43.27049" lon="5.50199">
        <ele>285.8</ele>
        <time>2013-02-20T12:32:30Z</time>
      </trkpt>
      <trkpt lat="43.27048" lon="5.50201">
        <ele>285.7</ele>
        <time>2013-02-20T12:32:31Z</time>
      </trkpt>
      <trkpt lat="43.27047" lon="5.50222">
        <ele>288.3</ele>
        <time>2013-02-20T12:32:52Z</time>
      </trkpt>
      <trkpt lat="43.27047" lon="5.50233">
        <ele>288.7</ele>
        <time>2013-02-20T12:33:00Z</time>
      </trkpt>
      <trkpt lat="43.27048" lon="5.50245">
        <ele>288.7</ele>
        <time>2013-02-20T12:33:08Z</time>
      </trkpt>
      <trkpt lat="43.27048" lon="5.50257">
        <ele>289</ele>
        <time>2013-02-20T12:33:18Z</time>
      </trkpt>
      <trkpt lat="43.27051" lon="5.50269">
        <ele>288.7</ele>
        <time>2013-02-20T12:33:30Z</time>
      </trkpt>
      <trkpt lat="43.27059" lon="5.50273">
        <ele>284.6</ele>
        <time>2013-02-20T12:33:50Z</time>
      </trkpt>
      <trkpt lat="43.2706" lon="5.50273">
        <ele>284.2</ele>
        <time>2013-02-20T12:33:51Z</time>
      </trkpt>
      <trkpt lat="43.27075" lon="5.50283">
        <ele>279.5</ele>
        <time>2013-02-20T12:34:23Z</time>
      </trkpt>
      <trkpt lat="43.27082" lon="5.50289">
        <ele>275.5</ele>
        <time>2013-02-20T12:34:36Z</time>
      </trkpt>
      <trkpt lat="43.2709" lon="5.50293">
        <ele>269.3</ele>
        <time>2013-02-20T12:34:55Z</time>
      </trkpt>
      <trkpt lat="43.2709" lon="5.50294">
        <ele>269.2</ele>
        <time>2013-02-20T12:34:56Z</time>
      </trkpt>
      <trkpt lat="43.271" lon="5.50313">
        <ele>265.3</ele>
        <time>2013-02-20T12:35:20Z</time>
      </trkpt>
      <trkpt lat="43.27107" lon="5.50321">
        <ele>264.6</ele>
        <time>2013-02-20T12:35:35Z</time>
      </trkpt>
      <trkpt lat="43.27112" lon="5.50312">
        <ele>257.2</ele>
        <time>2013-02-20T12:36:02Z</time>
      </trkpt>
      <trkpt lat="43.27113" lon="5.50312">
        <ele>256.8</ele>
        <time>2013-02-20T12:36:03Z</time>
      </trkpt>
      <trkpt lat="43.27128" lon="5.50317">
        <ele>249.3</ele>
        <time>2013-02-20T12:36:32Z</time>
      </trkpt>
      <trkpt lat="43.27132" lon="5.50327">
        <ele>248.8</ele>
        <time>2013-02-20T12:36:46Z</time>
      </trkpt>
      <trkpt lat="43.27133" lon="5.50339">
        <ele>246.6</ele>
        <time>2013-02-20T12:36:59Z</time>
      </trkpt>
      <trkpt lat="43.27133" lon="5.50351">
        <ele>244.3</ele>
        <time>2013-02-20T12:37:13Z</time>
      </trkpt>
      <trkpt lat="43.27133" lon="5.50352">
        <ele>243.6</ele>
        <time>2013-02-20T12:37:14Z</time>
      </trkpt>
      <trkpt lat="43.27148" lon="5.50341">
        <ele>232.8</ele>
        <time>2013-02-20T12:37:44Z</time>
      </trkpt>
      <trkpt lat="43.27154" lon="5.50332">
        <ele>232.5</ele>
        <time>2013-02-20T12:37:58Z</time>
      </trkpt>
      <trkpt lat="43.2716" lon="5.50324">
        <ele>230.8</ele>
        <time>2013-02-20T12:38:16Z</time>
      </trkpt>
      <trkpt lat="43.2716" lon="5.50323">
        <ele>230.8</ele>
        <time>2013-02-20T12:38:17Z</time>
      </trkpt>
      <trkpt lat="43.27155" lon="5.50301">
        <ele>217.1</ele>
        <time>2013-02-20T12:38:47Z</time>
      </trkpt>
      <trkpt lat="43.27164" lon="5.50301">
        <ele>223.6</ele>
        <time>2013-02-20T12:39:16Z</time>
      </trkpt>
      <trkpt lat="43.27169" lon="5.50311">
        <ele>225.1</ele>
        <time>2013-02-20T12:39:30Z</time>
      </trkpt>
      <trkpt lat="43.2717" lon="5.50312">
        <ele>225.6</ele>
        <time>2013-02-20T12:39:31Z</time>
      </trkpt>
      <trkpt lat="43.27181" lon="5.50327">
        <ele>224.5</ele>
        <time>2013-02-20T12:39:53Z</time>
      </trkpt>
      <trkpt lat="43.27179" lon="5.50339">
        <ele>223.5</ele>
        <time>2013-02-20T12:40:05Z</time>
      </trkpt>
      <trkpt lat="43.27184" lon="5.50349">
        <ele>221.6</ele>
        <time>2013-02-20T12:40:24Z</time>
      </trkpt>
      <trkpt lat="43.27192" lon="5.50347">
        <ele>218</ele>
        <time>2013-02-20T12:40:41Z</time>
      </trkpt>
      <trkpt lat="43.27193" lon="5.50348">
        <ele>217.8</ele>
        <time>2013-02-20T12:40:42Z</time>
      </trkpt>
      <trkpt lat="43.27206" lon="5.50349">
        <ele>212.1</ele>
        <time>2013-02-20T12:41:13Z</time>
      </trkpt>
      <trkpt lat="43.27215" lon="5.50345">
        <ele>201.8</ele>
        <time>2013-02-20T12:41:48Z</time>
      </trkpt>
      <trkpt lat="43.27216" lon="5.50345">
        <ele>201.8</ele>
        <time>2013-02-20T12:41:49Z</time>
      </trkpt>
      <trkpt lat="43.27229" lon="5.50358">
        <ele>198.6</ele>
        <time>2013-02-20T12:42:32Z</time>
      </trkpt>
      <trkpt lat="43.27238" lon="5.50356">
        <ele>195.3</ele>
        <time>2013-02-20T12:42:53Z</time>
      </trkpt>
      <trkpt lat="43.27239" lon="5.50356">
        <ele>194.8</ele>
        <time>2013-02-20T12:42:54Z</time>
      </trkpt>
      <trkpt lat="43.2725" lon="5.50372">
        <ele>190.6</ele>
        <time>2013-02-20T12:43:24Z</time>
      </trkpt>
      <trkpt lat="43.27258" lon="5.50372">
        <ele>183.1</ele>
        <time>2013-02-20T12:43:54Z</time>
      </trkpt>
      <trkpt lat="43.27259" lon="5.50373">
        <ele>182.8</ele>
        <time>2013-02-20T12:43:55Z</time>
      </trkpt>
      <trkpt lat="43.27271" lon="5.50389">
        <ele>179</ele>
        <time>2013-02-20T12:44:19Z</time>
      </trkpt>
      <trkpt lat="43.27277" lon="5.50379">
        <ele>173.1</ele>
        <time>2013-02-20T12:44:42Z</time>
      </trkpt>
      <trkpt lat="43.27286" lon="5.50377">
        <ele>165.8</ele>
        <time>2013-02-20T12:45:11Z</time>
      </trkpt>
      <trkpt lat="43.27286" lon="5.50377">
        <ele>165.3</ele>
        <time>2013-02-20T12:45:12Z</time>
      </trkpt>
      <trkpt lat="43.27298" lon="5.5039">
        <ele>163</ele>
        <time>2013-02-20T12:45:36Z</time>
      </trkpt>
      <trkpt lat="43.273" lon="5.50402">
        <ele>161.5</ele>
        <time>2013-02-20T12:45:47Z</time>
      </trkpt>
      <trkpt lat="43.27302" lon="5.50413">
        <ele>162.6</ele>
        <time>2013-02-20T12:45:58Z</time>
      </trkpt>
      <trkpt lat="43.27306" lon="5.50424">
        <ele>160.1</ele>
        <time>2013-02-20T12:46:13Z</time>
      </trkpt>
      <trkpt lat="43.27306" lon="5.50425">
        <ele>160</ele>
        <time>2013-02-20T12:46:14Z</time>
      </trkpt>
      <trkpt lat="43.27318" lon="5.50437">
        <ele>154.8</ele>
        <time>2013-02-20T12:46:53Z</time>
      </trkpt>
      <trkpt lat="43.27326" lon="5.50443">
        <ele>149.5</ele>
        <time>2013-02-20T12:47:12Z</time>
      </trkpt>
      <trkpt lat="43.27328" lon="5.50454">
        <ele>143.8</ele>
        <time>2013-02-20T12:47:32Z</time>
      </trkpt>
      <trkpt lat="43.27328" lon="5.50456">
        <ele>143.6</ele>
        <time>2013-02-20T12:47:33Z</time>
      </trkpt>
      <trkpt lat="43.27325" lon="5.50477">
        <ele>142.5</ele>
        <time>2013-02-20T12:48:03Z</time>
      </trkpt>
      <trkpt lat="43.27325" lon="5.50489">
        <ele>141.3</ele>
        <time>2013-02-20T12:48:26Z</time>
      </trkpt>
      <trkpt lat="43.27329" lon="5.505">
        <ele>139</ele>
        <time>2013-02-20T12:48:49Z</time>
      </trkpt>
      <trkpt lat="43.27329" lon="5.505">
        <ele>138.8</ele>
        <time>2013-02-20T12:48:50Z</time>
      </trkpt>
      <trkpt lat="43.27319" lon="5.50519">
        <ele>130.5</ele>
        <time>2013-02-20T12:49:34Z</time>
      </trkpt>
      <trkpt lat="43.27322" lon="5.50531">
        <ele>130.3</ele>
        <time>2013-02-20T12:50:04Z</time>
      </trkpt>
      <trkpt lat="43.27323" lon="5.50531">
        <ele>130.5</ele>
        <time>2013-02-20T12:50:05Z</time>
      </trkpt>
      <trkpt lat="43.27325" lon="5.50552">
        <ele>128.8</ele>
        <time>2013-02-20T12:50:50Z</time>
      </trkpt>
      <trkpt lat="43.27332" lon="5.5056">
        <ele>110.5</ele>
        <time>2013-02-20T12:51:58Z</time>
      </trkpt>
      <trkpt lat="43.27332" lon="5.50561">
        <ele>110.1</ele>
        <time>2013-02-20T12:51:59Z</time>
      </trkpt>
      <trkpt lat="43.27325" lon="5.50582">
        <ele>113.4</ele>
        <time>2013-02-20T12:53:12Z</time>
      </trkpt>
      <trkpt lat="43.27325" lon="5.50582">
        <ele>113</ele>
        <time>2013-02-20T12:53:13Z</time>
      </trkpt>
      <trkpt lat="43.27332" lon="5.50574">
        <ele>106.1</ele>
        <time>2013-02-20T12:56:23Z</time>
      </trkpt>
      <trkpt lat="43.27325" lon="5.50568">
        <ele>124.5</ele>
        <time>2013-02-20T12:59:38Z</time>
      </trkpt>
      <trkpt lat="43.27309" lon="5.50559">
        <ele>115.5</ele>
        <time>2013-02-20T12:59:58Z</time>
      </trkpt>
      <trkpt lat="43.27301" lon="5.50556">
        <ele>111.1</ele>
        <time>2013-02-20T13:00:09Z</time>
      </trkpt>
      <trkpt lat="43.27295" lon="5.50548">
        <ele>104.3</ele>
        <time>2013-02-20T13:00:25Z</time>
      </trkpt>
      <trkpt lat="43.27287" lon="5.50545">
        <ele>108.4</ele>
        <time>2013-02-20T13:00:32Z</time>
      </trkpt>
      <trkpt lat="43.27279" lon="5.50543">
        <ele>109.6</ele>
        <time>2013-02-20T13:00:40Z</time>
      </trkpt>
      <trkpt lat="43.27278" lon="5.50544">
        <ele>110.5</ele>
        <time>2013-02-20T13:00:41Z</time>
      </trkpt>
      <trkpt lat="43.27263" lon="5.50549">
        <ele>117.3</ele>
        <time>2013-02-20T13:00:53Z</time>
      </trkpt>
      <trkpt lat="43.27254" lon="5.50554">
        <ele>116</ele>
        <time>2013-02-20T13:01:00Z</time>
      </trkpt>
      <trkpt lat="43.27247" lon="5.5056">
        <ele>117.3</ele>
        <time>2013-02-20T13:01:08Z</time>
      </trkpt>
      <trkpt lat="43.27241" lon="5.50567">
        <ele>120.9</ele>
        <time>2013-02-20T13:01:18Z</time>
      </trkpt>
      <trkpt lat="43.27235" lon="5.50576">
        <ele>116</ele>
        <time>2013-02-20T13:01:26Z</time>
      </trkpt>
      <trkpt lat="43.2723" lon="5.50585">
        <ele>109</ele>
        <time>2013-02-20T13:01:34Z</time>
      </trkpt>
      <trkpt lat="43.27225" lon="5.50594">
        <ele>108.6</ele>
        <time>2013-02-20T13:01:39Z</time>
      </trkpt>
      <trkpt lat="43.27221" lon="5.50605">
        <ele>107.5</ele>
        <time>2013-02-20T13:01:47Z</time>
      </trkpt>
      <trkpt lat="43.2722" lon="5.50606">
        <ele>107</ele>
        <time>2013-02-20T13:01:48Z</time>
      </trkpt>
      <trkpt lat="43.27221" lon="5.50627">
        <ele>114.1</ele>
        <time>2013-02-20T13:02:04Z</time>
      </trkpt>
      <trkpt lat="43.27219" lon="5.50637">
        <ele>115.1</ele>
        <time>2013-02-20T13:02:11Z</time>
      </trkpt>
      <trkpt lat="43.27217" lon="5.5065">
        <ele>117.9</ele>
        <time>2013-02-20T13:02:22Z</time>
      </trkpt>
      <trkpt lat="43.27221" lon="5.50659">
        <ele>118.3</ele>
        <time>2013-02-20T13:02:31Z</time>
      </trkpt>
      <trkpt lat="43.27227" lon="5.50669">
        <ele>130.8</ele>
        <time>2013-02-20T13:02:42Z</time>
      </trkpt>
      <trkpt lat="43.27222" lon="5.50678">
        <ele>130.1</ele>
        <time>2013-02-20T13:02:53Z</time>
      </trkpt>
      <trkpt lat="43.27221" lon="5.50679">
        <ele>130.3</ele>
        <time>2013-02-20T13:02:54Z</time>
      </trkpt>
      <trkpt lat="43.27205" lon="5.50685">
        <ele>128.1</ele>
        <time>2013-02-20T13:03:15Z</time>
      </trkpt>
      <trkpt lat="43.27198" lon="5.50691">
        <ele>125</ele>
        <time>2013-02-20T13:03:25Z</time>
      </trkpt>
      <trkpt lat="43.27189" lon="5.50693">
        <ele>129.8</ele>
        <time>2013-02-20T13:03:34Z</time>
      </trkpt>
      <trkpt lat="43.27181" lon="5.50695">
        <ele>126.9</ele>
        <time>2013-02-20T13:03:45Z</time>
      </trkpt>
      <trkpt lat="43.27174" lon="5.50702">
        <ele>123.8</ele>
        <time>2013-02-20T13:03:56Z</time>
      </trkpt>
      <trkpt lat="43.27173" lon="5.50704">
        <ele>124</ele>
        <time>2013-02-20T13:03:57Z</time>
      </trkpt>
      <trkpt lat="43.27166" lon="5.50722">
        <ele>118.9</ele>
        <time>2013-02-20T13:04:13Z</time>
      </trkpt>
      <trkpt lat="43.27165" lon="5.50733">
        <ele>120</ele>
        <time>2013-02-20T13:04:21Z</time>
      </trkpt>
      <trkpt lat="43.27163" lon="5.50744">
        <ele>117.5</ele>
        <time>2013-02-20T13:04:27Z</time>
      </trkpt>
      <trkpt lat="43.27161" lon="5.50754">
        <ele>117</ele>
        <time>2013-02-20T13:04:36Z</time>
      </trkpt>
      <trkpt lat="43.2716" lon="5.50766">
        <ele>120.4</ele>
        <time>2013-02-20T13:04:43Z</time>
      </trkpt>
      <trkpt lat="43.27157" lon="5.50778">
        <ele>119.8</ele>
        <time>2013-02-20T13:04:51Z</time>
      </trkpt>
      <trkpt lat="43.2715" lon="5.50784">
        <ele>123.3</ele>
        <time>2013-02-20T13:04:59Z</time>
      </trkpt>
      <trkpt lat="43.27149" lon="5.50785">
        <ele>123.5</ele>
        <time>2013-02-20T13:05:00Z</time>
      </trkpt>
      <trkpt lat="43.27136" lon="5.50797">
        <ele>131.3</ele>
        <time>2013-02-20T13:05:20Z</time>
      </trkpt>
      <trkpt lat="43.27127" lon="5.508">
        <ele>135.3</ele>
        <time>2013-02-20T13:05:31Z</time>
      </trkpt>
      <trkpt lat="43.27118" lon="5.50801">
        <ele>136.6</ele>
        <time>2013-02-20T13:05:40Z</time>
      </trkpt>
      <trkpt lat="43.27111" lon="5.50795">
        <ele>138.8</ele>
        <time>2013-02-20T13:05:48Z</time>
      </trkpt>
      <trkpt lat="43.27106" lon="5.50786">
        <ele>139.6</ele>
        <time>2013-02-20T13:05:55Z</time>
      </trkpt>
      <trkpt lat="43.271" lon="5.50777">
        <ele>134.3</ele>
        <time>2013-02-20T13:06:06Z</time>
      </trkpt>
      <trkpt lat="43.271" lon="5.50776">
        <ele>133.5</ele>
        <time>2013-02-20T13:06:07Z</time>
      </trkpt>
      <trkpt lat="43.271" lon="5.50755">
        <ele>127</ele>
        <time>2013-02-20T13:06:24Z</time>
      </trkpt>
      <trkpt lat="43.27099" lon="5.50743">
        <ele>129.1</ele>
        <time>2013-02-20T13:06:31Z</time>
      </trkpt>
      <trkpt lat="43.27094" lon="5.50733">
        <ele>132.6</ele>
        <time>2013-02-20T13:06:39Z</time>
      </trkpt>
      <trkpt lat="43.27087" lon="5.50725">
        <ele>129.8</ele>
        <time>2013-02-20T13:06:47Z</time>
      </trkpt>
      <trkpt lat="43.27082" lon="5.50717">
        <ele>125</ele>
        <time>2013-02-20T13:06:55Z</time>
      </trkpt>
      <trkpt lat="43.27077" lon="5.50708">
        <ele>124.8</ele>
        <time>2013-02-20T13:07:02Z</time>
      </trkpt>
      <trkpt lat="43.27071" lon="5.50699">
        <ele>121.3</ele>
        <time>2013-02-20T13:07:12Z</time>
      </trkpt>
      <trkpt lat="43.2707" lon="5.50698">
        <ele>120</ele>
        <time>2013-02-20T13:07:13Z</time>
      </trkpt>
      <trkpt lat="43.27054" lon="5.50696">
        <ele>124.5</ele>
        <time>2013-02-20T13:07:31Z</time>
      </trkpt>
      <trkpt lat="43.27046" lon="5.50698">
        <ele>125.1</ele>
        <time>2013-02-20T13:07:42Z</time>
      </trkpt>
      <trkpt lat="43.27037" lon="5.50699">
        <ele>130</ele>
        <time>2013-02-20T13:07:52Z</time>
      </trkpt>
      <trkpt lat="43.27029" lon="5.50704">
        <ele>133.3</ele>
        <time>2013-02-20T13:08:02Z</time>
      </trkpt>
      <trkpt lat="43.27024" lon="5.50714">
        <ele>134.8</ele>
        <time>2013-02-20T13:08:12Z</time>
      </trkpt>
      <trkpt lat="43.27024" lon="5.50726">
        <ele>138.1</ele>
        <time>2013-02-20T13:08:20Z</time>
      </trkpt>
      <trkpt lat="43.27024" lon="5.50728">
        <ele>137.6</ele>
        <time>2013-02-20T13:08:21Z</time>
      </trkpt>
      <trkpt lat="43.27024" lon="5.5075">
        <ele>131</ele>
        <time>2013-02-20T13:08:37Z</time>
      </trkpt>
      <trkpt lat="43.27016" lon="5.50756">
        <ele>132.1</ele>
        <time>2013-02-20T13:08:44Z</time>
      </trkpt>
      <trkpt lat="43.27008" lon="5.50753">
        <ele>136.6</ele>
        <time>2013-02-20T13:08:52Z</time>
      </trkpt>
      <trkpt lat="43.26999" lon="5.50752">
        <ele>137</ele>
        <time>2013-02-20T13:09:02Z</time>
      </trkpt>
      <trkpt lat="43.2699" lon="5.5075">
        <ele>142.1</ele>
        <time>2013-02-20T13:09:12Z</time>
      </trkpt>
      <trkpt lat="43.26982" lon="5.50751">
        <ele>146.3</ele>
        <time>2013-02-20T13:09:20Z</time>
      </trkpt>
      <trkpt lat="43.26974" lon="5.50752">
        <ele>145.5</ele>
        <time>2013-02-20T13:09:30Z</time>
      </trkpt>
      <trkpt lat="43.26973" lon="5.50753">
        <ele>146</ele>
        <time>2013-02-20T13:09:31Z</time>
      </trkpt>
      <trkpt lat="43.26958" lon="5.50754">
        <ele>155.6</ele>
        <time>2013-02-20T13:09:48Z</time>
      </trkpt>
      <trkpt lat="43.2695" lon="5.50749">
        <ele>160.8</ele>
        <time>2013-02-20T13:09:56Z</time>
      </trkpt>
      <trkpt lat="43.26945" lon="5.5074">
        <ele>153.1</ele>
        <time>2013-02-20T13:10:08Z</time>
      </trkpt>
      <trkpt lat="43.26942" lon="5.50728">
        <ele>146.3</ele>
        <time>2013-02-20T13:10:18Z</time>
      </trkpt>
      <trkpt lat="43.26938" lon="5.50719">
        <ele>144.6</ele>
        <time>2013-02-20T13:10:27Z</time>
      </trkpt>
      <trkpt lat="43.26931" lon="5.50711">
        <ele>143.6</ele>
        <time>2013-02-20T13:10:35Z</time>
      </trkpt>
      <trkpt lat="43.26931" lon="5.50709">
        <ele>144</ele>
        <time>2013-02-20T13:10:36Z</time>
      </trkpt>
      <trkpt lat="43.26923" lon="5.50692">
        <ele>144.6</ele>
        <time>2013-02-20T13:10:50Z</time>
      </trkpt>
      <trkpt lat="43.26916" lon="5.50685">
        <ele>135.3</ele>
        <time>2013-02-20T13:11:01Z</time>
      </trkpt>
      <trkpt lat="43.2691" lon="5.50676">
        <ele>140.1</ele>
        <time>2013-02-20T13:11:14Z</time>
      </trkpt>
      <trkpt lat="43.26906" lon="5.50667">
        <ele>139.3</ele>
        <time>2013-02-20T13:11:23Z</time>
      </trkpt>
      <trkpt lat="43.26899" lon="5.50658">
        <ele>143.5</ele>
        <time>2013-02-20T13:11:31Z</time>
      </trkpt>
      <trkpt lat="43.26895" lon="5.50649">
        <ele>146.6</ele>
        <time>2013-02-20T13:11:38Z</time>
      </trkpt>
      <trkpt lat="43.26895" lon="5.50648">
        <ele>145.8</ele>
        <time>2013-02-20T13:11:39Z</time>
      </trkpt>
      <trkpt lat="43.26885" lon="5.50632">
        <ele>140.1</ele>
        <time>2013-02-20T13:11:52Z</time>
      </trkpt>
      <trkpt lat="43.26882" lon="5.50621">
        <ele>136</ele>
        <time>2013-02-20T13:12:01Z</time>
      </trkpt>
      <trkpt lat="43.26877" lon="5.50611">
        <ele>132.1</ele>
        <time>2013-02-20T13:12:09Z</time>
      </trkpt>
      <trkpt lat="43.26873" lon="5.506">
        <ele>124.5</ele>
        <time>2013-02-20T13:12:19Z</time>
      </trkpt>
      <trkpt lat="43.26868" lon="5.5059">
        <ele>123</ele>
        <time>2013-02-20T13:12:29Z</time>
      </trkpt>
      <trkpt lat="43.26867" lon="5.50578">
        <ele>121.6</ele>
        <time>2013-02-20T13:12:39Z</time>
      </trkpt>
      <trkpt lat="43.26866" lon="5.50576">
        <ele>122.9</ele>
        <time>2013-02-20T13:12:40Z</time>
      </trkpt>
      <trkpt lat="43.26867" lon="5.50555">
        <ele>132.5</ele>
        <time>2013-02-20T13:12:57Z</time>
      </trkpt>
      <trkpt lat="43.26864" lon="5.50544">
        <ele>144.6</ele>
        <time>2013-02-20T13:13:04Z</time>
      </trkpt>
      <trkpt lat="43.26864" lon="5.50532">
        <ele>139.8</ele>
        <time>2013-02-20T13:13:15Z</time>
      </trkpt>
      <trkpt lat="43.26864" lon="5.50521">
        <ele>140.1</ele>
        <time>2013-02-20T13:13:24Z</time>
      </trkpt>
      <trkpt lat="43.26867" lon="5.50509">
        <ele>142.3</ele>
        <time>2013-02-20T13:13:39Z</time>
      </trkpt>
      <trkpt lat="43.26873" lon="5.50502">
        <ele>152.8</ele>
        <time>2013-02-20T13:13:58Z</time>
      </trkpt>
      <trkpt lat="43.26874" lon="5.50501">
        <ele>152.6</ele>
        <time>2013-02-20T13:13:59Z</time>
      </trkpt>
      <trkpt lat="43.26882" lon="5.50481">
        <ele>153.6</ele>
        <time>2013-02-20T13:14:17Z</time>
      </trkpt>
      <trkpt lat="43.26883" lon="5.50469">
        <ele>155</ele>
        <time>2013-02-20T13:14:29Z</time>
      </trkpt>
      <trkpt lat="43.26881" lon="5.50459">
        <ele>156.5</ele>
        <time>2013-02-20T13:14:37Z</time>
      </trkpt>
      <trkpt lat="43.26881" lon="5.50447">
        <ele>157.6</ele>
        <time>2013-02-20T13:14:47Z</time>
      </trkpt>
      <trkpt lat="43.26885" lon="5.50437">
        <ele>157.8</ele>
        <time>2013-02-20T13:14:57Z</time>
      </trkpt>
      <trkpt lat="43.2689" lon="5.50427">
        <ele>161.6</ele>
        <time>2013-02-20T13:15:10Z</time>
      </trkpt>
      <trkpt lat="43.26892" lon="5.50425">
        <ele>161.6</ele>
        <time>2013-02-20T13:15:11Z</time>
      </trkpt>
      <trkpt lat="43.26899" lon="5.50409">
        <ele>158.6</ele>
        <time>2013-02-20T13:15:27Z</time>
      </trkpt>
      <trkpt lat="43.269" lon="5.50398">
        <ele>160.3</ele>
        <time>2013-02-20T13:15:37Z</time>
      </trkpt>
      <trkpt lat="43.26902" lon="5.50386">
        <ele>162.5</ele>
        <time>2013-02-20T13:15:48Z</time>
      </trkpt>
      <trkpt lat="43.26901" lon="5.50375">
        <ele>166.5</ele>
        <time>2013-02-20T13:15:58Z</time>
      </trkpt>
      <trkpt lat="43.26896" lon="5.50365">
        <ele>165.6</ele>
        <time>2013-02-20T13:16:09Z</time>
      </trkpt>
      <trkpt lat="43.26891" lon="5.50355">
        <ele>164.1</ele>
        <time>2013-02-20T13:16:21Z</time>
      </trkpt>
      <trkpt lat="43.26891" lon="5.50354">
        <ele>163.8</ele>
        <time>2013-02-20T13:16:22Z</time>
      </trkpt>
      <trkpt lat="43.26886" lon="5.50332">
        <ele>164.8</ele>
        <time>2013-02-20T13:16:46Z</time>
      </trkpt>
      <trkpt lat="43.26886" lon="5.5032">
        <ele>179.5</ele>
        <time>2013-02-20T13:16:58Z</time>
      </trkpt>
      <trkpt lat="43.26885" lon="5.50308">
        <ele>177.6</ele>
        <time>2013-02-20T13:17:11Z</time>
      </trkpt>
      <trkpt lat="43.26889" lon="5.50297">
        <ele>181.3</ele>
        <time>2013-02-20T13:17:21Z</time>
      </trkpt>
      <trkpt lat="43.26894" lon="5.50289">
        <ele>187.6</ele>
        <time>2013-02-20T13:17:48Z</time>
      </trkpt>
      <trkpt lat="43.26895" lon="5.50288">
        <ele>186.6</ele>
        <time>2013-02-20T13:17:49Z</time>
      </trkpt>
      <trkpt lat="43.26906" lon="5.50271">
        <ele>182.5</ele>
        <time>2013-02-20T13:18:10Z</time>
      </trkpt>
      <trkpt lat="43.26908" lon="5.50259">
        <ele>182.8</ele>
        <time>2013-02-20T13:18:22Z</time>
      </trkpt>
      <trkpt lat="43.26913" lon="5.5025">
        <ele>179.3</ele>
        <time>2013-02-20T13:18:31Z</time>
      </trkpt>
      <trkpt lat="43.26912" lon="5.50238">
        <ele>185.6</ele>
        <time>2013-02-20T13:18:52Z</time>
      </trkpt>
      <trkpt lat="43.26912" lon="5.50237">
        <ele>185.8</ele>
        <time>2013-02-20T13:18:53Z</time>
      </trkpt>
      <trkpt lat="43.26914" lon="5.5022">
        <ele>173.6</ele>
        <time>2013-02-20T13:19:27Z</time>
      </trkpt>
      <trkpt lat="43.26908" lon="5.50211">
        <ele>181.8</ele>
        <time>2013-02-20T13:20:01Z</time>
      </trkpt>
      <trkpt lat="43.26907" lon="5.50211">
        <ele>181.8</ele>
        <time>2013-02-20T13:20:02Z</time>
      </trkpt>
      <trkpt lat="43.26911" lon="5.50191">
        <ele>188.3</ele>
        <time>2013-02-20T13:21:47Z</time>
      </trkpt>
      <trkpt lat="43.26912" lon="5.50191">
        <ele>188.1</ele>
        <time>2013-02-20T13:21:48Z</time>
      </trkpt>
      <trkpt lat="43.26904" lon="5.50183">
        <ele>188.1</ele>
        <time>2013-02-20T13:23:58Z</time>
      </trkpt>
      <trkpt lat="43.26906" lon="5.50159">
        <ele>187</ele>
        <time>2013-02-20T13:24:19Z</time>
      </trkpt>
      <trkpt lat="43.26902" lon="5.50148">
        <ele>184.8</ele>
        <time>2013-02-20T13:24:29Z</time>
      </trkpt>
      <trkpt lat="43.26901" lon="5.50136">
        <ele>187.5</ele>
        <time>2013-02-20T13:24:41Z</time>
      </trkpt>
      <trkpt lat="43.269" lon="5.50124">
        <ele>195.6</ele>
        <time>2013-02-20T13:26:30Z</time>
      </trkpt>
      <trkpt lat="43.269" lon="5.50124">
        <ele>195.3</ele>
        <time>2013-02-20T13:26:31Z</time>
      </trkpt>
      <trkpt lat="43.26895" lon="5.50103">
        <ele>192.6</ele>
        <time>2013-02-20T13:26:49Z</time>
      </trkpt>
      <trkpt lat="43.26895" lon="5.50092">
        <ele>194.6</ele>
        <time>2013-02-20T13:26:57Z</time>
      </trkpt>
      <trkpt lat="43.26892" lon="5.5008">
        <ele>195.8</ele>
        <time>2013-02-20T13:27:05Z</time>
      </trkpt>
      <trkpt lat="43.26894" lon="5.50069">
        <ele>196.3</ele>
        <time>2013-02-20T13:27:15Z</time>
      </trkpt>
      <trkpt lat="43.26893" lon="5.50058">
        <ele>195.8</ele>
        <time>2013-02-20T13:27:23Z</time>
      </trkpt>
      <trkpt lat="43.26893" lon="5.50046">
        <ele>196.3</ele>
        <time>2013-02-20T13:27:31Z</time>
      </trkpt>
      <trkpt lat="43.26893" lon="5.50045">
        <ele>196.3</ele>
        <time>2013-02-20T13:27:32Z</time>
      </trkpt>
      <trkpt lat="43.26892" lon="5.50023">
        <ele>193.8</ele>
        <time>2013-02-20T13:27:53Z</time>
      </trkpt>
      <trkpt lat="43.26892" lon="5.50011">
        <ele>194.8</ele>
        <time>2013-02-20T13:28:00Z</time>
      </trkpt>
      <trkpt lat="43.26892" lon="5.5">
        <ele>197.3</ele>
        <time>2013-02-20T13:28:07Z</time>
      </trkpt>
      <trkpt lat="43.26892" lon="5.49989">
        <ele>197.6</ele>
        <time>2013-02-20T13:28:14Z</time>
      </trkpt>
      <trkpt lat="43.26892" lon="5.49977">
        <ele>196.5</ele>
        <time>2013-02-20T13:28:23Z</time>
      </trkpt>
      <trkpt lat="43.2689" lon="5.49967">
        <ele>197.6</ele>
        <time>2013-02-20T13:28:31Z</time>
      </trkpt>
      <trkpt lat="43.26886" lon="5.49957">
        <ele>196.8</ele>
        <time>2013-02-20T13:28:38Z</time>
      </trkpt>
      <trkpt lat="43.26886" lon="5.49955">
        <ele>196.6</ele>
        <time>2013-02-20T13:28:39Z</time>
      </trkpt>
      <trkpt lat="43.26879" lon="5.49935">
        <ele>200.3</ele>
        <time>2013-02-20T13:28:54Z</time>
      </trkpt>
      <trkpt lat="43.26873" lon="5.49927">
        <ele>199.1</ele>
        <time>2013-02-20T13:29:01Z</time>
      </trkpt>
      <trkpt lat="43.2687" lon="5.49917">
        <ele>201.1</ele>
        <time>2013-02-20T13:29:07Z</time>
      </trkpt>
      <trkpt lat="43.26865" lon="5.49908">
        <ele>201.5</ele>
        <time>2013-02-20T13:29:15Z</time>
      </trkpt>
      <trkpt lat="43.26861" lon="5.49897">
        <ele>201.8</ele>
        <time>2013-02-20T13:29:24Z</time>
      </trkpt>
      <trkpt lat="43.26856" lon="5.49887">
        <ele>202.5</ele>
        <time>2013-02-20T13:29:32Z</time>
      </trkpt>
      <trkpt lat="43.26851" lon="5.49877">
        <ele>203.1</ele>
        <time>2013-02-20T13:29:39Z</time>
      </trkpt>
      <trkpt lat="43.26851" lon="5.49876">
        <ele>203.3</ele>
        <time>2013-02-20T13:29:40Z</time>
      </trkpt>
      <trkpt lat="43.26844" lon="5.49857">
        <ele>205.6</ele>
        <time>2013-02-20T13:29:52Z</time>
      </trkpt>
      <trkpt lat="43.26839" lon="5.49847">
        <ele>204.5</ele>
        <time>2013-02-20T13:30:03Z</time>
      </trkpt>
      <trkpt lat="43.26833" lon="5.4984">
        <ele>201.5</ele>
        <time>2013-02-20T13:30:13Z</time>
      </trkpt>
      <trkpt lat="43.26825" lon="5.49835">
        <ele>198.6</ele>
        <time>2013-02-20T13:30:22Z</time>
      </trkpt>
      <trkpt lat="43.26818" lon="5.49832">
        <ele>195.1</ele>
        <time>2013-02-20T13:30:30Z</time>
      </trkpt>
      <trkpt lat="43.2681" lon="5.49828">
        <ele>195</ele>
        <time>2013-02-20T13:30:37Z</time>
      </trkpt>
      <trkpt lat="43.26801" lon="5.49827">
        <ele>194.1</ele>
        <time>2013-02-20T13:30:45Z</time>
      </trkpt>
      <trkpt lat="43.26801" lon="5.49827">
        <ele>194.1</ele>
        <time>2013-02-20T13:30:46Z</time>
      </trkpt>
      <trkpt lat="43.26784" lon="5.49827">
        <ele>201.8</ele>
        <time>2013-02-20T13:31:14Z</time>
      </trkpt>
      <trkpt lat="43.26776" lon="5.49824">
        <ele>201.3</ele>
        <time>2013-02-20T13:31:23Z</time>
      </trkpt>
      <trkpt lat="43.26769" lon="5.49817">
        <ele>199.3</ele>
        <time>2013-02-20T13:31:33Z</time>
      </trkpt>
      <trkpt lat="43.26764" lon="5.49808">
        <ele>199.3</ele>
        <time>2013-02-20T13:31:41Z</time>
      </trkpt>
      <trkpt lat="43.26759" lon="5.49799">
        <ele>201.1</ele>
        <time>2013-02-20T13:31:51Z</time>
      </trkpt>
      <trkpt lat="43.26759" lon="5.49797">
        <ele>200.6</ele>
        <time>2013-02-20T13:31:52Z</time>
      </trkpt>
      <trkpt lat="43.26756" lon="5.49775">
        <ele>200</ele>
        <time>2013-02-20T13:32:10Z</time>
      </trkpt>
      <trkpt lat="43.26751" lon="5.49766">
        <ele>199.1</ele>
        <time>2013-02-20T13:32:19Z</time>
      </trkpt>
      <trkpt lat="43.26746" lon="5.49757">
        <ele>200</ele>
        <time>2013-02-20T13:32:29Z</time>
      </trkpt>
      <trkpt lat="43.26743" lon="5.49745">
        <ele>203.6</ele>
        <time>2013-02-20T13:32:42Z</time>
      </trkpt>
      <trkpt lat="43.2674" lon="5.49734">
        <ele>204.8</ele>
        <time>2013-02-20T13:32:55Z</time>
      </trkpt>
      <trkpt lat="43.2674" lon="5.49733">
        <ele>204.8</ele>
        <time>2013-02-20T13:32:56Z</time>
      </trkpt>
      <trkpt lat="43.26735" lon="5.49711">
        <ele>208.3</ele>
        <time>2013-02-20T13:33:20Z</time>
      </trkpt>
      <trkpt lat="43.26733" lon="5.497">
        <ele>211.3</ele>
        <time>2013-02-20T13:33:31Z</time>
      </trkpt>
      <trkpt lat="43.26733" lon="5.49689">
        <ele>212.1</ele>
        <time>2013-02-20T13:33:40Z</time>
      </trkpt>
      <trkpt lat="43.26733" lon="5.49676">
        <ele>213.8</ele>
        <time>2013-02-20T13:33:49Z</time>
      </trkpt>
      <trkpt lat="43.26735" lon="5.49665">
        <ele>216.3</ele>
        <time>2013-02-20T13:33:58Z</time>
      </trkpt>
      <trkpt lat="43.26735" lon="5.49664">
        <ele>216.3</ele>
        <time>2013-02-20T13:33:59Z</time>
      </trkpt>
      <trkpt lat="43.26731" lon="5.49642">
        <ele>217.5</ele>
        <time>2013-02-20T13:34:23Z</time>
      </trkpt>
      <trkpt lat="43.26732" lon="5.4963">
        <ele>222.1</ele>
        <time>2013-02-20T13:34:52Z</time>
      </trkpt>
      <trkpt lat="43.26733" lon="5.49619">
        <ele>223.6</ele>
        <time>2013-02-20T13:35:11Z</time>
      </trkpt>
      <trkpt lat="43.26733" lon="5.49618">
        <ele>224.3</ele>
        <time>2013-02-20T13:35:12Z</time>
      </trkpt>
      <trkpt lat="43.26722" lon="5.49602">
        <ele>226</ele>
        <time>2013-02-20T13:35:53Z</time>
      </trkpt>
      <trkpt lat="43.26726" lon="5.49591">
        <ele>234.6</ele>
        <time>2013-02-20T13:36:22Z</time>
      </trkpt>
      <trkpt lat="43.26726" lon="5.4959">
        <ele>234.6</ele>
        <time>2013-02-20T13:36:23Z</time>
      </trkpt>
      <trkpt lat="43.26718" lon="5.49569">
        <ele>237.5</ele>
        <time>2013-02-20T13:37:10Z</time>
      </trkpt>
      <trkpt lat="43.26719" lon="5.49557">
        <ele>242.3</ele>
        <time>2013-02-20T13:37:34Z</time>
      </trkpt>
      <trkpt lat="43.26719" lon="5.49557">
        <ele>242.8</ele>
        <time>2013-02-20T13:37:35Z</time>
      </trkpt>
      <trkpt lat="43.26715" lon="5.49535">
        <ele>246.6</ele>
        <time>2013-02-20T13:38:14Z</time>
      </trkpt>
      <trkpt lat="43.26719" lon="5.49523">
        <ele>250.3</ele>
        <time>2013-02-20T13:38:34Z</time>
      </trkpt>
      <trkpt lat="43.26722" lon="5.49512">
        <ele>255.5</ele>
        <time>2013-02-20T13:38:53Z</time>
      </trkpt>
      <trkpt lat="43.26722" lon="5.49511">
        <ele>255.6</ele>
        <time>2013-02-20T13:38:54Z</time>
      </trkpt>
      <trkpt lat="43.26719" lon="5.49489">
        <ele>258.5</ele>
        <time>2013-02-20T13:39:29Z</time>
      </trkpt>
      <trkpt lat="43.26718" lon="5.49477">
        <ele>262.1</ele>
        <time>2013-02-20T13:39:52Z</time>
      </trkpt>
      <trkpt lat="43.26718" lon="5.49466">
        <ele>263.7</ele>
        <time>2013-02-20T13:40:06Z</time>
      </trkpt>
      <trkpt lat="43.26718" lon="5.49465">
        <ele>264.2</ele>
        <time>2013-02-20T13:40:07Z</time>
      </trkpt>
      <trkpt lat="43.26716" lon="5.49442">
        <ele>270.8</ele>
        <time>2013-02-20T13:40:34Z</time>
      </trkpt>
      <trkpt lat="43.26715" lon="5.4943">
        <ele>273.1</ele>
        <time>2013-02-20T13:40:50Z</time>
      </trkpt>
      <trkpt lat="43.26718" lon="5.49418">
        <ele>276.7</ele>
        <time>2013-02-20T13:41:08Z</time>
      </trkpt>
      <trkpt lat="43.26718" lon="5.49418">
        <ele>276.7</ele>
        <time>2013-02-20T13:41:09Z</time>
      </trkpt>
      <trkpt lat="43.26717" lon="5.49394">
        <ele>281</ele>
        <time>2013-02-20T13:41:44Z</time>
      </trkpt>
      <trkpt lat="43.26716" lon="5.49383">
        <ele>284.1</ele>
        <time>2013-02-20T13:41:59Z</time>
      </trkpt>
      <trkpt lat="43.26714" lon="5.49371">
        <ele>287.3</ele>
        <time>2013-02-20T13:42:14Z</time>
      </trkpt>
      <trkpt lat="43.26714" lon="5.4937">
        <ele>287.5</ele>
        <time>2013-02-20T13:42:15Z</time>
      </trkpt>
      <trkpt lat="43.26711" lon="5.49348">
        <ele>293.1</ele>
        <time>2013-02-20T13:42:44Z</time>
      </trkpt>
      <trkpt lat="43.26707" lon="5.49337">
        <ele>294.1</ele>
        <time>2013-02-20T13:43:01Z</time>
      </trkpt>
      <trkpt lat="43.26707" lon="5.49325">
        <ele>297.3</ele>
        <time>2013-02-20T13:43:19Z</time>
      </trkpt>
      <trkpt lat="43.26707" lon="5.49324">
        <ele>297.2</ele>
        <time>2013-02-20T13:43:20Z</time>
      </trkpt>
      <trkpt lat="43.26704" lon="5.49302">
        <ele>306.6</ele>
        <time>2013-02-20T13:43:52Z</time>
      </trkpt>
      <trkpt lat="43.26708" lon="5.49291">
        <ele>310.7</ele>
        <time>2013-02-20T13:44:07Z</time>
      </trkpt>
      <trkpt lat="43.26716" lon="5.49286">
        <ele>315.6</ele>
        <time>2013-02-20T13:44:35Z</time>
      </trkpt>
      <trkpt lat="43.26717" lon="5.49286">
        <ele>315.7</ele>
        <time>2013-02-20T13:44:36Z</time>
      </trkpt>
      <trkpt lat="43.26727" lon="5.49267">
        <ele>324.2</ele>
        <time>2013-02-20T13:45:34Z</time>
      </trkpt>
      <trkpt lat="43.26731" lon="5.49256">
        <ele>327.1</ele>
        <time>2013-02-20T13:45:51Z</time>
      </trkpt>
      <trkpt lat="43.26731" lon="5.49255">
        <ele>327.2</ele>
        <time>2013-02-20T13:45:52Z</time>
      </trkpt>
      <trkpt lat="43.26737" lon="5.49235">
        <ele>330.2</ele>
        <time>2013-02-20T13:53:25Z</time>
      </trkpt>
      <trkpt lat="43.26738" lon="5.49234">
        <ele>330.2</ele>
        <time>2013-02-20T13:53:26Z</time>
      </trkpt>
      <trkpt lat="43.26747" lon="5.49217">
        <ele>331.7</ele>
        <time>2013-02-20T13:53:49Z</time>
      </trkpt>
      <trkpt lat="43.26755" lon="5.49212">
        <ele>332.6</ele>
        <time>2013-02-20T13:53:57Z</time>
      </trkpt>
      <trkpt lat="43.26761" lon="5.49206">
        <ele>334.6</ele>
        <time>2013-02-20T13:54:07Z</time>
      </trkpt>
      <trkpt lat="43.26767" lon="5.49197">
        <ele>336.2</ele>
        <time>2013-02-20T13:54:18Z</time>
      </trkpt>
      <trkpt lat="43.26774" lon="5.49189">
        <ele>337.8</ele>
        <time>2013-02-20T13:54:28Z</time>
      </trkpt>
      <trkpt lat="43.26775" lon="5.49188">
        <ele>338.1</ele>
        <time>2013-02-20T13:54:29Z</time>
      </trkpt>
      <trkpt lat="43.26785" lon="5.4917">
        <ele>339.3</ele>
        <time>2013-02-20T13:54:47Z</time>
      </trkpt>
      <trkpt lat="43.26789" lon="5.49159">
        <ele>340.1</ele>
        <time>2013-02-20T13:54:58Z</time>
      </trkpt>
      <trkpt lat="43.26794" lon="5.4915">
        <ele>340</ele>
        <time>2013-02-20T13:55:08Z</time>
      </trkpt>
      <trkpt lat="43.26797" lon="5.49139">
        <ele>338.6</ele>
        <time>2013-02-20T13:55:19Z</time>
      </trkpt>
      <trkpt lat="43.26806" lon="5.49135">
        <ele>335.3</ele>
        <time>2013-02-20T13:55:43Z</time>
      </trkpt>
      <trkpt lat="43.26806" lon="5.49134">
        <ele>335.2</ele>
        <time>2013-02-20T13:55:44Z</time>
      </trkpt>
      <trkpt lat="43.26816" lon="5.49116">
        <ele>330.1</ele>
        <time>2013-02-20T13:56:17Z</time>
      </trkpt>
      <trkpt lat="43.26816" lon="5.49104">
        <ele>324.7</ele>
        <time>2013-02-20T13:56:33Z</time>
      </trkpt>
      <trkpt lat="43.26816" lon="5.49093">
        <ele>323.1</ele>
        <time>2013-02-20T13:56:42Z</time>
      </trkpt>
      <trkpt lat="43.26816" lon="5.49082">
        <ele>321.5</ele>
        <time>2013-02-20T13:56:49Z</time>
      </trkpt>
      <trkpt lat="43.26816" lon="5.4908">
        <ele>321.6</ele>
        <time>2013-02-20T13:56:50Z</time>
      </trkpt>
      <trkpt lat="43.26813" lon="5.49058">
        <ele>317.2</ele>
        <time>2013-02-20T13:57:08Z</time>
      </trkpt>
      <trkpt lat="43.26814" lon="5.49047">
        <ele>314.3</ele>
        <time>2013-02-20T13:57:17Z</time>
      </trkpt>
      <trkpt lat="43.26817" lon="5.49037">
        <ele>313.2</ele>
        <time>2013-02-20T13:57:24Z</time>
      </trkpt>
      <trkpt lat="43.2682" lon="5.49027">
        <ele>313.7</ele>
        <time>2013-02-20T13:57:33Z</time>
      </trkpt>
      <trkpt lat="43.26828" lon="5.49021">
        <ele>310.7</ele>
        <time>2013-02-20T13:57:57Z</time>
      </trkpt>
      <trkpt lat="43.26828" lon="5.49021">
        <ele>310.5</ele>
        <time>2013-02-20T13:57:58Z</time>
      </trkpt>
      <trkpt lat="43.26842" lon="5.49005">
        <ele>307.3</ele>
        <time>2013-02-20T13:58:30Z</time>
      </trkpt>
      <trkpt lat="43.26849" lon="5.48998">
        <ele>305.1</ele>
        <time>2013-02-20T13:58:40Z</time>
      </trkpt>
      <trkpt lat="43.26856" lon="5.48991">
        <ele>302.3</ele>
        <time>2013-02-20T13:58:56Z</time>
      </trkpt>
      <trkpt lat="43.26864" lon="5.48997">
        <ele>297.8</ele>
        <time>2013-02-20T13:59:15Z</time>
      </trkpt>
      <trkpt lat="43.26864" lon="5.48997">
        <ele>297.6</ele>
        <time>2013-02-20T13:59:16Z</time>
      </trkpt>
      <trkpt lat="43.2688" lon="5.48999">
        <ele>290.7</ele>
        <time>2013-02-20T13:59:45Z</time>
      </trkpt>
      <trkpt lat="43.26889" lon="5.49004">
        <ele>286.7</ele>
        <time>2013-02-20T13:59:54Z</time>
      </trkpt>
      <trkpt lat="43.26897" lon="5.49007">
        <ele>281.8</ele>
        <time>2013-02-20T14:00:08Z</time>
      </trkpt>
      <trkpt lat="43.26904" lon="5.49014">
        <ele>275.2</ele>
        <time>2013-02-20T14:00:21Z</time>
      </trkpt>
      <trkpt lat="43.26904" lon="5.49015">
        <ele>275.1</ele>
        <time>2013-02-20T14:00:22Z</time>
      </trkpt>
      <trkpt lat="43.26921" lon="5.49015">
        <ele>269.2</ele>
        <time>2013-02-20T14:00:52Z</time>
      </trkpt>
      <trkpt lat="43.26926" lon="5.49023">
        <ele>265</ele>
        <time>2013-02-20T14:01:02Z</time>
      </trkpt>
      <trkpt lat="43.26932" lon="5.49031">
        <ele>262.7</ele>
        <time>2013-02-20T14:01:09Z</time>
      </trkpt>
      <trkpt lat="43.26939" lon="5.49037">
        <ele>253.3</ele>
        <time>2013-02-20T14:01:21Z</time>
      </trkpt>
      <trkpt lat="43.26946" lon="5.49043">
        <ele>246.3</ele>
        <time>2013-02-20T14:01:29Z</time>
      </trkpt>
      <trkpt lat="43.26947" lon="5.49045">
        <ele>245.5</ele>
        <time>2013-02-20T14:01:30Z</time>
      </trkpt>
      <trkpt lat="43.26962" lon="5.49051">
        <ele>239.6</ele>
        <time>2013-02-20T14:01:47Z</time>
      </trkpt>
      <trkpt lat="43.26971" lon="5.4905">
        <ele>239.3</ele>
        <time>2013-02-20T14:01:55Z</time>
      </trkpt>
      <trkpt lat="43.26979" lon="5.49046">
        <ele>244</ele>
        <time>2013-02-20T14:02:05Z</time>
      </trkpt>
      <trkpt lat="43.26985" lon="5.49039">
        <ele>252</ele>
        <time>2013-02-20T14:02:13Z</time>
      </trkpt>
      <trkpt lat="43.26991" lon="5.4903">
        <ele>253.8</ele>
        <time>2013-02-20T14:02:22Z</time>
      </trkpt>
      <trkpt lat="43.26999" lon="5.49024">
        <ele>252.3</ele>
        <time>2013-02-20T14:02:35Z</time>
      </trkpt>
      <trkpt lat="43.26999" lon="5.49023">
        <ele>252.5</ele>
        <time>2013-02-20T14:02:36Z</time>
      </trkpt>
      <trkpt lat="43.27009" lon="5.49006">
        <ele>253.6</ele>
        <time>2013-02-20T14:02:56Z</time>
      </trkpt>
      <trkpt lat="43.27011" lon="5.48994">
        <ele>248.3</ele>
        <time>2013-02-20T14:03:09Z</time>
      </trkpt>
      <trkpt lat="43.27013" lon="5.48983">
        <ele>247.1</ele>
        <time>2013-02-20T14:03:21Z</time>
      </trkpt>
      <trkpt lat="43.27016" lon="5.48971">
        <ele>242</ele>
        <time>2013-02-20T14:03:36Z</time>
      </trkpt>
      <trkpt lat="43.27017" lon="5.48971">
        <ele>241.1</ele>
        <time>2013-02-20T14:03:37Z</time>
      </trkpt>
      <trkpt lat="43.27021" lon="5.48948">
        <ele>234.8</ele>
        <time>2013-02-20T14:03:58Z</time>
      </trkpt>
      <trkpt lat="43.27025" lon="5.48937">
        <ele>233.8</ele>
        <time>2013-02-20T14:04:08Z</time>
      </trkpt>
      <trkpt lat="43.27017" lon="5.4893">
        <ele>230</ele>
        <time>2013-02-20T14:04:27Z</time>
      </trkpt>
      <trkpt lat="43.2701" lon="5.48934">
        <ele>230.6</ele>
        <time>2013-02-20T14:04:35Z</time>
      </trkpt>
      <trkpt lat="43.27001" lon="5.48938">
        <ele>232.8</ele>
        <time>2013-02-20T14:04:43Z</time>
      </trkpt>
      <trkpt lat="43.27" lon="5.48939">
        <ele>233.1</ele>
        <time>2013-02-20T14:04:44Z</time>
      </trkpt>
      <trkpt lat="43.26992" lon="5.48958">
        <ele>229.6</ele>
        <time>2013-02-20T14:05:05Z</time>
      </trkpt>
      <trkpt lat="43.26984" lon="5.48963">
        <ele>228.5</ele>
        <time>2013-02-20T14:05:14Z</time>
      </trkpt>
      <trkpt lat="43.26976" lon="5.48965">
        <ele>226.1</ele>
        <time>2013-02-20T14:05:24Z</time>
      </trkpt>
      <trkpt lat="43.26968" lon="5.48968">
        <ele>226.3</ele>
        <time>2013-02-20T14:05:32Z</time>
      </trkpt>
      <trkpt lat="43.2696" lon="5.48973">
        <ele>227.6</ele>
        <time>2013-02-20T14:05:43Z</time>
      </trkpt>
      <trkpt lat="43.26952" lon="5.48968">
        <ele>225</ele>
        <time>2013-02-20T14:05:53Z</time>
      </trkpt>
      <trkpt lat="43.26952" lon="5.48967">
        <ele>224.8</ele>
        <time>2013-02-20T14:05:54Z</time>
      </trkpt>
      <trkpt lat="43.26943" lon="5.4895">
        <ele>222.6</ele>
        <time>2013-02-20T14:06:11Z</time>
      </trkpt>
      <trkpt lat="43.26936" lon="5.48944">
        <ele>219.1</ele>
        <time>2013-02-20T14:06:24Z</time>
      </trkpt>
      <trkpt lat="43.26927" lon="5.48941">
        <ele>216.5</ele>
        <time>2013-02-20T14:06:36Z</time>
      </trkpt>
      <trkpt lat="43.2692" lon="5.48936">
        <ele>214.5</ele>
        <time>2013-02-20T14:06:48Z</time>
      </trkpt>
      <trkpt lat="43.26912" lon="5.4893">
        <ele>213.3</ele>
        <time>2013-02-20T14:06:58Z</time>
      </trkpt>
      <trkpt lat="43.26911" lon="5.48929">
        <ele>213.3</ele>
        <time>2013-02-20T14:06:59Z</time>
      </trkpt>
      <trkpt lat="43.26914" lon="5.48912">
        <ele>215</ele>
        <time>2013-02-20T14:07:21Z</time>
      </trkpt>
      <trkpt lat="43.26911" lon="5.48924">
        <ele>220.5</ele>
        <time>2013-02-20T14:08:05Z</time>
      </trkpt>
      <trkpt lat="43.2691" lon="5.48924">
        <ele>221.1</ele>
        <time>2013-02-20T14:08:06Z</time>
      </trkpt>
      <trkpt lat="43.26907" lon="5.48936">
        <ele>204.8</ele>
        <time>2013-02-20T14:09:35Z</time>
      </trkpt>
      <trkpt lat="43.26917" lon="5.48946">
        <ele>190.1</ele>
        <time>2013-02-20T14:10:40Z</time>
      </trkpt>
      <trkpt lat="43.26917" lon="5.48947">
        <ele>188.1</ele>
        <time>2013-02-20T14:10:41Z</time>
      </trkpt>
      <trkpt lat="43.26912" lon="5.48927">
        <ele>215</ele>
        <time>2013-02-20T14:11:30Z</time>
      </trkpt>
      <trkpt lat="43.26919" lon="5.48921">
        <ele>221.6</ele>
        <time>2013-02-20T14:11:36Z</time>
      </trkpt>
      <trkpt lat="43.26926" lon="5.48915">
        <ele>237.3</ele>
        <time>2013-02-20T14:11:46Z</time>
      </trkpt>
      <trkpt lat="43.26927" lon="5.48914">
        <ele>239</ele>
        <time>2013-02-20T14:11:47Z</time>
      </trkpt>
      <trkpt lat="43.26916" lon="5.48899">
        <ele>246.5</ele>
        <time>2013-02-20T14:12:31Z</time>
      </trkpt>
      <trkpt lat="43.26924" lon="5.48894">
        <ele>254.3</ele>
        <time>2013-02-20T14:12:44Z</time>
      </trkpt>
      <trkpt lat="43.26929" lon="5.48904">
        <ele>264</ele>
        <time>2013-02-20T14:13:07Z</time>
      </trkpt>
      <trkpt lat="43.26929" lon="5.48904">
        <ele>264.8</ele>
        <time>2013-02-20T14:13:08Z</time>
      </trkpt>
      <trkpt lat="43.26934" lon="5.48924">
        <ele>227.3</ele>
        <time>2013-02-20T14:13:38Z</time>
      </trkpt>
      <trkpt lat="43.26942" lon="5.48922">
        <ele>222.3</ele>
        <time>2013-02-20T14:13:45Z</time>
      </trkpt>
      <trkpt lat="43.2695" lon="5.48918">
        <ele>221</ele>
        <time>2013-02-20T14:13:51Z</time>
      </trkpt>
      <trkpt lat="43.26958" lon="5.48914">
        <ele>211.8</ele>
        <time>2013-02-20T14:14:00Z</time>
      </trkpt>
      <trkpt lat="43.26964" lon="5.48906">
        <ele>212.3</ele>
        <time>2013-02-20T14:14:08Z</time>
      </trkpt>
      <trkpt lat="43.26965" lon="5.48905">
        <ele>211.6</ele>
        <time>2013-02-20T14:14:09Z</time>
      </trkpt>
      <trkpt lat="43.26977" lon="5.48893">
        <ele>210.1</ele>
        <time>2013-02-20T14:14:22Z</time>
      </trkpt>
      <trkpt lat="43.26984" lon="5.48886">
        <ele>210.6</ele>
        <time>2013-02-20T14:14:30Z</time>
      </trkpt>
      <trkpt lat="43.26991" lon="5.48878">
        <ele>205.8</ele>
        <time>2013-02-20T14:14:39Z</time>
      </trkpt>
      <trkpt lat="43.26993" lon="5.48868">
        <ele>207.3</ele>
        <time>2013-02-20T14:14:46Z</time>
      </trkpt>
      <trkpt lat="43.2699" lon="5.48857">
        <ele>211.1</ele>
        <time>2013-02-20T14:14:51Z</time>
      </trkpt>
      <trkpt lat="43.26987" lon="5.48846">
        <ele>210.8</ele>
        <time>2013-02-20T14:14:58Z</time>
      </trkpt>
      <trkpt lat="43.26984" lon="5.48835">
        <ele>211.1</ele>
        <time>2013-02-20T14:15:05Z</time>
      </trkpt>
      <trkpt lat="43.26982" lon="5.48823">
        <ele>210.6</ele>
        <time>2013-02-20T14:15:13Z</time>
      </trkpt>
      <trkpt lat="43.26981" lon="5.48821">
        <ele>211</ele>
        <time>2013-02-20T14:15:14Z</time>
      </trkpt>
      <trkpt lat="43.26984" lon="5.488">
        <ele>202.8</ele>
        <time>2013-02-20T14:15:30Z</time>
      </trkpt>
      <trkpt lat="43.26988" lon="5.4879">
        <ele>198.3</ele>
        <time>2013-02-20T14:15:39Z</time>
      </trkpt>
      <trkpt lat="43.26991" lon="5.4878">
        <ele>198</ele>
        <time>2013-02-20T14:15:46Z</time>
      </trkpt>
      <trkpt lat="43.26996" lon="5.48769">
        <ele>198.1</ele>
        <time>2013-02-20T14:15:54Z</time>
      </trkpt>
      <trkpt lat="43.27" lon="5.48759">
        <ele>205.1</ele>
        <time>2013-02-20T14:16:00Z</time>
      </trkpt>
      <trkpt lat="43.27004" lon="5.48749">
        <ele>207</ele>
        <time>2013-02-20T14:16:06Z</time>
      </trkpt>
      <trkpt lat="43.2701" lon="5.4874">
        <ele>204.3</ele>
        <time>2013-02-20T14:16:13Z</time>
      </trkpt>
      <trkpt lat="43.27017" lon="5.48736">
        <ele>204.3</ele>
        <time>2013-02-20T14:16:19Z</time>
      </trkpt>
      <trkpt lat="43.2702" lon="5.48735">
        <ele>205.1</ele>
        <time>2013-02-20T14:16:20Z</time>
      </trkpt>
      <trkpt lat="43.27034" lon="5.48731">
        <ele>202.3</ele>
        <time>2013-02-20T14:16:33Z</time>
      </trkpt>
      <trkpt lat="43.27042" lon="5.48733">
        <ele>202.5</ele>
        <time>2013-02-20T14:16:41Z</time>
      </trkpt>
      <trkpt lat="43.2705" lon="5.48736">
        <ele>200.3</ele>
        <time>2013-02-20T14:16:50Z</time>
      </trkpt>
      <trkpt lat="43.27058" lon="5.48737">
        <ele>199.6</ele>
        <time>2013-02-20T14:16:57Z</time>
      </trkpt>
      <trkpt lat="43.27067" lon="5.48735">
        <ele>197.8</ele>
        <time>2013-02-20T14:17:05Z</time>
      </trkpt>
      <trkpt lat="43.27073" lon="5.48728">
        <ele>196.1</ele>
        <time>2013-02-20T14:17:12Z</time>
      </trkpt>
      <trkpt lat="43.27077" lon="5.48718">
        <ele>196.6</ele>
        <time>2013-02-20T14:17:19Z</time>
      </trkpt>
      <trkpt lat="43.2708" lon="5.48706">
        <ele>196.3</ele>
        <time>2013-02-20T14:17:29Z</time>
      </trkpt>
      <trkpt lat="43.27081" lon="5.48705">
        <ele>196.1</ele>
        <time>2013-02-20T14:17:30Z</time>
      </trkpt>
      <trkpt lat="43.27084" lon="5.48683">
        <ele>192.6</ele>
        <time>2013-02-20T14:17:47Z</time>
      </trkpt>
      <trkpt lat="43.27086" lon="5.48672">
        <ele>190.1</ele>
        <time>2013-02-20T14:17:54Z</time>
      </trkpt>
      <trkpt lat="43.27087" lon="5.4866">
        <ele>187.6</ele>
        <time>2013-02-20T14:18:03Z</time>
      </trkpt>
      <trkpt lat="43.27088" lon="5.48649">
        <ele>183.6</ele>
        <time>2013-02-20T14:18:12Z</time>
      </trkpt>
      <trkpt lat="43.27093" lon="5.4864">
        <ele>181.6</ele>
        <time>2013-02-20T14:18:21Z</time>
      </trkpt>
      <trkpt lat="43.27101" lon="5.48634">
        <ele>181.1</ele>
        <time>2013-02-20T14:18:31Z</time>
      </trkpt>
      <trkpt lat="43.27102" lon="5.48633">
        <ele>181.1</ele>
        <time>2013-02-20T14:18:32Z</time>
      </trkpt>
      <trkpt lat="43.27116" lon="5.48624">
        <ele>179.6</ele>
        <time>2013-02-20T14:18:48Z</time>
      </trkpt>
      <trkpt lat="43.27124" lon="5.48619">
        <ele>178.1</ele>
        <time>2013-02-20T14:18:55Z</time>
      </trkpt>
      <trkpt lat="43.27132" lon="5.48615">
        <ele>177.3</ele>
        <time>2013-02-20T14:19:05Z</time>
      </trkpt>
      <trkpt lat="43.2714" lon="5.48611">
        <ele>174.3</ele>
        <time>2013-02-20T14:19:12Z</time>
      </trkpt>
      <trkpt lat="43.27147" lon="5.48607">
        <ele>172.8</ele>
        <time>2013-02-20T14:19:18Z</time>
      </trkpt>
      <trkpt lat="43.27155" lon="5.48604">
        <ele>168.6</ele>
        <time>2013-02-20T14:19:25Z</time>
      </trkpt>
      <trkpt lat="43.27163" lon="5.48599">
        <ele>165.8</ele>
        <time>2013-02-20T14:19:33Z</time>
      </trkpt>
      <trkpt lat="43.27164" lon="5.48599">
        <ele>165.3</ele>
        <time>2013-02-20T14:19:34Z</time>
      </trkpt>
      <trkpt lat="43.27179" lon="5.48591">
        <ele>163.1</ele>
        <time>2013-02-20T14:19:51Z</time>
      </trkpt>
      <trkpt lat="43.27186" lon="5.48585">
        <ele>162.5</ele>
        <time>2013-02-20T14:20:00Z</time>
      </trkpt>
      <trkpt lat="43.2719" lon="5.48575">
        <ele>161.3</ele>
        <time>2013-02-20T14:20:09Z</time>
      </trkpt>
      <trkpt lat="43.27196" lon="5.48566">
        <ele>161.3</ele>
        <time>2013-02-20T14:20:18Z</time>
      </trkpt>
      <trkpt lat="43.27202" lon="5.48575">
        <ele>157.6</ele>
        <time>2013-02-20T14:20:44Z</time>
      </trkpt>
      <trkpt lat="43.27202" lon="5.48576">
        <ele>157.8</ele>
        <time>2013-02-20T14:20:45Z</time>
      </trkpt>
      <trkpt lat="43.27211" lon="5.48594">
        <ele>157.8</ele>
        <time>2013-02-20T14:20:59Z</time>
      </trkpt>
      <trkpt lat="43.27209" lon="5.48605">
        <ele>155.5</ele>
        <time>2013-02-20T14:21:06Z</time>
      </trkpt>
      <trkpt lat="43.27211" lon="5.48615">
        <ele>151</ele>
        <time>2013-02-20T14:21:27Z</time>
      </trkpt>
      <trkpt lat="43.27217" lon="5.48624">
        <ele>151.1</ele>
        <time>2013-02-20T14:21:35Z</time>
      </trkpt>
      <trkpt lat="43.27224" lon="5.4863">
        <ele>153</ele>
        <time>2013-02-20T14:21:44Z</time>
      </trkpt>
      <trkpt lat="43.27231" lon="5.48636">
        <ele>152.1</ele>
        <time>2013-02-20T14:21:54Z</time>
      </trkpt>
      <trkpt lat="43.27232" lon="5.48637">
        <ele>151.3</ele>
        <time>2013-02-20T14:21:55Z</time>
      </trkpt>
      <trkpt lat="43.27243" lon="5.48652">
        <ele>155.3</ele>
        <time>2013-02-20T14:22:18Z</time>
      </trkpt>
      <trkpt lat="43.27249" lon="5.48661">
        <ele>156</ele>
        <time>2013-02-20T14:22:27Z</time>
      </trkpt>
      <trkpt lat="43.27256" lon="5.48668">
        <ele>158.6</ele>
        <time>2013-02-20T14:22:40Z</time>
      </trkpt>
      <trkpt lat="43.27263" lon="5.48675">
        <ele>158.3</ele>
        <time>2013-02-20T14:22:49Z</time>
      </trkpt>
      <trkpt lat="43.2727" lon="5.48681">
        <ele>163.1</ele>
        <time>2013-02-20T14:22:55Z</time>
      </trkpt>
      <trkpt lat="43.27271" lon="5.48682">
        <ele>163.6</ele>
        <time>2013-02-20T14:22:56Z</time>
      </trkpt>
      <trkpt lat="43.27282" lon="5.48698">
        <ele>156.8</ele>
        <time>2013-02-20T14:23:12Z</time>
      </trkpt>
      <trkpt lat="43.27287" lon="5.48708">
        <ele>153.6</ele>
        <time>2013-02-20T14:23:19Z</time>
      </trkpt>
      <trkpt lat="43.27293" lon="5.48716">
        <ele>153.6</ele>
        <time>2013-02-20T14:23:28Z</time>
      </trkpt>
      <trkpt lat="43.27293" lon="5.48728">
        <ele>156.1</ele>
        <time>2013-02-20T14:23:37Z</time>
      </trkpt>
      <trkpt lat="43.2729" lon="5.48738">
        <ele>152.6</ele>
        <time>2013-02-20T14:23:41Z</time>
      </trkpt>
      <trkpt lat="43.27289" lon="5.48748">
        <ele>149.8</ele>
        <time>2013-02-20T14:23:46Z</time>
      </trkpt>
      <trkpt lat="43.27288" lon="5.48759">
        <ele>146.6</ele>
        <time>2013-02-20T14:23:52Z</time>
      </trkpt>
      <trkpt lat="43.27289" lon="5.4877">
        <ele>142.1</ele>
        <time>2013-02-20T14:23:58Z</time>
      </trkpt>
      <trkpt lat="43.27289" lon="5.48772">
        <ele>141.3</ele>
        <time>2013-02-20T14:23:59Z</time>
      </trkpt>
      <trkpt lat="43.27302" lon="5.48784">
        <ele>149.6</ele>
        <time>2013-02-20T14:24:12Z</time>
      </trkpt>
      <trkpt lat="43.2731" lon="5.48787">
        <ele>146.8</ele>
        <time>2013-02-20T14:24:20Z</time>
      </trkpt>
      <trkpt lat="43.27318" lon="5.48786">
        <ele>139.1</ele>
        <time>2013-02-20T14:24:27Z</time>
      </trkpt>
      <trkpt lat="43.27326" lon="5.48784">
        <ele>135.5</ele>
        <time>2013-02-20T14:24:33Z</time>
      </trkpt>
      <trkpt lat="43.27335" lon="5.48782">
        <ele>137.3</ele>
        <time>2013-02-20T14:24:40Z</time>
      </trkpt>
      <trkpt lat="43.27343" lon="5.48778">
        <ele>140.3</ele>
        <time>2013-02-20T14:24:47Z</time>
      </trkpt>
      <trkpt lat="43.2735" lon="5.48772">
        <ele>137.6</ele>
        <time>2013-02-20T14:24:56Z</time>
      </trkpt>
      <trkpt lat="43.27357" lon="5.48764">
        <ele>134.5</ele>
        <time>2013-02-20T14:25:05Z</time>
      </trkpt>
      <trkpt lat="43.27358" lon="5.48764">
        <ele>134.1</ele>
        <time>2013-02-20T14:25:06Z</time>
      </trkpt>
      <trkpt lat="43.27373" lon="5.4876">
        <ele>132.3</ele>
        <time>2013-02-20T14:25:20Z</time>
      </trkpt>
      <trkpt lat="43.2738" lon="5.48765">
        <ele>132.1</ele>
        <time>2013-02-20T14:25:29Z</time>
      </trkpt>
      <trkpt lat="43.27387" lon="5.48771">
        <ele>129</ele>
        <time>2013-02-20T14:25:38Z</time>
      </trkpt>
      <trkpt lat="43.27395" lon="5.48774">
        <ele>130.3</ele>
        <time>2013-02-20T14:25:47Z</time>
      </trkpt>
      <trkpt lat="43.27404" lon="5.48777">
        <ele>135.3</ele>
        <time>2013-02-20T14:25:55Z</time>
      </trkpt>
      <trkpt lat="43.27412" lon="5.48781">
        <ele>134.3</ele>
        <time>2013-02-20T14:26:05Z</time>
      </trkpt>
      <trkpt lat="43.27419" lon="5.48785">
        <ele>132</ele>
        <time>2013-02-20T14:26:12Z</time>
      </trkpt>
      <trkpt lat="43.2742" lon="5.48786">
        <ele>129.6</ele>
        <time>2013-02-20T14:26:13Z</time>
      </trkpt>
      <trkpt lat="43.27434" lon="5.48787">
        <ele>140.5</ele>
        <time>2013-02-20T14:26:25Z</time>
      </trkpt>
      <trkpt lat="43.27442" lon="5.48791">
        <ele>139.6</ele>
        <time>2013-02-20T14:26:34Z</time>
      </trkpt>
      <trkpt lat="43.2745" lon="5.48795">
        <ele>136.8</ele>
        <time>2013-02-20T14:26:42Z</time>
      </trkpt>
      <trkpt lat="43.27458" lon="5.48796">
        <ele>136.3</ele>
        <time>2013-02-20T14:26:51Z</time>
      </trkpt>
      <trkpt lat="43.27464" lon="5.48806">
        <ele>115.9</ele>
        <time>2013-02-20T14:27:04Z</time>
      </trkpt>
      <trkpt lat="43.27473" lon="5.48806">
        <ele>105</ele>
        <time>2013-02-20T14:27:15Z</time>
      </trkpt>
      <trkpt lat="43.27474" lon="5.48806">
        <ele>103.4</ele>
        <time>2013-02-20T14:27:16Z</time>
      </trkpt>
      <trkpt lat="43.27489" lon="5.48802">
        <ele>108</ele>
        <time>2013-02-20T14:27:31Z</time>
      </trkpt>
      <trkpt lat="43.27497" lon="5.48802">
        <ele>103</ele>
        <time>2013-02-20T14:27:39Z</time>
      </trkpt>
      <trkpt lat="43.27505" lon="5.48797">
        <ele>104.6</ele>
        <time>2013-02-20T14:27:46Z</time>
      </trkpt>
      <trkpt lat="43.27502" lon="5.48786">
        <ele>112.9</ele>
        <time>2013-02-20T14:28:07Z</time>
      </trkpt>
      <trkpt lat="43.27499" lon="5.48774">
        <ele>133.8</ele>
        <time>2013-02-20T14:28:44Z</time>
      </trkpt>
      <trkpt lat="43.27499" lon="5.48774">
        <ele>134.8</ele>
        <time>2013-02-20T14:28:45Z</time>
      </trkpt>
      <trkpt lat="43.27483" lon="5.48766">
        <ele>130</ele>
        <time>2013-02-20T14:29:22Z</time>
      </trkpt>
      <trkpt lat="43.27476" lon="5.48761">
        <ele>129.8</ele>
        <time>2013-02-20T14:29:29Z</time>
      </trkpt>
      <trkpt lat="43.27479" lon="5.4875">
        <ele>123</ele>
        <time>2013-02-20T14:29:51Z</time>
      </trkpt>
      <trkpt lat="43.27481" lon="5.4875">
        <ele>125.5</ele>
        <time>2013-02-20T14:29:52Z</time>
      </trkpt>
      <trkpt lat="43.27496" lon="5.48752">
        <ele>118.5</ele>
        <time>2013-02-20T14:30:13Z</time>
      </trkpt>
      <trkpt lat="43.27505" lon="5.48755">
        <ele>119.6</ele>
        <time>2013-02-20T14:30:21Z</time>
      </trkpt>
      <trkpt lat="43.27513" lon="5.48751">
        <ele>119.1</ele>
        <time>2013-02-20T14:30:34Z</time>
      </trkpt>
      <trkpt lat="43.27521" lon="5.48748">
        <ele>117.4</ele>
        <time>2013-02-20T14:30:49Z</time>
      </trkpt>
      <trkpt lat="43.2753" lon="5.48749">
        <ele>129.1</ele>
        <time>2013-02-20T14:31:05Z</time>
      </trkpt>
      <trkpt lat="43.2753" lon="5.48748">
        <ele>130.8</ele>
        <time>2013-02-20T14:31:06Z</time>
      </trkpt>
      <trkpt lat="43.27546" lon="5.48748">
        <ele>136.6</ele>
        <time>2013-02-20T14:31:25Z</time>
      </trkpt>
      <trkpt lat="43.27554" lon="5.48744">
        <ele>142.3</ele>
        <time>2013-02-20T14:31:30Z</time>
      </trkpt>
      <trkpt lat="43.27562" lon="5.48739">
        <ele>157.1</ele>
        <time>2013-02-20T14:31:36Z</time>
      </trkpt>
      <trkpt lat="43.2757" lon="5.48738">
        <ele>160.3</ele>
        <time>2013-02-20T14:31:42Z</time>
      </trkpt>
      <trkpt lat="43.27578" lon="5.48731">
        <ele>160.8</ele>
        <time>2013-02-20T14:31:49Z</time>
      </trkpt>
      <trkpt lat="43.27586" lon="5.48726">
        <ele>168.3</ele>
        <time>2013-02-20T14:31:55Z</time>
      </trkpt>
      <trkpt lat="43.27594" lon="5.4872">
        <ele>176</ele>
        <time>2013-02-20T14:32:02Z</time>
      </trkpt>
      <trkpt lat="43.27601" lon="5.48725">
        <ele>161.6</ele>
        <time>2013-02-20T14:32:16Z</time>
      </trkpt>
      <trkpt lat="43.27602" lon="5.48724">
        <ele>161.8</ele>
        <time>2013-02-20T14:32:17Z</time>
      </trkpt>
      <trkpt lat="43.27616" lon="5.48714">
        <ele>164.3</ele>
        <time>2013-02-20T14:32:32Z</time>
      </trkpt>
      <trkpt lat="43.27617" lon="5.48702">
        <ele>165.3</ele>
        <time>2013-02-20T14:32:44Z</time>
      </trkpt>
      <trkpt lat="43.27608" lon="5.48702">
        <ele>158.1</ele>
        <time>2013-02-20T14:32:49Z</time>
      </trkpt>
      <trkpt lat="43.276" lon="5.48701">
        <ele>155.5</ele>
        <time>2013-02-20T14:32:55Z</time>
      </trkpt>
      <trkpt lat="43.27591" lon="5.487">
        <ele>153.6</ele>
        <time>2013-02-20T14:33:09Z</time>
      </trkpt>
      <trkpt lat="43.27585" lon="5.48692">
        <ele>154.5</ele>
        <time>2013-02-20T14:33:32Z</time>
      </trkpt>
      <trkpt lat="43.27585" lon="5.48691">
        <ele>153.3</ele>
        <time>2013-02-20T14:33:33Z</time>
      </trkpt>
      <trkpt lat="43.27568" lon="5.48692">
        <ele>152.6</ele>
        <time>2013-02-20T14:34:02Z</time>
      </trkpt>
      <trkpt lat="43.27569" lon="5.4868">
        <ele>152.1</ele>
        <time>2013-02-20T14:34:26Z</time>
      </trkpt>
      <trkpt lat="43.27576" lon="5.48675">
        <ele>150.3</ele>
        <time>2013-02-20T14:34:48Z</time>
      </trkpt>
      <trkpt lat="43.27577" lon="5.48675">
        <ele>149.8</ele>
        <time>2013-02-20T14:34:49Z</time>
      </trkpt>
      <trkpt lat="43.2759" lon="5.48661">
        <ele>147.6</ele>
        <time>2013-02-20T14:35:10Z</time>
      </trkpt>
      <trkpt lat="43.27598" lon="5.48656">
        <ele>147.3</ele>
        <time>2013-02-20T14:35:26Z</time>
      </trkpt>
      <trkpt lat="43.27604" lon="5.48648">
        <ele>147.5</ele>
        <time>2013-02-20T14:35:34Z</time>
      </trkpt>
      <trkpt lat="43.27607" lon="5.48637">
        <ele>147.3</ele>
        <time>2013-02-20T14:35:42Z</time>
      </trkpt>
      <trkpt lat="43.27612" lon="5.48628">
        <ele>145.3</ele>
        <time>2013-02-20T14:35:49Z</time>
      </trkpt>
      <trkpt lat="43.27613" lon="5.48627">
        <ele>145.3</ele>
        <time>2013-02-20T14:35:50Z</time>
      </trkpt>
      <trkpt lat="43.27624" lon="5.48613">
        <ele>138.3</ele>
        <time>2013-02-20T14:36:03Z</time>
      </trkpt>
      <trkpt lat="43.27628" lon="5.48603">
        <ele>140.1</ele>
        <time>2013-02-20T14:36:10Z</time>
      </trkpt>
      <trkpt lat="43.27631" lon="5.48592">
        <ele>139.1</ele>
        <time>2013-02-20T14:36:17Z</time>
      </trkpt>
      <trkpt lat="43.27634" lon="5.48581">
        <ele>140.8</ele>
        <time>2013-02-20T14:36:25Z</time>
      </trkpt>
      <trkpt lat="43.27638" lon="5.48571">
        <ele>140.8</ele>
        <time>2013-02-20T14:36:33Z</time>
      </trkpt>
      <trkpt lat="43.27642" lon="5.48561">
        <ele>139.6</ele>
        <time>2013-02-20T14:36:41Z</time>
      </trkpt>
      <trkpt lat="43.27646" lon="5.4855">
        <ele>138.8</ele>
        <time>2013-02-20T14:36:50Z</time>
      </trkpt>
      <trkpt lat="43.27646" lon="5.48549">
        <ele>138.5</ele>
        <time>2013-02-20T14:36:51Z</time>
      </trkpt>
      <trkpt lat="43.27656" lon="5.48532">
        <ele>134.1</ele>
        <time>2013-02-20T14:37:06Z</time>
      </trkpt>
      <trkpt lat="43.27661" lon="5.48522">
        <ele>132.3</ele>
        <time>2013-02-20T14:37:14Z</time>
      </trkpt>
      <trkpt lat="43.27665" lon="5.48512">
        <ele>130.8</ele>
        <time>2013-02-20T14:37:23Z</time>
      </trkpt>
      <trkpt lat="43.27668" lon="5.48501">
        <ele>129.8</ele>
        <time>2013-02-20T14:37:31Z</time>
      </trkpt>
      <trkpt lat="43.27673" lon="5.48491">
        <ele>128.5</ele>
        <time>2013-02-20T14:37:40Z</time>
      </trkpt>
      <trkpt lat="43.27676" lon="5.48482">
        <ele>127.5</ele>
        <time>2013-02-20T14:37:46Z</time>
      </trkpt>
      <trkpt lat="43.2768" lon="5.48471">
        <ele>125</ele>
        <time>2013-02-20T14:37:54Z</time>
      </trkpt>
      <trkpt lat="43.2768" lon="5.4847">
        <ele>124.9</ele>
        <time>2013-02-20T14:37:55Z</time>
      </trkpt>
      <trkpt lat="43.27683" lon="5.48449">
        <ele>125.3</ele>
        <time>2013-02-20T14:38:09Z</time>
      </trkpt>
      <trkpt lat="43.27687" lon="5.48438">
        <ele>126</ele>
        <time>2013-02-20T14:38:16Z</time>
      </trkpt>
      <trkpt lat="43.2769" lon="5.48428">
        <ele>124</ele>
        <time>2013-02-20T14:38:23Z</time>
      </trkpt>
      <trkpt lat="43.27693" lon="5.48417">
        <ele>122.6</ele>
        <time>2013-02-20T14:38:31Z</time>
      </trkpt>
      <trkpt lat="43.27695" lon="5.48405">
        <ele>121.5</ele>
        <time>2013-02-20T14:38:39Z</time>
      </trkpt>
      <trkpt lat="43.27696" lon="5.48394">
        <ele>121.3</ele>
        <time>2013-02-20T14:38:47Z</time>
      </trkpt>
      <trkpt lat="43.27699" lon="5.48382">
        <ele>118</ele>
        <time>2013-02-20T14:38:56Z</time>
      </trkpt>
      <trkpt lat="43.27699" lon="5.48381">
        <ele>118</ele>
        <time>2013-02-20T14:38:57Z</time>
      </trkpt>
      <trkpt lat="43.27702" lon="5.4836">
        <ele>120.6</ele>
        <time>2013-02-20T14:39:13Z</time>
      </trkpt>
      <trkpt lat="43.27705" lon="5.4835">
        <ele>122.5</ele>
        <time>2013-02-20T14:39:21Z</time>
      </trkpt>
      <trkpt lat="43.27708" lon="5.48338">
        <ele>121</ele>
        <time>2013-02-20T14:39:31Z</time>
      </trkpt>
      <trkpt lat="43.27708" lon="5.48327">
        <ele>120.8</ele>
        <time>2013-02-20T14:39:42Z</time>
      </trkpt>
      <trkpt lat="43.27711" lon="5.48315">
        <ele>123.6</ele>
        <time>2013-02-20T14:39:53Z</time>
      </trkpt>
      <trkpt lat="43.2772" lon="5.48314">
        <ele>127.6</ele>
        <time>2013-02-20T14:40:09Z</time>
      </trkpt>
      <trkpt lat="43.2772" lon="5.48314">
        <ele>127.5</ele>
        <time>2013-02-20T14:40:10Z</time>
      </trkpt>
    </trkseg>
  </trk>
</gpx>